<?xml version="1.0" encoding="UTF-8" standalone="no" ?>
<gpx xmlns="http://www.topografix.com/GPX/1/1" xmlns:xsi="http://www.w3.org/2001/XMLSchema-instance" xsi:schemaLocation="http://www.topografix.com/GPX/1/1 http://www.topografix.com/GPX/1/1/gpx.xsd" version="1.1" creator="VisuGPX - https://www.visugpx.com">
  <metadata>
    <name>Sur Cou (versant E)</name>
    <desc><![CDATA[                                                        ]]></desc>
  </metadata>
  <trk>
    <name><![CDATA[20190323194918-g47gv]]></name>
    <trkseg>
      <trkpt lat="46.02625" lon="6.37281">
        <ele>1066.72</ele>
        <time>2019-03-19T18:12:58Z</time>
      </trkpt>
      <trkpt lat="46.02624" lon="6.37281">
        <ele>1074.89</ele>
        <time>2019-03-19T18:12:59Z</time>
      </trkpt>
      <trkpt lat="46.02623" lon="6.3728">
        <ele>1074.89</ele>
        <time>2019-03-19T18:13:00Z</time>
      </trkpt>
      <trkpt lat="46.02623" lon="6.37279">
        <ele>1074.89</ele>
        <time>2019-03-19T18:13:01Z</time>
      </trkpt>
      <trkpt lat="46.0262" lon="6.37277">
        <ele>1067.68</ele>
        <time>2019-03-19T18:13:03Z</time>
      </trkpt>
      <trkpt lat="46.02619" lon="6.37277">
        <ele>1067.68</ele>
        <time>2019-03-19T18:13:04Z</time>
      </trkpt>
      <trkpt lat="46.02613" lon="6.37268">
        <ele>1069.12</ele>
        <time>2019-03-19T18:13:12Z</time>
      </trkpt>
      <trkpt lat="46.02611" lon="6.37263">
        <ele>1069.6</ele>
        <time>2019-03-19T18:13:16Z</time>
      </trkpt>
      <trkpt lat="46.0261" lon="6.37262">
        <ele>1070.08</ele>
        <time>2019-03-19T18:13:17Z</time>
      </trkpt>
      <trkpt lat="46.0261" lon="6.37261">
        <ele>1070.08</ele>
        <time>2019-03-19T18:13:18Z</time>
      </trkpt>
      <trkpt lat="46.02599" lon="6.37247">
        <ele>1072.49</ele>
        <time>2019-03-19T18:13:32Z</time>
      </trkpt>
      <trkpt lat="46.02598" lon="6.37246">
        <ele>1072.49</ele>
        <time>2019-03-19T18:13:33Z</time>
      </trkpt>
      <trkpt lat="46.02589" lon="6.37232">
        <ele>1075.37</ele>
        <time>2019-03-19T18:13:49Z</time>
      </trkpt>
      <trkpt lat="46.02581" lon="6.37227">
        <ele>1077.29</ele>
        <time>2019-03-19T18:13:59Z</time>
      </trkpt>
      <trkpt lat="46.02563" lon="6.37217">
        <ele>1080.18</ele>
        <time>2019-03-19T18:14:19Z</time>
      </trkpt>
      <trkpt lat="46.02559" lon="6.37207">
        <ele>1082.58</ele>
        <time>2019-03-19T18:15:07Z</time>
      </trkpt>
      <trkpt lat="46.0255" lon="6.37183">
        <ele>1085.47</ele>
        <time>2019-03-19T18:15:27Z</time>
      </trkpt>
      <trkpt lat="46.02548" lon="6.37164">
        <ele>1088.83</ele>
        <time>2019-03-19T18:15:42Z</time>
      </trkpt>
      <trkpt lat="46.02547" lon="6.37157">
        <ele>1089.79</ele>
        <time>2019-03-19T18:15:47Z</time>
      </trkpt>
      <trkpt lat="46.02538" lon="6.37134">
        <ele>1092.68</ele>
        <time>2019-03-19T18:16:05Z</time>
      </trkpt>
      <trkpt lat="46.02525" lon="6.37128">
        <ele>1096.04</ele>
        <time>2019-03-19T18:16:19Z</time>
      </trkpt>
      <trkpt lat="46.02512" lon="6.37116">
        <ele>1098.92</ele>
        <time>2019-03-19T18:16:36Z</time>
      </trkpt>
      <trkpt lat="46.02501" lon="6.37101">
        <ele>1101.81</ele>
        <time>2019-03-19T18:16:53Z</time>
      </trkpt>
      <trkpt lat="46.0249" lon="6.37085">
        <ele>1105.17</ele>
        <time>2019-03-19T18:17:12Z</time>
      </trkpt>
      <trkpt lat="46.02482" lon="6.37067">
        <ele>1108.06</ele>
        <time>2019-03-19T18:17:29Z</time>
      </trkpt>
      <trkpt lat="46.02477" lon="6.37051">
        <ele>1111.42</ele>
        <time>2019-03-19T18:17:46Z</time>
      </trkpt>
      <trkpt lat="46.0247" lon="6.37038">
        <ele>1114.79</ele>
        <time>2019-03-19T18:18:01Z</time>
      </trkpt>
      <trkpt lat="46.02463" lon="6.37031">
        <ele>1116.71</ele>
        <time>2019-03-19T18:18:13Z</time>
      </trkpt>
      <trkpt lat="46.02456" lon="6.37019">
        <ele>1119.59</ele>
        <time>2019-03-19T18:18:29Z</time>
      </trkpt>
      <trkpt lat="46.0245" lon="6.37003">
        <ele>1122.96</ele>
        <time>2019-03-19T18:18:44Z</time>
      </trkpt>
      <trkpt lat="46.02442" lon="6.3699">
        <ele>1125.84</ele>
        <time>2019-03-19T18:18:59Z</time>
      </trkpt>
      <trkpt lat="46.02442" lon="6.36986">
        <ele>1126.32</ele>
        <time>2019-03-19T18:19:02Z</time>
      </trkpt>
      <trkpt lat="46.02442" lon="6.3698">
        <ele>1127.76</ele>
        <time>2019-03-19T18:19:08Z</time>
      </trkpt>
      <trkpt lat="46.02441" lon="6.36966">
        <ele>1130.65</ele>
        <time>2019-03-19T18:19:21Z</time>
      </trkpt>
      <trkpt lat="46.02442" lon="6.3696">
        <ele>1131.61</ele>
        <time>2019-03-19T18:19:28Z</time>
      </trkpt>
      <trkpt lat="46.02438" lon="6.36952">
        <ele>1132.57</ele>
        <time>2019-03-19T18:19:38Z</time>
      </trkpt>
      <trkpt lat="46.02434" lon="6.36939">
        <ele>1135.94</ele>
        <time>2019-03-19T18:19:57Z</time>
      </trkpt>
      <trkpt lat="46.0243" lon="6.36925">
        <ele>1138.82</ele>
        <time>2019-03-19T18:20:14Z</time>
      </trkpt>
      <trkpt lat="46.02421" lon="6.36911">
        <ele>1141.7</ele>
        <time>2019-03-19T18:20:30Z</time>
      </trkpt>
      <trkpt lat="46.02416" lon="6.36906">
        <ele>1143.14</ele>
        <time>2019-03-19T18:20:38Z</time>
      </trkpt>
      <trkpt lat="46.02416" lon="6.36905">
        <ele>1143.63</ele>
        <time>2019-03-19T18:20:39Z</time>
      </trkpt>
      <trkpt lat="46.02412" lon="6.36904">
        <ele>1144.11</ele>
        <time>2019-03-19T18:20:42Z</time>
      </trkpt>
      <trkpt lat="46.02408" lon="6.36893">
        <ele>1146.99</ele>
        <time>2019-03-19T18:20:59Z</time>
      </trkpt>
      <trkpt lat="46.02406" lon="6.36891">
        <ele>1147.47</ele>
        <time>2019-03-19T18:21:02Z</time>
      </trkpt>
      <trkpt lat="46.02404" lon="6.36892">
        <ele>1147.95</ele>
        <time>2019-03-19T18:21:03Z</time>
      </trkpt>
      <trkpt lat="46.02393" lon="6.36882">
        <ele>1150.84</ele>
        <time>2019-03-19T18:21:20Z</time>
      </trkpt>
      <trkpt lat="46.02391" lon="6.36868">
        <ele>1154.2</ele>
        <time>2019-03-19T18:21:36Z</time>
      </trkpt>
      <trkpt lat="46.02382" lon="6.36851">
        <ele>1157.08</ele>
        <time>2019-03-19T18:21:53Z</time>
      </trkpt>
      <trkpt lat="46.0238" lon="6.36835">
        <ele>1159.97</ele>
        <time>2019-03-19T18:22:09Z</time>
      </trkpt>
      <trkpt lat="46.02368" lon="6.3682">
        <ele>1163.33</ele>
        <time>2019-03-19T18:22:29Z</time>
      </trkpt>
      <trkpt lat="46.02367" lon="6.36805">
        <ele>1166.22</ele>
        <time>2019-03-19T18:22:46Z</time>
      </trkpt>
      <trkpt lat="46.02367" lon="6.36798">
        <ele>1167.18</ele>
        <time>2019-03-19T18:22:52Z</time>
      </trkpt>
      <trkpt lat="46.02361" lon="6.36782">
        <ele>1170.54</ele>
        <time>2019-03-19T18:23:10Z</time>
      </trkpt>
      <trkpt lat="46.02351" lon="6.36764">
        <ele>1173.43</ele>
        <time>2019-03-19T18:23:31Z</time>
      </trkpt>
      <trkpt lat="46.02342" lon="6.36743">
        <ele>1175.83</ele>
        <time>2019-03-19T18:23:51Z</time>
      </trkpt>
      <trkpt lat="46.02341" lon="6.36743">
        <ele>1175.83</ele>
        <time>2019-03-19T18:23:52Z</time>
      </trkpt>
      <trkpt lat="46.0231" lon="6.36708">
        <ele>1179.19</ele>
        <time>2019-03-19T18:24:30Z</time>
      </trkpt>
      <trkpt lat="46.02305" lon="6.367">
        <ele>1179.19</ele>
        <time>2019-03-19T18:24:38Z</time>
      </trkpt>
      <trkpt lat="46.02305" lon="6.36699">
        <ele>1179.19</ele>
        <time>2019-03-19T18:24:39Z</time>
      </trkpt>
      <trkpt lat="46.02304" lon="6.36692">
        <ele>1180.16</ele>
        <time>2019-03-19T18:24:51Z</time>
      </trkpt>
      <trkpt lat="46.02303" lon="6.36693">
        <ele>1180.16</ele>
        <time>2019-03-19T18:24:52Z</time>
      </trkpt>
      <trkpt lat="46.02302" lon="6.36714">
        <ele>1182.08</ele>
        <time>2019-03-19T18:25:10Z</time>
      </trkpt>
      <trkpt lat="46.02303" lon="6.36715">
        <ele>1182.08</ele>
        <time>2019-03-19T18:25:11Z</time>
      </trkpt>
      <trkpt lat="46.02313" lon="6.36736">
        <ele>1184.96</ele>
        <time>2019-03-19T18:25:31Z</time>
      </trkpt>
      <trkpt lat="46.02323" lon="6.3676">
        <ele>1188.33</ele>
        <time>2019-03-19T18:25:48Z</time>
      </trkpt>
      <trkpt lat="46.02327" lon="6.3678">
        <ele>1191.21</ele>
        <time>2019-03-19T18:26:04Z</time>
      </trkpt>
      <trkpt lat="46.0233" lon="6.36803">
        <ele>1194.58</ele>
        <time>2019-03-19T18:26:23Z</time>
      </trkpt>
      <trkpt lat="46.0233" lon="6.36813">
        <ele>1196.02</ele>
        <time>2019-03-19T18:26:39Z</time>
      </trkpt>
      <trkpt lat="46.02331" lon="6.36813">
        <ele>1196.5</ele>
        <time>2019-03-19T18:26:40Z</time>
      </trkpt>
      <trkpt lat="46.02329" lon="6.36815">
        <ele>1196.02</ele>
        <time>2019-03-19T18:26:52Z</time>
      </trkpt>
      <trkpt lat="46.02327" lon="6.36819">
        <ele>1196.5</ele>
        <time>2019-03-19T18:27:01Z</time>
      </trkpt>
      <trkpt lat="46.0232" lon="6.36834">
        <ele>1198.42</ele>
        <time>2019-03-19T18:27:16Z</time>
      </trkpt>
      <trkpt lat="46.02315" lon="6.36835">
        <ele>1198.9</ele>
        <time>2019-03-19T18:27:17Z</time>
      </trkpt>
      <trkpt lat="46.02309" lon="6.36839">
        <ele>1199.38</ele>
        <time>2019-03-19T18:27:22Z</time>
      </trkpt>
      <trkpt lat="46.02308" lon="6.3684">
        <ele>1199.86</ele>
        <time>2019-03-19T18:27:23Z</time>
      </trkpt>
      <trkpt lat="46.02307" lon="6.36841">
        <ele>1200.34</ele>
        <time>2019-03-19T18:27:24Z</time>
      </trkpt>
      <trkpt lat="46.02306" lon="6.36842">
        <ele>1200.34</ele>
        <time>2019-03-19T18:27:26Z</time>
      </trkpt>
      <trkpt lat="46.02305" lon="6.36845">
        <ele>1200.82</ele>
        <time>2019-03-19T18:27:31Z</time>
      </trkpt>
      <trkpt lat="46.02305" lon="6.36846">
        <ele>1201.3</ele>
        <time>2019-03-19T18:27:32Z</time>
      </trkpt>
      <trkpt lat="46.023" lon="6.36858">
        <ele>1204.19</ele>
        <time>2019-03-19T18:27:48Z</time>
      </trkpt>
      <trkpt lat="46.02299" lon="6.36859">
        <ele>1204.19</ele>
        <time>2019-03-19T18:27:49Z</time>
      </trkpt>
      <trkpt lat="46.02284" lon="6.36883">
        <ele>1207.55</ele>
        <time>2019-03-19T18:28:10Z</time>
      </trkpt>
      <trkpt lat="46.02271" lon="6.36898">
        <ele>1210.44</ele>
        <time>2019-03-19T18:28:28Z</time>
      </trkpt>
      <trkpt lat="46.02262" lon="6.36915">
        <ele>1213.8</ele>
        <time>2019-03-19T18:28:48Z</time>
      </trkpt>
      <trkpt lat="46.02256" lon="6.36925">
        <ele>1215.24</ele>
        <time>2019-03-19T18:28:58Z</time>
      </trkpt>
      <trkpt lat="46.0225" lon="6.3693">
        <ele>1216.69</ele>
        <time>2019-03-19T18:29:06Z</time>
      </trkpt>
      <trkpt lat="46.0225" lon="6.36931">
        <ele>1217.17</ele>
        <time>2019-03-19T18:29:07Z</time>
      </trkpt>
      <trkpt lat="46.02249" lon="6.36932">
        <ele>1217.17</ele>
        <time>2019-03-19T18:29:08Z</time>
      </trkpt>
      <trkpt lat="46.02249" lon="6.36933">
        <ele>1217.17</ele>
        <time>2019-03-19T18:29:09Z</time>
      </trkpt>
      <trkpt lat="46.02248" lon="6.36937">
        <ele>1218.13</ele>
        <time>2019-03-19T18:29:14Z</time>
      </trkpt>
      <trkpt lat="46.02245" lon="6.36943">
        <ele>1219.09</ele>
        <time>2019-03-19T18:29:21Z</time>
      </trkpt>
      <trkpt lat="46.02244" lon="6.36944">
        <ele>1219.09</ele>
        <time>2019-03-19T18:29:22Z</time>
      </trkpt>
      <trkpt lat="46.02243" lon="6.36946">
        <ele>1219.57</ele>
        <time>2019-03-19T18:29:23Z</time>
      </trkpt>
      <trkpt lat="46.02242" lon="6.36953">
        <ele>1220.53</ele>
        <time>2019-03-19T18:29:31Z</time>
      </trkpt>
      <trkpt lat="46.02241" lon="6.36954">
        <ele>1220.53</ele>
        <time>2019-03-19T18:29:32Z</time>
      </trkpt>
      <trkpt lat="46.02241" lon="6.36956">
        <ele>1221.01</ele>
        <time>2019-03-19T18:29:33Z</time>
      </trkpt>
      <trkpt lat="46.02239" lon="6.36967">
        <ele>1222.93</ele>
        <time>2019-03-19T18:29:47Z</time>
      </trkpt>
      <trkpt lat="46.02238" lon="6.36968">
        <ele>1223.42</ele>
        <time>2019-03-19T18:29:48Z</time>
      </trkpt>
      <trkpt lat="46.02227" lon="6.36983">
        <ele>1226.3</ele>
        <time>2019-03-19T18:30:13Z</time>
      </trkpt>
      <trkpt lat="46.02225" lon="6.36985">
        <ele>1226.78</ele>
        <time>2019-03-19T18:30:18Z</time>
      </trkpt>
      <trkpt lat="46.02222" lon="6.3699">
        <ele>1227.26</ele>
        <time>2019-03-19T18:30:24Z</time>
      </trkpt>
      <trkpt lat="46.02223" lon="6.36994">
        <ele>1227.26</ele>
        <time>2019-03-19T18:31:27Z</time>
      </trkpt>
      <trkpt lat="46.0222" lon="6.36998">
        <ele>1226.78</ele>
        <time>2019-03-19T18:31:57Z</time>
      </trkpt>
      <trkpt lat="46.02222" lon="6.36999">
        <ele>1227.26</ele>
        <time>2019-03-19T18:32:09Z</time>
      </trkpt>
      <trkpt lat="46.02222" lon="6.36997">
        <ele>1227.74</ele>
        <time>2019-03-19T18:32:58Z</time>
      </trkpt>
      <trkpt lat="46.02222" lon="6.36997">
        <ele>1227.26</ele>
        <time>2019-03-19T18:33:13Z</time>
      </trkpt>
      <trkpt lat="46.0222" lon="6.37001">
        <ele>1226.78</ele>
        <time>2019-03-19T18:33:30Z</time>
      </trkpt>
      <trkpt lat="46.02222" lon="6.36999">
        <ele>1226.78</ele>
        <time>2019-03-19T18:33:35Z</time>
      </trkpt>
      <trkpt lat="46.02224" lon="6.36998">
        <ele>1227.26</ele>
        <time>2019-03-19T18:34:32Z</time>
      </trkpt>
      <trkpt lat="46.02226" lon="6.36997">
        <ele>1227.26</ele>
        <time>2019-03-19T18:34:59Z</time>
      </trkpt>
      <trkpt lat="46.02228" lon="6.36997">
        <ele>1227.26</ele>
        <time>2019-03-19T18:35:00Z</time>
      </trkpt>
      <trkpt lat="46.02229" lon="6.36997">
        <ele>1227.26</ele>
        <time>2019-03-19T18:35:01Z</time>
      </trkpt>
      <trkpt lat="46.02223" lon="6.36996">
        <ele>1227.74</ele>
        <time>2019-03-19T18:35:52Z</time>
      </trkpt>
      <trkpt lat="46.02219" lon="6.37">
        <ele>1227.74</ele>
        <time>2019-03-19T18:36:13Z</time>
      </trkpt>
      <trkpt lat="46.0222" lon="6.36999">
        <ele>1227.74</ele>
        <time>2019-03-19T18:36:15Z</time>
      </trkpt>
      <trkpt lat="46.02234" lon="6.36998">
        <ele>1227.26</ele>
        <time>2019-03-19T18:36:31Z</time>
      </trkpt>
      <trkpt lat="46.02232" lon="6.37004">
        <ele>1226.78</ele>
        <time>2019-03-19T18:36:42Z</time>
      </trkpt>
      <trkpt lat="46.02232" lon="6.37004">
        <ele>1227.26</ele>
        <time>2019-03-19T18:36:44Z</time>
      </trkpt>
      <trkpt lat="46.02225" lon="6.37001">
        <ele>1227.26</ele>
        <time>2019-03-19T18:36:51Z</time>
      </trkpt>
      <trkpt lat="46.02222" lon="6.37002">
        <ele>1226.78</ele>
        <time>2019-03-19T18:37:01Z</time>
      </trkpt>
      <trkpt lat="46.02221" lon="6.37">
        <ele>1227.26</ele>
        <time>2019-03-19T18:37:26Z</time>
      </trkpt>
      <trkpt lat="46.02221" lon="6.37001">
        <ele>1227.74</ele>
        <time>2019-03-19T18:37:40Z</time>
      </trkpt>
      <trkpt lat="46.0223" lon="6.37004">
        <ele>1227.74</ele>
        <time>2019-03-19T18:38:08Z</time>
      </trkpt>
      <trkpt lat="46.02234" lon="6.37009">
        <ele>1227.74</ele>
        <time>2019-03-19T18:38:31Z</time>
      </trkpt>
      <trkpt lat="46.02233" lon="6.37007">
        <ele>1227.26</ele>
        <time>2019-03-19T18:38:33Z</time>
      </trkpt>
      <trkpt lat="46.02232" lon="6.37005">
        <ele>1227.74</ele>
        <time>2019-03-19T18:38:34Z</time>
      </trkpt>
      <trkpt lat="46.02235" lon="6.36993">
        <ele>1226.78</ele>
        <time>2019-03-19T18:38:52Z</time>
      </trkpt>
      <trkpt lat="46.02228" lon="6.37006">
        <ele>1227.26</ele>
        <time>2019-03-19T18:39:10Z</time>
      </trkpt>
      <trkpt lat="46.02226" lon="6.37006">
        <ele>1228.22</ele>
        <time>2019-03-19T18:39:21Z</time>
      </trkpt>
      <trkpt lat="46.02226" lon="6.37006">
        <ele>1228.22</ele>
        <time>2019-03-19T18:39:22Z</time>
      </trkpt>
      <trkpt lat="46.02226" lon="6.37007">
        <ele>1228.7</ele>
        <time>2019-03-19T18:39:23Z</time>
      </trkpt>
      <trkpt lat="46.02226" lon="6.37008">
        <ele>1228.7</ele>
        <time>2019-03-19T18:39:24Z</time>
      </trkpt>
      <trkpt lat="46.02227" lon="6.37012">
        <ele>1228.7</ele>
        <time>2019-03-19T18:39:52Z</time>
      </trkpt>
      <trkpt lat="46.0223" lon="6.37012">
        <ele>1228.7</ele>
        <time>2019-03-19T18:39:55Z</time>
      </trkpt>
      <trkpt lat="46.02229" lon="6.37008">
        <ele>1229.18</ele>
        <time>2019-03-19T18:40:08Z</time>
      </trkpt>
      <trkpt lat="46.02227" lon="6.37006">
        <ele>1229.18</ele>
        <time>2019-03-19T18:40:11Z</time>
      </trkpt>
      <trkpt lat="46.02228" lon="6.37005">
        <ele>1229.18</ele>
        <time>2019-03-19T18:40:14Z</time>
      </trkpt>
      <trkpt lat="46.02227" lon="6.37004">
        <ele>1229.18</ele>
        <time>2019-03-19T18:40:26Z</time>
      </trkpt>
      <trkpt lat="46.02223" lon="6.37003">
        <ele>1229.18</ele>
        <time>2019-03-19T18:40:37Z</time>
      </trkpt>
      <trkpt lat="46.02225" lon="6.37004">
        <ele>1229.18</ele>
        <time>2019-03-19T18:40:38Z</time>
      </trkpt>
      <trkpt lat="46.02233" lon="6.3701">
        <ele>1227.74</ele>
        <time>2019-03-19T18:40:54Z</time>
      </trkpt>
      <trkpt lat="46.02233" lon="6.37011">
        <ele>1227.74</ele>
        <time>2019-03-19T18:41:07Z</time>
      </trkpt>
      <trkpt lat="46.02227" lon="6.37007">
        <ele>1227.74</ele>
        <time>2019-03-19T18:41:14Z</time>
      </trkpt>
      <trkpt lat="46.02227" lon="6.37006">
        <ele>1227.74</ele>
        <time>2019-03-19T18:41:21Z</time>
      </trkpt>
      <trkpt lat="46.02229" lon="6.37007">
        <ele>1227.26</ele>
        <time>2019-03-19T18:41:29Z</time>
      </trkpt>
      <trkpt lat="46.0223" lon="6.37008">
        <ele>1227.26</ele>
        <time>2019-03-19T18:41:30Z</time>
      </trkpt>
      <trkpt lat="46.02234" lon="6.37009">
        <ele>1227.26</ele>
        <time>2019-03-19T18:41:33Z</time>
      </trkpt>
      <trkpt lat="46.02232" lon="6.37008">
        <ele>1227.74</ele>
        <time>2019-03-19T18:41:38Z</time>
      </trkpt>
      <trkpt lat="46.02239" lon="6.37004">
        <ele>1227.26</ele>
        <time>2019-03-19T18:42:01Z</time>
      </trkpt>
      <trkpt lat="46.02243" lon="6.37017">
        <ele>1227.26</ele>
        <time>2019-03-19T18:42:30Z</time>
      </trkpt>
      <trkpt lat="46.0224" lon="6.37016">
        <ele>1227.26</ele>
        <time>2019-03-19T18:42:31Z</time>
      </trkpt>
      <trkpt lat="46.0224" lon="6.37015">
        <ele>1227.74</ele>
        <time>2019-03-19T18:42:32Z</time>
      </trkpt>
      <trkpt lat="46.02239" lon="6.37014">
        <ele>1227.74</ele>
        <time>2019-03-19T18:42:33Z</time>
      </trkpt>
      <trkpt lat="46.02238" lon="6.37013">
        <ele>1227.74</ele>
        <time>2019-03-19T18:42:34Z</time>
      </trkpt>
      <trkpt lat="46.02237" lon="6.37009">
        <ele>1228.22</ele>
        <time>2019-03-19T18:42:36Z</time>
      </trkpt>
      <trkpt lat="46.02235" lon="6.37007">
        <ele>1228.22</ele>
        <time>2019-03-19T18:42:37Z</time>
      </trkpt>
      <trkpt lat="46.02234" lon="6.37005">
        <ele>1228.7</ele>
        <time>2019-03-19T18:42:39Z</time>
      </trkpt>
      <trkpt lat="46.0223" lon="6.36999">
        <ele>1229.18</ele>
        <time>2019-03-19T18:42:43Z</time>
      </trkpt>
      <trkpt lat="46.02229" lon="6.36998">
        <ele>1229.18</ele>
        <time>2019-03-19T18:42:44Z</time>
      </trkpt>
      <trkpt lat="46.02214" lon="6.36983">
        <ele>1231.59</ele>
        <time>2019-03-19T18:42:59Z</time>
      </trkpt>
      <trkpt lat="46.02212" lon="6.36982">
        <ele>1231.59</ele>
        <time>2019-03-19T18:43:00Z</time>
      </trkpt>
      <trkpt lat="46.0221" lon="6.36981">
        <ele>1232.07</ele>
        <time>2019-03-19T18:43:01Z</time>
      </trkpt>
      <trkpt lat="46.0221" lon="6.3698">
        <ele>1232.07</ele>
        <time>2019-03-19T18:43:02Z</time>
      </trkpt>
      <trkpt lat="46.02202" lon="6.36955">
        <ele>1235.43</ele>
        <time>2019-03-19T18:43:25Z</time>
      </trkpt>
      <trkpt lat="46.02188" lon="6.36931">
        <ele>1238.32</ele>
        <time>2019-03-19T18:43:46Z</time>
      </trkpt>
      <trkpt lat="46.02181" lon="6.36915">
        <ele>1241.2</ele>
        <time>2019-03-19T18:44:04Z</time>
      </trkpt>
      <trkpt lat="46.02177" lon="6.36896">
        <ele>1244.56</ele>
        <time>2019-03-19T18:44:20Z</time>
      </trkpt>
      <trkpt lat="46.02173" lon="6.36879">
        <ele>1247.45</ele>
        <time>2019-03-19T18:44:34Z</time>
      </trkpt>
      <trkpt lat="46.02165" lon="6.36862">
        <ele>1250.81</ele>
        <time>2019-03-19T18:44:50Z</time>
      </trkpt>
      <trkpt lat="46.02164" lon="6.36861">
        <ele>1250.81</ele>
        <time>2019-03-19T18:44:52Z</time>
      </trkpt>
      <trkpt lat="46.02159" lon="6.36868">
        <ele>1253.22</ele>
        <time>2019-03-19T18:45:03Z</time>
      </trkpt>
      <trkpt lat="46.02153" lon="6.36863">
        <ele>1256.1</ele>
        <time>2019-03-19T18:45:32Z</time>
      </trkpt>
      <trkpt lat="46.0215" lon="6.36841">
        <ele>1259.46</ele>
        <time>2019-03-19T18:46:02Z</time>
      </trkpt>
      <trkpt lat="46.02149" lon="6.3684">
        <ele>1259.46</ele>
        <time>2019-03-19T18:46:03Z</time>
      </trkpt>
      <trkpt lat="46.02144" lon="6.36818">
        <ele>1262.83</ele>
        <time>2019-03-19T18:46:25Z</time>
      </trkpt>
      <trkpt lat="46.02142" lon="6.36807">
        <ele>1264.75</ele>
        <time>2019-03-19T18:46:36Z</time>
      </trkpt>
      <trkpt lat="46.02141" lon="6.36805">
        <ele>1265.23</ele>
        <time>2019-03-19T18:46:38Z</time>
      </trkpt>
      <trkpt lat="46.02135" lon="6.36786">
        <ele>1268.12</ele>
        <time>2019-03-19T18:46:59Z</time>
      </trkpt>
      <trkpt lat="46.02129" lon="6.36767">
        <ele>1271</ele>
        <time>2019-03-19T18:47:17Z</time>
      </trkpt>
      <trkpt lat="46.02124" lon="6.36752">
        <ele>1274.36</ele>
        <time>2019-03-19T18:47:32Z</time>
      </trkpt>
      <trkpt lat="46.02117" lon="6.36738">
        <ele>1277.25</ele>
        <time>2019-03-19T18:47:51Z</time>
      </trkpt>
      <trkpt lat="46.02116" lon="6.36744">
        <ele>1280.61</ele>
        <time>2019-03-19T18:48:04Z</time>
      </trkpt>
      <trkpt lat="46.02117" lon="6.36753">
        <ele>1282.06</ele>
        <time>2019-03-19T18:48:15Z</time>
      </trkpt>
      <trkpt lat="46.02108" lon="6.36753">
        <ele>1283.5</ele>
        <time>2019-03-19T18:48:37Z</time>
      </trkpt>
      <trkpt lat="46.02109" lon="6.36751">
        <ele>1283.98</ele>
        <time>2019-03-19T18:48:58Z</time>
      </trkpt>
      <trkpt lat="46.02109" lon="6.3675">
        <ele>1283.98</ele>
        <time>2019-03-19T18:48:59Z</time>
      </trkpt>
      <trkpt lat="46.02103" lon="6.36737">
        <ele>1285.42</ele>
        <time>2019-03-19T18:49:39Z</time>
      </trkpt>
      <trkpt lat="46.02102" lon="6.3673">
        <ele>1285.9</ele>
        <time>2019-03-19T18:49:54Z</time>
      </trkpt>
      <trkpt lat="46.02093" lon="6.36714">
        <ele>1286.86</ele>
        <time>2019-03-19T18:50:07Z</time>
      </trkpt>
      <trkpt lat="46.02094" lon="6.36712">
        <ele>1286.86</ele>
        <time>2019-03-19T18:50:08Z</time>
      </trkpt>
      <trkpt lat="46.02088" lon="6.36693">
        <ele>1288.78</ele>
        <time>2019-03-19T18:50:30Z</time>
      </trkpt>
      <trkpt lat="46.02088" lon="6.36691">
        <ele>1289.27</ele>
        <time>2019-03-19T18:50:31Z</time>
      </trkpt>
      <trkpt lat="46.02088" lon="6.36689">
        <ele>1289.27</ele>
        <time>2019-03-19T18:50:32Z</time>
      </trkpt>
      <trkpt lat="46.02088" lon="6.36688">
        <ele>1289.27</ele>
        <time>2019-03-19T18:50:33Z</time>
      </trkpt>
      <trkpt lat="46.02087" lon="6.36686">
        <ele>1289.75</ele>
        <time>2019-03-19T18:50:34Z</time>
      </trkpt>
      <trkpt lat="46.02087" lon="6.36684">
        <ele>1289.75</ele>
        <time>2019-03-19T18:50:35Z</time>
      </trkpt>
      <trkpt lat="46.02087" lon="6.36682">
        <ele>1289.75</ele>
        <time>2019-03-19T18:50:36Z</time>
      </trkpt>
      <trkpt lat="46.02088" lon="6.36674">
        <ele>1290.23</ele>
        <time>2019-03-19T18:50:43Z</time>
      </trkpt>
      <trkpt lat="46.02088" lon="6.36675">
        <ele>1290.23</ele>
        <time>2019-03-19T18:50:56Z</time>
      </trkpt>
      <trkpt lat="46.02092" lon="6.36667">
        <ele>1290.23</ele>
        <time>2019-03-19T18:51:03Z</time>
      </trkpt>
      <trkpt lat="46.02095" lon="6.36662">
        <ele>1290.23</ele>
        <time>2019-03-19T18:51:19Z</time>
      </trkpt>
      <trkpt lat="46.02096" lon="6.36663">
        <ele>1290.23</ele>
        <time>2019-03-19T18:51:21Z</time>
      </trkpt>
      <trkpt lat="46.02101" lon="6.36662">
        <ele>1290.23</ele>
        <time>2019-03-19T18:51:29Z</time>
      </trkpt>
      <trkpt lat="46.02096" lon="6.36654">
        <ele>1290.71</ele>
        <time>2019-03-19T18:51:37Z</time>
      </trkpt>
      <trkpt lat="46.02095" lon="6.36654">
        <ele>1290.71</ele>
        <time>2019-03-19T18:51:38Z</time>
      </trkpt>
      <trkpt lat="46.02091" lon="6.36633">
        <ele>1292.63</ele>
        <time>2019-03-19T18:51:55Z</time>
      </trkpt>
      <trkpt lat="46.02091" lon="6.36632">
        <ele>1293.11</ele>
        <time>2019-03-19T18:51:56Z</time>
      </trkpt>
      <trkpt lat="46.02074" lon="6.36608">
        <ele>1295.99</ele>
        <time>2019-03-19T18:52:14Z</time>
      </trkpt>
      <trkpt lat="46.02075" lon="6.36606">
        <ele>1296.48</ele>
        <time>2019-03-19T18:52:15Z</time>
      </trkpt>
      <trkpt lat="46.02075" lon="6.36605">
        <ele>1296.48</ele>
        <time>2019-03-19T18:52:16Z</time>
      </trkpt>
      <trkpt lat="46.02075" lon="6.36604">
        <ele>1296.96</ele>
        <time>2019-03-19T18:52:17Z</time>
      </trkpt>
      <trkpt lat="46.02077" lon="6.366">
        <ele>1297.44</ele>
        <time>2019-03-19T18:52:20Z</time>
      </trkpt>
      <trkpt lat="46.02078" lon="6.36597">
        <ele>1297.92</ele>
        <time>2019-03-19T18:52:24Z</time>
      </trkpt>
      <trkpt lat="46.02078" lon="6.36596">
        <ele>1298.4</ele>
        <time>2019-03-19T18:52:25Z</time>
      </trkpt>
      <trkpt lat="46.02077" lon="6.36595">
        <ele>1298.4</ele>
        <time>2019-03-19T18:52:26Z</time>
      </trkpt>
      <trkpt lat="46.02078" lon="6.36595">
        <ele>1298.4</ele>
        <time>2019-03-19T18:52:27Z</time>
      </trkpt>
      <trkpt lat="46.02077" lon="6.36593">
        <ele>1298.88</ele>
        <time>2019-03-19T18:52:28Z</time>
      </trkpt>
      <trkpt lat="46.02078" lon="6.36592">
        <ele>1298.88</ele>
        <time>2019-03-19T18:52:29Z</time>
      </trkpt>
      <trkpt lat="46.02078" lon="6.36591">
        <ele>1298.88</ele>
        <time>2019-03-19T18:52:30Z</time>
      </trkpt>
      <trkpt lat="46.02079" lon="6.3659">
        <ele>1299.36</ele>
        <time>2019-03-19T18:52:31Z</time>
      </trkpt>
      <trkpt lat="46.02076" lon="6.36581">
        <ele>1300.32</ele>
        <time>2019-03-19T18:52:39Z</time>
      </trkpt>
      <trkpt lat="46.02075" lon="6.36578">
        <ele>1300.8</ele>
        <time>2019-03-19T18:52:41Z</time>
      </trkpt>
      <trkpt lat="46.02073" lon="6.3657">
        <ele>1301.76</ele>
        <time>2019-03-19T18:52:48Z</time>
      </trkpt>
      <trkpt lat="46.02072" lon="6.36567">
        <ele>1302.24</ele>
        <time>2019-03-19T18:52:51Z</time>
      </trkpt>
      <trkpt lat="46.02076" lon="6.36562">
        <ele>1302.72</ele>
        <time>2019-03-19T18:52:55Z</time>
      </trkpt>
      <trkpt lat="46.02077" lon="6.36561">
        <ele>1302.72</ele>
        <time>2019-03-19T18:52:56Z</time>
      </trkpt>
      <trkpt lat="46.02072" lon="6.36546">
        <ele>1305.13</ele>
        <time>2019-03-19T18:53:12Z</time>
      </trkpt>
      <trkpt lat="46.02073" lon="6.36542">
        <ele>1306.09</ele>
        <time>2019-03-19T18:53:16Z</time>
      </trkpt>
      <trkpt lat="46.02074" lon="6.36538">
        <ele>1306.57</ele>
        <time>2019-03-19T18:53:18Z</time>
      </trkpt>
      <trkpt lat="46.02073" lon="6.36537">
        <ele>1306.57</ele>
        <time>2019-03-19T18:53:19Z</time>
      </trkpt>
      <trkpt lat="46.02073" lon="6.36535">
        <ele>1306.57</ele>
        <time>2019-03-19T18:53:20Z</time>
      </trkpt>
      <trkpt lat="46.02064" lon="6.36519">
        <ele>1308.49</ele>
        <time>2019-03-19T18:53:35Z</time>
      </trkpt>
      <trkpt lat="46.02063" lon="6.36518">
        <ele>1308.49</ele>
        <time>2019-03-19T18:53:36Z</time>
      </trkpt>
      <trkpt lat="46.02062" lon="6.36515">
        <ele>1308.97</ele>
        <time>2019-03-19T18:53:38Z</time>
      </trkpt>
      <trkpt lat="46.02061" lon="6.36514">
        <ele>1308.97</ele>
        <time>2019-03-19T18:53:39Z</time>
      </trkpt>
      <trkpt lat="46.02061" lon="6.36513">
        <ele>1309.45</ele>
        <time>2019-03-19T18:53:40Z</time>
      </trkpt>
      <trkpt lat="46.02062" lon="6.3651">
        <ele>1309.45</ele>
        <time>2019-03-19T18:53:42Z</time>
      </trkpt>
      <trkpt lat="46.02063" lon="6.36506">
        <ele>1310.9</ele>
        <time>2019-03-19T18:53:47Z</time>
      </trkpt>
      <trkpt lat="46.02063" lon="6.36505">
        <ele>1310.9</ele>
        <time>2019-03-19T18:53:48Z</time>
      </trkpt>
      <trkpt lat="46.02062" lon="6.36504">
        <ele>1311.38</ele>
        <time>2019-03-19T18:53:49Z</time>
      </trkpt>
      <trkpt lat="46.02062" lon="6.36502">
        <ele>1311.38</ele>
        <time>2019-03-19T18:53:50Z</time>
      </trkpt>
      <trkpt lat="46.02063" lon="6.36481">
        <ele>1313.78</ele>
        <time>2019-03-19T18:54:07Z</time>
      </trkpt>
      <trkpt lat="46.02063" lon="6.36478">
        <ele>1314.26</ele>
        <time>2019-03-19T18:54:09Z</time>
      </trkpt>
      <trkpt lat="46.02061" lon="6.36473">
        <ele>1314.74</ele>
        <time>2019-03-19T18:54:13Z</time>
      </trkpt>
      <trkpt lat="46.02061" lon="6.36469">
        <ele>1315.7</ele>
        <time>2019-03-19T18:54:16Z</time>
      </trkpt>
      <trkpt lat="46.0206" lon="6.36467">
        <ele>1316.18</ele>
        <time>2019-03-19T18:54:20Z</time>
      </trkpt>
      <trkpt lat="46.02055" lon="6.36461">
        <ele>1316.66</ele>
        <time>2019-03-19T18:54:30Z</time>
      </trkpt>
      <trkpt lat="46.02055" lon="6.3646">
        <ele>1316.66</ele>
        <time>2019-03-19T18:54:31Z</time>
      </trkpt>
      <trkpt lat="46.02059" lon="6.36442">
        <ele>1320.03</ele>
        <time>2019-03-19T18:54:52Z</time>
      </trkpt>
      <trkpt lat="46.02059" lon="6.36438">
        <ele>1320.99</ele>
        <time>2019-03-19T18:54:56Z</time>
      </trkpt>
      <trkpt lat="46.02059" lon="6.36436">
        <ele>1320.99</ele>
        <time>2019-03-19T18:54:57Z</time>
      </trkpt>
      <trkpt lat="46.02058" lon="6.36434">
        <ele>1320.99</ele>
        <time>2019-03-19T18:54:58Z</time>
      </trkpt>
      <trkpt lat="46.02057" lon="6.36432">
        <ele>1320.99</ele>
        <time>2019-03-19T18:54:59Z</time>
      </trkpt>
      <trkpt lat="46.02056" lon="6.36431">
        <ele>1321.47</ele>
        <time>2019-03-19T18:55:00Z</time>
      </trkpt>
      <trkpt lat="46.02055" lon="6.3643">
        <ele>1321.47</ele>
        <time>2019-03-19T18:55:01Z</time>
      </trkpt>
      <trkpt lat="46.02056" lon="6.36419">
        <ele>1322.91</ele>
        <time>2019-03-19T18:55:12Z</time>
      </trkpt>
      <trkpt lat="46.02054" lon="6.36417">
        <ele>1323.87</ele>
        <time>2019-03-19T18:55:16Z</time>
      </trkpt>
      <trkpt lat="46.02053" lon="6.36416">
        <ele>1323.87</ele>
        <time>2019-03-19T18:55:17Z</time>
      </trkpt>
      <trkpt lat="46.0205" lon="6.36412">
        <ele>1324.35</ele>
        <time>2019-03-19T18:55:22Z</time>
      </trkpt>
      <trkpt lat="46.0205" lon="6.36411">
        <ele>1324.83</ele>
        <time>2019-03-19T18:55:23Z</time>
      </trkpt>
      <trkpt lat="46.0205" lon="6.3641">
        <ele>1324.83</ele>
        <time>2019-03-19T18:55:24Z</time>
      </trkpt>
      <trkpt lat="46.02052" lon="6.36407">
        <ele>1324.83</ele>
        <time>2019-03-19T18:55:26Z</time>
      </trkpt>
      <trkpt lat="46.02052" lon="6.36406">
        <ele>1325.31</ele>
        <time>2019-03-19T18:55:27Z</time>
      </trkpt>
      <trkpt lat="46.02053" lon="6.36405">
        <ele>1325.31</ele>
        <time>2019-03-19T18:55:28Z</time>
      </trkpt>
      <trkpt lat="46.02052" lon="6.36403">
        <ele>1325.31</ele>
        <time>2019-03-19T18:55:29Z</time>
      </trkpt>
      <trkpt lat="46.02054" lon="6.36399">
        <ele>1325.8</ele>
        <time>2019-03-19T18:55:32Z</time>
      </trkpt>
      <trkpt lat="46.02055" lon="6.36397">
        <ele>1326.28</ele>
        <time>2019-03-19T18:55:37Z</time>
      </trkpt>
      <trkpt lat="46.02055" lon="6.36393">
        <ele>1326.76</ele>
        <time>2019-03-19T18:55:40Z</time>
      </trkpt>
      <trkpt lat="46.02054" lon="6.36391">
        <ele>1327.24</ele>
        <time>2019-03-19T18:55:42Z</time>
      </trkpt>
      <trkpt lat="46.02054" lon="6.3639">
        <ele>1327.24</ele>
        <time>2019-03-19T18:55:43Z</time>
      </trkpt>
      <trkpt lat="46.02054" lon="6.36386">
        <ele>1328.2</ele>
        <time>2019-03-19T18:55:48Z</time>
      </trkpt>
      <trkpt lat="46.02047" lon="6.36368">
        <ele>1330.6</ele>
        <time>2019-03-19T18:56:05Z</time>
      </trkpt>
      <trkpt lat="46.02046" lon="6.36367">
        <ele>1330.6</ele>
        <time>2019-03-19T18:56:06Z</time>
      </trkpt>
      <trkpt lat="46.02046" lon="6.36367">
        <ele>1330.6</ele>
        <time>2019-03-19T18:56:07Z</time>
      </trkpt>
      <trkpt lat="46.02041" lon="6.36348">
        <ele>1332.52</ele>
        <time>2019-03-19T18:56:23Z</time>
      </trkpt>
      <trkpt lat="46.02041" lon="6.36346">
        <ele>1332.52</ele>
        <time>2019-03-19T18:56:25Z</time>
      </trkpt>
      <trkpt lat="46.02036" lon="6.36342">
        <ele>1333.01</ele>
        <time>2019-03-19T18:56:38Z</time>
      </trkpt>
      <trkpt lat="46.02036" lon="6.36342">
        <ele>1333.49</ele>
        <time>2019-03-19T18:56:47Z</time>
      </trkpt>
      <trkpt lat="46.02038" lon="6.36341">
        <ele>1333.49</ele>
        <time>2019-03-19T18:57:02Z</time>
      </trkpt>
      <trkpt lat="46.02033" lon="6.3634">
        <ele>1332.52</ele>
        <time>2019-03-19T18:58:09Z</time>
      </trkpt>
      <trkpt lat="46.02031" lon="6.36338">
        <ele>1332.52</ele>
        <time>2019-03-19T18:58:14Z</time>
      </trkpt>
      <trkpt lat="46.02033" lon="6.36338">
        <ele>1332.52</ele>
        <time>2019-03-19T18:58:19Z</time>
      </trkpt>
      <trkpt lat="46.02039" lon="6.36342">
        <ele>1332.52</ele>
        <time>2019-03-19T18:58:31Z</time>
      </trkpt>
      <trkpt lat="46.02033" lon="6.36338">
        <ele>1332.04</ele>
        <time>2019-03-19T18:59:23Z</time>
      </trkpt>
      <trkpt lat="46.02032" lon="6.36343">
        <ele>1333.01</ele>
        <time>2019-03-19T18:59:57Z</time>
      </trkpt>
      <trkpt lat="46.02025" lon="6.36328">
        <ele>1334.45</ele>
        <time>2019-03-19T19:00:26Z</time>
      </trkpt>
      <trkpt lat="46.02023" lon="6.36323">
        <ele>1335.41</ele>
        <time>2019-03-19T19:00:33Z</time>
      </trkpt>
      <trkpt lat="46.02022" lon="6.36321">
        <ele>1335.41</ele>
        <time>2019-03-19T19:00:35Z</time>
      </trkpt>
      <trkpt lat="46.02021" lon="6.3632">
        <ele>1335.41</ele>
        <time>2019-03-19T19:00:36Z</time>
      </trkpt>
      <trkpt lat="46.02021" lon="6.36318">
        <ele>1335.89</ele>
        <time>2019-03-19T19:00:37Z</time>
      </trkpt>
      <trkpt lat="46.02021" lon="6.36317">
        <ele>1335.89</ele>
        <time>2019-03-19T19:00:38Z</time>
      </trkpt>
      <trkpt lat="46.0202" lon="6.36316">
        <ele>1335.89</ele>
        <time>2019-03-19T19:00:39Z</time>
      </trkpt>
      <trkpt lat="46.02018" lon="6.36312">
        <ele>1336.37</ele>
        <time>2019-03-19T19:00:43Z</time>
      </trkpt>
      <trkpt lat="46.02017" lon="6.36311">
        <ele>1336.85</ele>
        <time>2019-03-19T19:00:44Z</time>
      </trkpt>
      <trkpt lat="46.02016" lon="6.3631">
        <ele>1336.85</ele>
        <time>2019-03-19T19:00:45Z</time>
      </trkpt>
      <trkpt lat="46.02015" lon="6.36309">
        <ele>1336.85</ele>
        <time>2019-03-19T19:00:46Z</time>
      </trkpt>
      <trkpt lat="46.02014" lon="6.36308">
        <ele>1337.33</ele>
        <time>2019-03-19T19:00:47Z</time>
      </trkpt>
      <trkpt lat="46.02013" lon="6.36307">
        <ele>1337.33</ele>
        <time>2019-03-19T19:00:48Z</time>
      </trkpt>
      <trkpt lat="46.02011" lon="6.36305">
        <ele>1337.81</ele>
        <time>2019-03-19T19:00:49Z</time>
      </trkpt>
      <trkpt lat="46.02011" lon="6.36305">
        <ele>1337.81</ele>
        <time>2019-03-19T19:00:50Z</time>
      </trkpt>
      <trkpt lat="46.0201" lon="6.36304">
        <ele>1337.81</ele>
        <time>2019-03-19T19:00:52Z</time>
      </trkpt>
      <trkpt lat="46.02005" lon="6.3631">
        <ele>1341.18</ele>
        <time>2019-03-19T19:01:10Z</time>
      </trkpt>
      <trkpt lat="46.02005" lon="6.36312">
        <ele>1341.18</ele>
        <time>2019-03-19T19:01:11Z</time>
      </trkpt>
      <trkpt lat="46.02006" lon="6.36314">
        <ele>1341.18</ele>
        <time>2019-03-19T19:01:12Z</time>
      </trkpt>
      <trkpt lat="46.02005" lon="6.3633">
        <ele>1343.1</ele>
        <time>2019-03-19T19:01:22Z</time>
      </trkpt>
      <trkpt lat="46.02004" lon="6.36335">
        <ele>1343.1</ele>
        <time>2019-03-19T19:01:24Z</time>
      </trkpt>
      <trkpt lat="46.02003" lon="6.36337">
        <ele>1343.58</ele>
        <time>2019-03-19T19:01:25Z</time>
      </trkpt>
      <trkpt lat="46.02004" lon="6.36341">
        <ele>1343.58</ele>
        <time>2019-03-19T19:01:27Z</time>
      </trkpt>
      <trkpt lat="46.02004" lon="6.36342">
        <ele>1344.06</ele>
        <time>2019-03-19T19:01:28Z</time>
      </trkpt>
      <trkpt lat="46.02005" lon="6.36351">
        <ele>1344.54</ele>
        <time>2019-03-19T19:01:34Z</time>
      </trkpt>
      <trkpt lat="46.02006" lon="6.36353">
        <ele>1345.02</ele>
        <time>2019-03-19T19:01:35Z</time>
      </trkpt>
      <trkpt lat="46.02005" lon="6.36355">
        <ele>1345.5</ele>
        <time>2019-03-19T19:01:37Z</time>
      </trkpt>
      <trkpt lat="46.02007" lon="6.36359">
        <ele>1345.98</ele>
        <time>2019-03-19T19:01:40Z</time>
      </trkpt>
      <trkpt lat="46.02007" lon="6.36361">
        <ele>1345.98</ele>
        <time>2019-03-19T19:01:41Z</time>
      </trkpt>
      <trkpt lat="46.02008" lon="6.36363">
        <ele>1345.98</ele>
        <time>2019-03-19T19:01:42Z</time>
      </trkpt>
      <trkpt lat="46.02008" lon="6.36365">
        <ele>1345.98</ele>
        <time>2019-03-19T19:01:43Z</time>
      </trkpt>
      <trkpt lat="46.02008" lon="6.36367">
        <ele>1345.98</ele>
        <time>2019-03-19T19:01:44Z</time>
      </trkpt>
      <trkpt lat="46.02007" lon="6.36368">
        <ele>1346.46</ele>
        <time>2019-03-19T19:01:45Z</time>
      </trkpt>
      <trkpt lat="46.02005" lon="6.36371">
        <ele>1346.94</ele>
        <time>2019-03-19T19:01:48Z</time>
      </trkpt>
      <trkpt lat="46.02003" lon="6.36371">
        <ele>1347.43</ele>
        <time>2019-03-19T19:01:49Z</time>
      </trkpt>
      <trkpt lat="46.02002" lon="6.36371">
        <ele>1347.43</ele>
        <time>2019-03-19T19:01:50Z</time>
      </trkpt>
      <trkpt lat="46.01998" lon="6.36367">
        <ele>1348.39</ele>
        <time>2019-03-19T19:01:57Z</time>
      </trkpt>
      <trkpt lat="46.01997" lon="6.36367">
        <ele>1348.39</ele>
        <time>2019-03-19T19:01:58Z</time>
      </trkpt>
      <trkpt lat="46.01996" lon="6.36366">
        <ele>1348.39</ele>
        <time>2019-03-19T19:01:59Z</time>
      </trkpt>
      <trkpt lat="46.01995" lon="6.36364">
        <ele>1348.39</ele>
        <time>2019-03-19T19:02:02Z</time>
      </trkpt>
      <trkpt lat="46.01987" lon="6.36349">
        <ele>1350.79</ele>
        <time>2019-03-19T19:02:29Z</time>
      </trkpt>
      <trkpt lat="46.01983" lon="6.36346">
        <ele>1352.23</ele>
        <time>2019-03-19T19:02:41Z</time>
      </trkpt>
      <trkpt lat="46.0198" lon="6.36342">
        <ele>1353.19</ele>
        <time>2019-03-19T19:02:46Z</time>
      </trkpt>
      <trkpt lat="46.01979" lon="6.36341">
        <ele>1353.19</ele>
        <time>2019-03-19T19:02:47Z</time>
      </trkpt>
      <trkpt lat="46.01968" lon="6.36327">
        <ele>1356.56</ele>
        <time>2019-03-19T19:03:03Z</time>
      </trkpt>
      <trkpt lat="46.01967" lon="6.36323">
        <ele>1357.04</ele>
        <time>2019-03-19T19:03:07Z</time>
      </trkpt>
      <trkpt lat="46.01967" lon="6.36321">
        <ele>1357.52</ele>
        <time>2019-03-19T19:03:08Z</time>
      </trkpt>
      <trkpt lat="46.01959" lon="6.36298">
        <ele>1360.4</ele>
        <time>2019-03-19T19:03:26Z</time>
      </trkpt>
      <trkpt lat="46.01956" lon="6.36292">
        <ele>1361.36</ele>
        <time>2019-03-19T19:03:31Z</time>
      </trkpt>
      <trkpt lat="46.01955" lon="6.36291">
        <ele>1361.36</ele>
        <time>2019-03-19T19:03:32Z</time>
      </trkpt>
      <trkpt lat="46.01955" lon="6.3629">
        <ele>1361.36</ele>
        <time>2019-03-19T19:03:33Z</time>
      </trkpt>
      <trkpt lat="46.01955" lon="6.3629">
        <ele>1361.84</ele>
        <time>2019-03-19T19:03:34Z</time>
      </trkpt>
      <trkpt lat="46.01954" lon="6.36288">
        <ele>1361.84</ele>
        <time>2019-03-19T19:03:35Z</time>
      </trkpt>
      <trkpt lat="46.01954" lon="6.36287">
        <ele>1361.84</ele>
        <time>2019-03-19T19:03:36Z</time>
      </trkpt>
      <trkpt lat="46.01954" lon="6.36286">
        <ele>1362.33</ele>
        <time>2019-03-19T19:03:37Z</time>
      </trkpt>
      <trkpt lat="46.01953" lon="6.36283">
        <ele>1362.81</ele>
        <time>2019-03-19T19:03:40Z</time>
      </trkpt>
      <trkpt lat="46.01952" lon="6.36282">
        <ele>1363.29</ele>
        <time>2019-03-19T19:03:41Z</time>
      </trkpt>
      <trkpt lat="46.01952" lon="6.3628">
        <ele>1363.29</ele>
        <time>2019-03-19T19:03:42Z</time>
      </trkpt>
      <trkpt lat="46.01951" lon="6.36278">
        <ele>1363.77</ele>
        <time>2019-03-19T19:03:43Z</time>
      </trkpt>
      <trkpt lat="46.0195" lon="6.36277">
        <ele>1363.77</ele>
        <time>2019-03-19T19:03:44Z</time>
      </trkpt>
      <trkpt lat="46.01949" lon="6.36275">
        <ele>1363.77</ele>
        <time>2019-03-19T19:03:45Z</time>
      </trkpt>
      <trkpt lat="46.01948" lon="6.36274">
        <ele>1364.25</ele>
        <time>2019-03-19T19:03:46Z</time>
      </trkpt>
      <trkpt lat="46.01947" lon="6.36269">
        <ele>1365.21</ele>
        <time>2019-03-19T19:03:51Z</time>
      </trkpt>
      <trkpt lat="46.01946" lon="6.36268">
        <ele>1365.21</ele>
        <time>2019-03-19T19:03:52Z</time>
      </trkpt>
      <trkpt lat="46.01946" lon="6.36266">
        <ele>1365.21</ele>
        <time>2019-03-19T19:03:53Z</time>
      </trkpt>
      <trkpt lat="46.01944" lon="6.36266">
        <ele>1365.21</ele>
        <time>2019-03-19T19:03:54Z</time>
      </trkpt>
      <trkpt lat="46.01939" lon="6.36262">
        <ele>1366.17</ele>
        <time>2019-03-19T19:04:00Z</time>
      </trkpt>
      <trkpt lat="46.01938" lon="6.36261">
        <ele>1366.17</ele>
        <time>2019-03-19T19:04:01Z</time>
      </trkpt>
      <trkpt lat="46.01938" lon="6.3626">
        <ele>1366.17</ele>
        <time>2019-03-19T19:04:02Z</time>
      </trkpt>
      <trkpt lat="46.01932" lon="6.36251">
        <ele>1368.09</ele>
        <time>2019-03-19T19:04:09Z</time>
      </trkpt>
      <trkpt lat="46.01932" lon="6.36249">
        <ele>1368.57</ele>
        <time>2019-03-19T19:04:10Z</time>
      </trkpt>
      <trkpt lat="46.01931" lon="6.36247">
        <ele>1368.57</ele>
        <time>2019-03-19T19:04:11Z</time>
      </trkpt>
      <trkpt lat="46.01931" lon="6.36246">
        <ele>1369.05</ele>
        <time>2019-03-19T19:04:13Z</time>
      </trkpt>
      <trkpt lat="46.01931" lon="6.36245">
        <ele>1370.02</ele>
        <time>2019-03-19T19:04:14Z</time>
      </trkpt>
      <trkpt lat="46.0193" lon="6.36244">
        <ele>1370.02</ele>
        <time>2019-03-19T19:04:15Z</time>
      </trkpt>
      <trkpt lat="46.01929" lon="6.36242">
        <ele>1370.5</ele>
        <time>2019-03-19T19:04:16Z</time>
      </trkpt>
      <trkpt lat="46.01929" lon="6.36241">
        <ele>1370.5</ele>
        <time>2019-03-19T19:04:17Z</time>
      </trkpt>
      <trkpt lat="46.01928" lon="6.3624">
        <ele>1370.98</ele>
        <time>2019-03-19T19:04:18Z</time>
      </trkpt>
      <trkpt lat="46.01927" lon="6.36238">
        <ele>1370.98</ele>
        <time>2019-03-19T19:04:19Z</time>
      </trkpt>
      <trkpt lat="46.01922" lon="6.3623">
        <ele>1372.42</ele>
        <time>2019-03-19T19:04:26Z</time>
      </trkpt>
      <trkpt lat="46.01921" lon="6.36229">
        <ele>1372.42</ele>
        <time>2019-03-19T19:04:27Z</time>
      </trkpt>
      <trkpt lat="46.0192" lon="6.36226">
        <ele>1372.42</ele>
        <time>2019-03-19T19:04:28Z</time>
      </trkpt>
      <trkpt lat="46.01913" lon="6.36213">
        <ele>1374.34</ele>
        <time>2019-03-19T19:04:36Z</time>
      </trkpt>
      <trkpt lat="46.01913" lon="6.36212">
        <ele>1374.34</ele>
        <time>2019-03-19T19:04:37Z</time>
      </trkpt>
      <trkpt lat="46.01907" lon="6.36203">
        <ele>1375.3</ele>
        <time>2019-03-19T19:04:46Z</time>
      </trkpt>
      <trkpt lat="46.01901" lon="6.36195">
        <ele>1376.75</ele>
        <time>2019-03-19T19:05:26Z</time>
      </trkpt>
      <trkpt lat="46.019" lon="6.36194">
        <ele>1377.23</ele>
        <time>2019-03-19T19:05:27Z</time>
      </trkpt>
      <trkpt lat="46.019" lon="6.36192">
        <ele>1377.23</ele>
        <time>2019-03-19T19:05:28Z</time>
      </trkpt>
      <trkpt lat="46.019" lon="6.36192">
        <ele>1377.23</ele>
        <time>2019-03-19T19:05:29Z</time>
      </trkpt>
      <trkpt lat="46.01899" lon="6.36191">
        <ele>1377.23</ele>
        <time>2019-03-19T19:05:30Z</time>
      </trkpt>
      <trkpt lat="46.0189" lon="6.36166">
        <ele>1380.59</ele>
        <time>2019-03-19T19:05:53Z</time>
      </trkpt>
      <trkpt lat="46.01874" lon="6.36145">
        <ele>1382.51</ele>
        <time>2019-03-19T19:06:38Z</time>
      </trkpt>
      <trkpt lat="46.01832" lon="6.36113">
        <ele>1382.03</ele>
        <time>2019-03-19T19:07:14Z</time>
      </trkpt>
      <trkpt lat="46.01802" lon="6.36065">
        <ele>1384.44</ele>
        <time>2019-03-19T19:07:48Z</time>
      </trkpt>
      <trkpt lat="46.01797" lon="6.36047">
        <ele>1385.88</ele>
        <time>2019-03-19T19:08:00Z</time>
      </trkpt>
      <trkpt lat="46.01796" lon="6.36046">
        <ele>1385.88</ele>
        <time>2019-03-19T19:08:01Z</time>
      </trkpt>
      <trkpt lat="46.01791" lon="6.36038">
        <ele>1386.84</ele>
        <time>2019-03-19T19:08:08Z</time>
      </trkpt>
      <trkpt lat="46.0179" lon="6.36037">
        <ele>1386.84</ele>
        <time>2019-03-19T19:08:09Z</time>
      </trkpt>
      <trkpt lat="46.01789" lon="6.36036">
        <ele>1386.84</ele>
        <time>2019-03-19T19:08:10Z</time>
      </trkpt>
      <trkpt lat="46.01762" lon="6.35993">
        <ele>1390.2</ele>
        <time>2019-03-19T19:09:11Z</time>
      </trkpt>
      <trkpt lat="46.01762" lon="6.35994">
        <ele>1390.2</ele>
        <time>2019-03-19T19:09:13Z</time>
      </trkpt>
      <trkpt lat="46.01761" lon="6.35995">
        <ele>1390.2</ele>
        <time>2019-03-19T19:09:14Z</time>
      </trkpt>
      <trkpt lat="46.01745" lon="6.35951">
        <ele>1393.09</ele>
        <time>2019-03-19T19:09:56Z</time>
      </trkpt>
      <trkpt lat="46.01737" lon="6.35924">
        <ele>1395.97</ele>
        <time>2019-03-19T19:10:19Z</time>
      </trkpt>
      <trkpt lat="46.01726" lon="6.35888">
        <ele>1398.86</ele>
        <time>2019-03-19T19:10:44Z</time>
      </trkpt>
      <trkpt lat="46.01727" lon="6.3588">
        <ele>1398.86</ele>
        <time>2019-03-19T19:10:49Z</time>
      </trkpt>
      <trkpt lat="46.01729" lon="6.35878">
        <ele>1398.37</ele>
        <time>2019-03-19T19:10:51Z</time>
      </trkpt>
      <trkpt lat="46.01731" lon="6.35878">
        <ele>1398.37</ele>
        <time>2019-03-19T19:10:52Z</time>
      </trkpt>
      <trkpt lat="46.01751" lon="6.35875">
        <ele>1401.26</ele>
        <time>2019-03-19T19:11:16Z</time>
      </trkpt>
      <trkpt lat="46.01776" lon="6.35872">
        <ele>1404.62</ele>
        <time>2019-03-19T19:11:38Z</time>
      </trkpt>
      <trkpt lat="46.01792" lon="6.35874">
        <ele>1407.99</ele>
        <time>2019-03-19T19:11:56Z</time>
      </trkpt>
      <trkpt lat="46.01809" lon="6.35873">
        <ele>1410.87</ele>
        <time>2019-03-19T19:12:13Z</time>
      </trkpt>
      <trkpt lat="46.01823" lon="6.35869">
        <ele>1414.24</ele>
        <time>2019-03-19T19:12:28Z</time>
      </trkpt>
      <trkpt lat="46.01825" lon="6.35864">
        <ele>1415.2</ele>
        <time>2019-03-19T19:12:34Z</time>
      </trkpt>
      <trkpt lat="46.01825" lon="6.35842">
        <ele>1418.56</ele>
        <time>2019-03-19T19:12:53Z</time>
      </trkpt>
      <trkpt lat="46.01827" lon="6.35823">
        <ele>1421.45</ele>
        <time>2019-03-19T19:13:11Z</time>
      </trkpt>
      <trkpt lat="46.01828" lon="6.358">
        <ele>1424.33</ele>
        <time>2019-03-19T19:13:32Z</time>
      </trkpt>
      <trkpt lat="46.01828" lon="6.35798">
        <ele>1424.33</ele>
        <time>2019-03-19T19:13:33Z</time>
      </trkpt>
      <trkpt lat="46.01831" lon="6.35782">
        <ele>1427.21</ele>
        <time>2019-03-19T19:13:49Z</time>
      </trkpt>
      <trkpt lat="46.01828" lon="6.3577">
        <ele>1429.62</ele>
        <time>2019-03-19T19:14:00Z</time>
      </trkpt>
      <trkpt lat="46.01828" lon="6.35766">
        <ele>1430.1</ele>
        <time>2019-03-19T19:14:03Z</time>
      </trkpt>
      <trkpt lat="46.01828" lon="6.35765">
        <ele>1430.1</ele>
        <time>2019-03-19T19:14:04Z</time>
      </trkpt>
      <trkpt lat="46.01828" lon="6.35764">
        <ele>1430.58</ele>
        <time>2019-03-19T19:14:05Z</time>
      </trkpt>
      <trkpt lat="46.01822" lon="6.35749">
        <ele>1433.46</ele>
        <time>2019-03-19T19:14:19Z</time>
      </trkpt>
      <trkpt lat="46.01812" lon="6.35734">
        <ele>1436.83</ele>
        <time>2019-03-19T19:14:35Z</time>
      </trkpt>
      <trkpt lat="46.01807" lon="6.35727">
        <ele>1438.27</ele>
        <time>2019-03-19T19:14:43Z</time>
      </trkpt>
      <trkpt lat="46.0181" lon="6.35733">
        <ele>1439.71</ele>
        <time>2019-03-19T19:15:23Z</time>
      </trkpt>
      <trkpt lat="46.0181" lon="6.35734">
        <ele>1439.71</ele>
        <time>2019-03-19T19:15:24Z</time>
      </trkpt>
      <trkpt lat="46.01804" lon="6.35746">
        <ele>1441.15</ele>
        <time>2019-03-19T19:15:37Z</time>
      </trkpt>
      <trkpt lat="46.01787" lon="6.3574">
        <ele>1444.04</ele>
        <time>2019-03-19T19:15:54Z</time>
      </trkpt>
      <trkpt lat="46.01777" lon="6.35725">
        <ele>1447.4</ele>
        <time>2019-03-19T19:16:10Z</time>
      </trkpt>
      <trkpt lat="46.01772" lon="6.35717">
        <ele>1449.81</ele>
        <time>2019-03-19T19:16:20Z</time>
      </trkpt>
      <trkpt lat="46.01771" lon="6.35715">
        <ele>1449.81</ele>
        <time>2019-03-19T19:16:22Z</time>
      </trkpt>
      <trkpt lat="46.01768" lon="6.35712">
        <ele>1450.77</ele>
        <time>2019-03-19T19:16:27Z</time>
      </trkpt>
      <trkpt lat="46.01767" lon="6.3571">
        <ele>1451.25</ele>
        <time>2019-03-19T19:16:29Z</time>
      </trkpt>
      <trkpt lat="46.01767" lon="6.35709">
        <ele>1451.73</ele>
        <time>2019-03-19T19:16:30Z</time>
      </trkpt>
      <trkpt lat="46.01767" lon="6.35708">
        <ele>1451.73</ele>
        <time>2019-03-19T19:16:31Z</time>
      </trkpt>
      <trkpt lat="46.01771" lon="6.35703">
        <ele>1452.21</ele>
        <time>2019-03-19T19:16:36Z</time>
      </trkpt>
      <trkpt lat="46.01776" lon="6.35687">
        <ele>1455.57</ele>
        <time>2019-03-19T19:16:53Z</time>
      </trkpt>
      <trkpt lat="46.01772" lon="6.35672">
        <ele>1458.94</ele>
        <time>2019-03-19T19:17:11Z</time>
      </trkpt>
      <trkpt lat="46.01768" lon="6.35657">
        <ele>1461.82</ele>
        <time>2019-03-19T19:17:31Z</time>
      </trkpt>
      <trkpt lat="46.01769" lon="6.35641">
        <ele>1465.19</ele>
        <time>2019-03-19T19:17:48Z</time>
      </trkpt>
      <trkpt lat="46.01762" lon="6.3564">
        <ele>1467.59</ele>
        <time>2019-03-19T19:18:03Z</time>
      </trkpt>
      <trkpt lat="46.01761" lon="6.3564">
        <ele>1467.59</ele>
        <time>2019-03-19T19:18:04Z</time>
      </trkpt>
      <trkpt lat="46.0176" lon="6.35639">
        <ele>1467.59</ele>
        <time>2019-03-19T19:18:05Z</time>
      </trkpt>
      <trkpt lat="46.01753" lon="6.35634">
        <ele>1469.51</ele>
        <time>2019-03-19T19:18:26Z</time>
      </trkpt>
      <trkpt lat="46.01754" lon="6.35635">
        <ele>1469.51</ele>
        <time>2019-03-19T19:18:27Z</time>
      </trkpt>
      <trkpt lat="46.01754" lon="6.35633">
        <ele>1470.47</ele>
        <time>2019-03-19T19:19:18Z</time>
      </trkpt>
      <trkpt lat="46.01753" lon="6.35632">
        <ele>1470.95</ele>
        <time>2019-03-19T19:19:20Z</time>
      </trkpt>
      <trkpt lat="46.01744" lon="6.35619">
        <ele>1473.84</ele>
        <time>2019-03-19T19:19:38Z</time>
      </trkpt>
      <trkpt lat="46.01738" lon="6.35607">
        <ele>1477.2</ele>
        <time>2019-03-19T19:19:52Z</time>
      </trkpt>
      <trkpt lat="46.01746" lon="6.35607">
        <ele>1479.13</ele>
        <time>2019-03-19T19:21:11Z</time>
      </trkpt>
      <trkpt lat="46.0175" lon="6.35601">
        <ele>1480.09</ele>
        <time>2019-03-19T19:23:30Z</time>
      </trkpt>
      <trkpt lat="46.01754" lon="6.35588">
        <ele>1482.97</ele>
        <time>2019-03-19T19:23:43Z</time>
      </trkpt>
      <trkpt lat="46.01751" lon="6.35579">
        <ele>1486.34</ele>
        <time>2019-03-19T19:23:58Z</time>
      </trkpt>
      <trkpt lat="46.0175" lon="6.35579">
        <ele>1486.82</ele>
        <time>2019-03-19T19:23:59Z</time>
      </trkpt>
      <trkpt lat="46.01746" lon="6.35576">
        <ele>1487.78</ele>
        <time>2019-03-19T19:24:04Z</time>
      </trkpt>
      <trkpt lat="46.01741" lon="6.35562">
        <ele>1490.18</ele>
        <time>2019-03-19T19:24:18Z</time>
      </trkpt>
      <trkpt lat="46.01746" lon="6.3555">
        <ele>1493.55</ele>
        <time>2019-03-19T19:24:30Z</time>
      </trkpt>
      <trkpt lat="46.0175" lon="6.35534">
        <ele>1496.43</ele>
        <time>2019-03-19T19:24:44Z</time>
      </trkpt>
      <trkpt lat="46.01746" lon="6.35531">
        <ele>1499.79</ele>
        <time>2019-03-19T19:24:58Z</time>
      </trkpt>
      <trkpt lat="46.01742" lon="6.35529">
        <ele>1500.76</ele>
        <time>2019-03-19T19:25:03Z</time>
      </trkpt>
      <trkpt lat="46.01741" lon="6.35529">
        <ele>1501.24</ele>
        <time>2019-03-19T19:25:04Z</time>
      </trkpt>
      <trkpt lat="46.01736" lon="6.35519">
        <ele>1504.6</ele>
        <time>2019-03-19T19:25:18Z</time>
      </trkpt>
      <trkpt lat="46.01741" lon="6.35507">
        <ele>1507.48</ele>
        <time>2019-03-19T19:25:29Z</time>
      </trkpt>
      <trkpt lat="46.01739" lon="6.35499">
        <ele>1508.93</ele>
        <time>2019-03-19T19:25:36Z</time>
      </trkpt>
      <trkpt lat="46.01738" lon="6.35499">
        <ele>1509.41</ele>
        <time>2019-03-19T19:25:37Z</time>
      </trkpt>
      <trkpt lat="46.01737" lon="6.35499">
        <ele>1509.41</ele>
        <time>2019-03-19T19:25:38Z</time>
      </trkpt>
      <trkpt lat="46.01737" lon="6.35498">
        <ele>1509.89</ele>
        <time>2019-03-19T19:25:39Z</time>
      </trkpt>
      <trkpt lat="46.01736" lon="6.35498">
        <ele>1509.89</ele>
        <time>2019-03-19T19:25:40Z</time>
      </trkpt>
      <trkpt lat="46.01732" lon="6.35486">
        <ele>1513.25</ele>
        <time>2019-03-19T19:25:53Z</time>
      </trkpt>
      <trkpt lat="46.01727" lon="6.35471">
        <ele>1516.62</ele>
        <time>2019-03-19T19:26:13Z</time>
      </trkpt>
      <trkpt lat="46.01718" lon="6.35454">
        <ele>1519.5</ele>
        <time>2019-03-19T19:26:32Z</time>
      </trkpt>
      <trkpt lat="46.01711" lon="6.35442">
        <ele>1522.39</ele>
        <time>2019-03-19T19:26:46Z</time>
      </trkpt>
      <trkpt lat="46.01703" lon="6.35427">
        <ele>1525.75</ele>
        <time>2019-03-19T19:27:04Z</time>
      </trkpt>
      <trkpt lat="46.01695" lon="6.3541">
        <ele>1528.63</ele>
        <time>2019-03-19T19:27:24Z</time>
      </trkpt>
      <trkpt lat="46.01689" lon="6.35394">
        <ele>1532</ele>
        <time>2019-03-19T19:27:41Z</time>
      </trkpt>
      <trkpt lat="46.01683" lon="6.35382">
        <ele>1534.88</ele>
        <time>2019-03-19T19:28:15Z</time>
      </trkpt>
      <trkpt lat="46.01681" lon="6.35376">
        <ele>1535.84</ele>
        <time>2019-03-19T19:28:32Z</time>
      </trkpt>
      <trkpt lat="46.01677" lon="6.35364">
        <ele>1539.21</ele>
        <time>2019-03-19T19:28:47Z</time>
      </trkpt>
      <trkpt lat="46.01671" lon="6.3535">
        <ele>1542.09</ele>
        <time>2019-03-19T19:29:08Z</time>
      </trkpt>
      <trkpt lat="46.01669" lon="6.35338">
        <ele>1544.98</ele>
        <time>2019-03-19T19:29:23Z</time>
      </trkpt>
      <trkpt lat="46.01669" lon="6.35336">
        <ele>1545.46</ele>
        <time>2019-03-19T19:29:24Z</time>
      </trkpt>
      <trkpt lat="46.01671" lon="6.35322">
        <ele>1548.82</ele>
        <time>2019-03-19T19:29:45Z</time>
      </trkpt>
      <trkpt lat="46.01669" lon="6.35303">
        <ele>1551.71</ele>
        <time>2019-03-19T19:30:09Z</time>
      </trkpt>
      <trkpt lat="46.01667" lon="6.35288">
        <ele>1555.07</ele>
        <time>2019-03-19T19:30:36Z</time>
      </trkpt>
      <trkpt lat="46.01665" lon="6.35273">
        <ele>1557.95</ele>
        <time>2019-03-19T19:30:57Z</time>
      </trkpt>
      <trkpt lat="46.01657" lon="6.35278">
        <ele>1560.84</ele>
        <time>2019-03-19T19:31:22Z</time>
      </trkpt>
      <trkpt lat="46.01646" lon="6.35271">
        <ele>1564.2</ele>
        <time>2019-03-19T19:31:42Z</time>
      </trkpt>
      <trkpt lat="46.01642" lon="6.35268">
        <ele>1565.16</ele>
        <time>2019-03-19T19:31:48Z</time>
      </trkpt>
      <trkpt lat="46.01632" lon="6.35256">
        <ele>1568.05</ele>
        <time>2019-03-19T19:32:08Z</time>
      </trkpt>
      <trkpt lat="46.0163" lon="6.35254">
        <ele>1568.53</ele>
        <time>2019-03-19T19:32:10Z</time>
      </trkpt>
      <trkpt lat="46.01632" lon="6.35245">
        <ele>1571.41</ele>
        <time>2019-03-19T19:32:43Z</time>
      </trkpt>
      <trkpt lat="46.01637" lon="6.35235">
        <ele>1573.82</ele>
        <time>2019-03-19T19:32:55Z</time>
      </trkpt>
      <trkpt lat="46.0164" lon="6.35225">
        <ele>1575.74</ele>
        <time>2019-03-19T19:33:06Z</time>
      </trkpt>
      <trkpt lat="46.01634" lon="6.3522">
        <ele>1578.62</ele>
        <time>2019-03-19T19:33:35Z</time>
      </trkpt>
      <trkpt lat="46.01632" lon="6.35219">
        <ele>1579.1</ele>
        <time>2019-03-19T19:33:37Z</time>
      </trkpt>
      <trkpt lat="46.01622" lon="6.35214">
        <ele>1581.99</ele>
        <time>2019-03-19T19:33:58Z</time>
      </trkpt>
      <trkpt lat="46.0162" lon="6.35201">
        <ele>1584.87</ele>
        <time>2019-03-19T19:34:18Z</time>
      </trkpt>
      <trkpt lat="46.01618" lon="6.35191">
        <ele>1588.24</ele>
        <time>2019-03-19T19:34:34Z</time>
      </trkpt>
      <trkpt lat="46.0161" lon="6.35182">
        <ele>1591.6</ele>
        <time>2019-03-19T19:34:55Z</time>
      </trkpt>
      <trkpt lat="46.01601" lon="6.35165">
        <ele>1594.48</ele>
        <time>2019-03-19T19:35:17Z</time>
      </trkpt>
      <trkpt lat="46.01593" lon="6.35151">
        <ele>1597.85</ele>
        <time>2019-03-19T19:35:37Z</time>
      </trkpt>
      <trkpt lat="46.01584" lon="6.35135">
        <ele>1600.73</ele>
        <time>2019-03-19T19:35:58Z</time>
      </trkpt>
      <trkpt lat="46.01583" lon="6.35133">
        <ele>1601.21</ele>
        <time>2019-03-19T19:36:00Z</time>
      </trkpt>
      <trkpt lat="46.01574" lon="6.35116">
        <ele>1604.1</ele>
        <time>2019-03-19T19:36:22Z</time>
      </trkpt>
      <trkpt lat="46.01566" lon="6.351">
        <ele>1607.46</ele>
        <time>2019-03-19T19:37:10Z</time>
      </trkpt>
      <trkpt lat="46.01557" lon="6.35088">
        <ele>1610.83</ele>
        <time>2019-03-19T19:37:31Z</time>
      </trkpt>
      <trkpt lat="46.0155" lon="6.35075">
        <ele>1613.71</ele>
        <time>2019-03-19T19:37:48Z</time>
      </trkpt>
      <trkpt lat="46.01544" lon="6.35062">
        <ele>1616.59</ele>
        <time>2019-03-19T19:38:04Z</time>
      </trkpt>
      <trkpt lat="46.01533" lon="6.35038">
        <ele>1619.96</ele>
        <time>2019-03-19T19:38:44Z</time>
      </trkpt>
      <trkpt lat="46.01531" lon="6.35028">
        <ele>1619.96</ele>
        <time>2019-03-19T19:41:26Z</time>
      </trkpt>
      <trkpt lat="46.01534" lon="6.35021">
        <ele>1619.48</ele>
        <time>2019-03-19T19:46:55Z</time>
      </trkpt>
      <trkpt lat="46.01536" lon="6.35019">
        <ele>1619.48</ele>
        <time>2019-03-19T19:46:56Z</time>
      </trkpt>
      <trkpt lat="46.01537" lon="6.35017">
        <ele>1619</ele>
        <time>2019-03-19T19:46:57Z</time>
      </trkpt>
      <trkpt lat="46.01539" lon="6.35015">
        <ele>1619</ele>
        <time>2019-03-19T19:46:58Z</time>
      </trkpt>
      <trkpt lat="46.0154" lon="6.35012">
        <ele>1618.52</ele>
        <time>2019-03-19T19:46:59Z</time>
      </trkpt>
      <trkpt lat="46.01542" lon="6.3501">
        <ele>1618.04</ele>
        <time>2019-03-19T19:47:00Z</time>
      </trkpt>
      <trkpt lat="46.01543" lon="6.35008">
        <ele>1617.56</ele>
        <time>2019-03-19T19:47:01Z</time>
      </trkpt>
      <trkpt lat="46.01555" lon="6.34992">
        <ele>1614.19</ele>
        <time>2019-03-19T19:47:07Z</time>
      </trkpt>
      <trkpt lat="46.01576" lon="6.34974">
        <ele>1611.31</ele>
        <time>2019-03-19T19:47:20Z</time>
      </trkpt>
      <trkpt lat="46.01577" lon="6.34973">
        <ele>1611.31</ele>
        <time>2019-03-19T19:47:22Z</time>
      </trkpt>
      <trkpt lat="46.01579" lon="6.34972">
        <ele>1611.31</ele>
        <time>2019-03-19T19:47:23Z</time>
      </trkpt>
      <trkpt lat="46.0158" lon="6.34971">
        <ele>1610.83</ele>
        <time>2019-03-19T19:47:24Z</time>
      </trkpt>
      <trkpt lat="46.01582" lon="6.34971">
        <ele>1610.83</ele>
        <time>2019-03-19T19:47:25Z</time>
      </trkpt>
      <trkpt lat="46.01583" lon="6.34971">
        <ele>1610.83</ele>
        <time>2019-03-19T19:47:26Z</time>
      </trkpt>
      <trkpt lat="46.01584" lon="6.3497">
        <ele>1610.83</ele>
        <time>2019-03-19T19:47:27Z</time>
      </trkpt>
      <trkpt lat="46.01585" lon="6.3497">
        <ele>1610.83</ele>
        <time>2019-03-19T19:47:28Z</time>
      </trkpt>
      <trkpt lat="46.01587" lon="6.3497">
        <ele>1611.31</ele>
        <time>2019-03-19T19:47:29Z</time>
      </trkpt>
      <trkpt lat="46.0159" lon="6.34969">
        <ele>1611.79</ele>
        <time>2019-03-19T19:47:32Z</time>
      </trkpt>
      <trkpt lat="46.01591" lon="6.34968">
        <ele>1611.79</ele>
        <time>2019-03-19T19:47:33Z</time>
      </trkpt>
      <trkpt lat="46.01592" lon="6.34968">
        <ele>1611.79</ele>
        <time>2019-03-19T19:47:34Z</time>
      </trkpt>
      <trkpt lat="46.01594" lon="6.34967">
        <ele>1611.79</ele>
        <time>2019-03-19T19:47:35Z</time>
      </trkpt>
      <trkpt lat="46.01595" lon="6.34966">
        <ele>1611.79</ele>
        <time>2019-03-19T19:47:36Z</time>
      </trkpt>
      <trkpt lat="46.01596" lon="6.34965">
        <ele>1612.27</ele>
        <time>2019-03-19T19:47:38Z</time>
      </trkpt>
      <trkpt lat="46.01597" lon="6.34965">
        <ele>1612.27</ele>
        <time>2019-03-19T19:47:39Z</time>
      </trkpt>
      <trkpt lat="46.01599" lon="6.34964">
        <ele>1612.75</ele>
        <time>2019-03-19T19:47:40Z</time>
      </trkpt>
      <trkpt lat="46.016" lon="6.34963">
        <ele>1612.75</ele>
        <time>2019-03-19T19:47:41Z</time>
      </trkpt>
      <trkpt lat="46.01601" lon="6.34963">
        <ele>1613.23</ele>
        <time>2019-03-19T19:47:42Z</time>
      </trkpt>
      <trkpt lat="46.01607" lon="6.34961">
        <ele>1614.67</ele>
        <time>2019-03-19T19:47:47Z</time>
      </trkpt>
      <trkpt lat="46.01608" lon="6.34961">
        <ele>1614.67</ele>
        <time>2019-03-19T19:47:48Z</time>
      </trkpt>
      <trkpt lat="46.01609" lon="6.3496">
        <ele>1615.15</ele>
        <time>2019-03-19T19:47:49Z</time>
      </trkpt>
      <trkpt lat="46.0161" lon="6.3496">
        <ele>1615.15</ele>
        <time>2019-03-19T19:47:50Z</time>
      </trkpt>
      <trkpt lat="46.01611" lon="6.3496">
        <ele>1615.63</ele>
        <time>2019-03-19T19:47:51Z</time>
      </trkpt>
      <trkpt lat="46.01617" lon="6.34959">
        <ele>1616.59</ele>
        <time>2019-03-19T19:47:57Z</time>
      </trkpt>
      <trkpt lat="46.01618" lon="6.34959">
        <ele>1616.59</ele>
        <time>2019-03-19T19:47:58Z</time>
      </trkpt>
      <trkpt lat="46.01625" lon="6.34963">
        <ele>1618.04</ele>
        <time>2019-03-19T19:48:06Z</time>
      </trkpt>
      <trkpt lat="46.01628" lon="6.34966">
        <ele>1618.52</ele>
        <time>2019-03-19T19:48:10Z</time>
      </trkpt>
      <trkpt lat="46.01635" lon="6.34971">
        <ele>1619.48</ele>
        <time>2019-03-19T19:48:16Z</time>
      </trkpt>
      <trkpt lat="46.01636" lon="6.34971">
        <ele>1619.48</ele>
        <time>2019-03-19T19:48:17Z</time>
      </trkpt>
      <trkpt lat="46.01637" lon="6.34972">
        <ele>1619.96</ele>
        <time>2019-03-19T19:48:18Z</time>
      </trkpt>
      <trkpt lat="46.01638" lon="6.34972">
        <ele>1619.96</ele>
        <time>2019-03-19T19:48:19Z</time>
      </trkpt>
      <trkpt lat="46.0164" lon="6.34972">
        <ele>1619.96</ele>
        <time>2019-03-19T19:48:20Z</time>
      </trkpt>
      <trkpt lat="46.01643" lon="6.34972">
        <ele>1620.44</ele>
        <time>2019-03-19T19:48:23Z</time>
      </trkpt>
      <trkpt lat="46.01645" lon="6.34972">
        <ele>1620.92</ele>
        <time>2019-03-19T19:48:24Z</time>
      </trkpt>
      <trkpt lat="46.01646" lon="6.34972">
        <ele>1620.92</ele>
        <time>2019-03-19T19:48:26Z</time>
      </trkpt>
      <trkpt lat="46.01649" lon="6.34974">
        <ele>1622.36</ele>
        <time>2019-03-19T19:48:34Z</time>
      </trkpt>
      <trkpt lat="46.01661" lon="6.34972">
        <ele>1625.25</ele>
        <time>2019-03-19T19:48:49Z</time>
      </trkpt>
      <trkpt lat="46.01672" lon="6.34963">
        <ele>1628.61</ele>
        <time>2019-03-19T19:49:05Z</time>
      </trkpt>
      <trkpt lat="46.01668" lon="6.34957">
        <ele>1629.57</ele>
        <time>2019-03-19T19:49:13Z</time>
      </trkpt>
      <trkpt lat="46.01676" lon="6.34952">
        <ele>1632.94</ele>
        <time>2019-03-19T19:49:29Z</time>
      </trkpt>
      <trkpt lat="46.01683" lon="6.34952">
        <ele>1635.34</ele>
        <time>2019-03-19T19:49:37Z</time>
      </trkpt>
      <trkpt lat="46.01684" lon="6.34951">
        <ele>1635.82</ele>
        <time>2019-03-19T19:49:53Z</time>
      </trkpt>
      <trkpt lat="46.01683" lon="6.34954">
        <ele>1635.34</ele>
        <time>2019-03-19T19:50:41Z</time>
      </trkpt>
      <trkpt lat="46.01686" lon="6.34956">
        <ele>1635.34</ele>
        <time>2019-03-19T19:50:44Z</time>
      </trkpt>
      <trkpt lat="46.01689" lon="6.34958">
        <ele>1635.82</ele>
        <time>2019-03-19T19:50:49Z</time>
      </trkpt>
      <trkpt lat="46.01709" lon="6.34964">
        <ele>1638.7</ele>
        <time>2019-03-19T19:51:29Z</time>
      </trkpt>
      <trkpt lat="46.01741" lon="6.34983">
        <ele>1641.59</ele>
        <time>2019-03-19T19:53:47Z</time>
      </trkpt>
      <trkpt lat="46.01752" lon="6.34986">
        <ele>1642.55</ele>
        <time>2019-03-19T19:54:03Z</time>
      </trkpt>
      <trkpt lat="46.01758" lon="6.34988">
        <ele>1643.99</ele>
        <time>2019-03-19T19:54:10Z</time>
      </trkpt>
      <trkpt lat="46.01759" lon="6.34988">
        <ele>1643.99</ele>
        <time>2019-03-19T19:54:11Z</time>
      </trkpt>
      <trkpt lat="46.0176" lon="6.34987">
        <ele>1643.99</ele>
        <time>2019-03-19T19:54:12Z</time>
      </trkpt>
      <trkpt lat="46.01761" lon="6.34987">
        <ele>1644.47</ele>
        <time>2019-03-19T19:54:14Z</time>
      </trkpt>
      <trkpt lat="46.01762" lon="6.34987">
        <ele>1644.47</ele>
        <time>2019-03-19T19:54:15Z</time>
      </trkpt>
      <trkpt lat="46.01758" lon="6.34982">
        <ele>1646.4</ele>
        <time>2019-03-19T19:54:49Z</time>
      </trkpt>
      <trkpt lat="46.01757" lon="6.34982">
        <ele>1646.88</ele>
        <time>2019-03-19T19:54:50Z</time>
      </trkpt>
      <trkpt lat="46.01755" lon="6.34977">
        <ele>1647.84</ele>
        <time>2019-03-19T19:54:54Z</time>
      </trkpt>
      <trkpt lat="46.01754" lon="6.34976">
        <ele>1648.32</ele>
        <time>2019-03-19T19:54:56Z</time>
      </trkpt>
      <trkpt lat="46.01753" lon="6.34975">
        <ele>1648.8</ele>
        <time>2019-03-19T19:54:57Z</time>
      </trkpt>
      <trkpt lat="46.01745" lon="6.34965">
        <ele>1652.16</ele>
        <time>2019-03-19T19:55:10Z</time>
      </trkpt>
      <trkpt lat="46.01738" lon="6.34951">
        <ele>1655.05</ele>
        <time>2019-03-19T19:55:23Z</time>
      </trkpt>
      <trkpt lat="46.01737" lon="6.34946">
        <ele>1656.01</ele>
        <time>2019-03-19T19:55:27Z</time>
      </trkpt>
      <trkpt lat="46.01751" lon="6.34946">
        <ele>1658.89</ele>
        <time>2019-03-19T19:56:04Z</time>
      </trkpt>
      <trkpt lat="46.01757" lon="6.34946">
        <ele>1661.3</ele>
        <time>2019-03-19T19:56:12Z</time>
      </trkpt>
      <trkpt lat="46.01772" lon="6.34948">
        <ele>1664.18</ele>
        <time>2019-03-19T19:56:32Z</time>
      </trkpt>
      <trkpt lat="46.01784" lon="6.34946">
        <ele>1667.54</ele>
        <time>2019-03-19T19:56:46Z</time>
      </trkpt>
      <trkpt lat="46.01786" lon="6.34942">
        <ele>1670.43</ele>
        <time>2019-03-19T19:57:03Z</time>
      </trkpt>
      <trkpt lat="46.01775" lon="6.34935">
        <ele>1673.31</ele>
        <time>2019-03-19T19:57:24Z</time>
      </trkpt>
      <trkpt lat="46.01773" lon="6.3493">
        <ele>1674.27</ele>
        <time>2019-03-19T19:57:30Z</time>
      </trkpt>
      <trkpt lat="46.01772" lon="6.34929">
        <ele>1674.75</ele>
        <time>2019-03-19T19:57:32Z</time>
      </trkpt>
      <trkpt lat="46.01765" lon="6.34919">
        <ele>1677.64</ele>
        <time>2019-03-19T19:57:49Z</time>
      </trkpt>
      <trkpt lat="46.01757" lon="6.34907">
        <ele>1681</ele>
        <time>2019-03-19T19:58:04Z</time>
      </trkpt>
      <trkpt lat="46.01761" lon="6.34904">
        <ele>1682.44</ele>
        <time>2019-03-19T19:58:18Z</time>
      </trkpt>
      <trkpt lat="46.01774" lon="6.34902">
        <ele>1685.33</ele>
        <time>2019-03-19T19:59:05Z</time>
      </trkpt>
      <trkpt lat="46.01785" lon="6.34899">
        <ele>1688.69</ele>
        <time>2019-03-19T19:59:23Z</time>
      </trkpt>
      <trkpt lat="46.01799" lon="6.34896">
        <ele>1691.58</ele>
        <time>2019-03-19T19:59:40Z</time>
      </trkpt>
      <trkpt lat="46.01811" lon="6.34893">
        <ele>1694.94</ele>
        <time>2019-03-19T19:59:58Z</time>
      </trkpt>
      <trkpt lat="46.0182" lon="6.34889">
        <ele>1697.83</ele>
        <time>2019-03-19T20:00:12Z</time>
      </trkpt>
      <trkpt lat="46.01831" lon="6.34885">
        <ele>1701.19</ele>
        <time>2019-03-19T20:00:27Z</time>
      </trkpt>
      <trkpt lat="46.01833" lon="6.34884">
        <ele>1701.67</ele>
        <time>2019-03-19T20:00:30Z</time>
      </trkpt>
      <trkpt lat="46.01833" lon="6.34884">
        <ele>1701.67</ele>
        <time>2019-03-19T20:00:31Z</time>
      </trkpt>
      <trkpt lat="46.01833" lon="6.34878">
        <ele>1705.04</ele>
        <time>2019-03-19T20:00:54Z</time>
      </trkpt>
      <trkpt lat="46.01827" lon="6.34873">
        <ele>1706.48</ele>
        <time>2019-03-19T20:01:32Z</time>
      </trkpt>
      <trkpt lat="46.01816" lon="6.34863">
        <ele>1709.36</ele>
        <time>2019-03-19T20:01:48Z</time>
      </trkpt>
      <trkpt lat="46.01812" lon="6.34858">
        <ele>1710.8</ele>
        <time>2019-03-19T20:01:55Z</time>
      </trkpt>
      <trkpt lat="46.01811" lon="6.34856">
        <ele>1711.76</ele>
        <time>2019-03-19T20:01:57Z</time>
      </trkpt>
      <trkpt lat="46.0181" lon="6.34855">
        <ele>1711.76</ele>
        <time>2019-03-19T20:01:59Z</time>
      </trkpt>
      <trkpt lat="46.01801" lon="6.34844">
        <ele>1715.13</ele>
        <time>2019-03-19T20:02:15Z</time>
      </trkpt>
      <trkpt lat="46.018" lon="6.34841">
        <ele>1715.61</ele>
        <time>2019-03-19T20:02:21Z</time>
      </trkpt>
      <trkpt lat="46.01798" lon="6.34839">
        <ele>1716.09</ele>
        <time>2019-03-19T20:02:24Z</time>
      </trkpt>
      <trkpt lat="46.0179" lon="6.3483">
        <ele>1718.97</ele>
        <time>2019-03-19T20:02:39Z</time>
      </trkpt>
      <trkpt lat="46.01789" lon="6.34828">
        <ele>1719.94</ele>
        <time>2019-03-19T20:02:42Z</time>
      </trkpt>
      <trkpt lat="46.01801" lon="6.34828">
        <ele>1722.82</ele>
        <time>2019-03-19T20:04:13Z</time>
      </trkpt>
      <trkpt lat="46.01808" lon="6.34827">
        <ele>1724.74</ele>
        <time>2019-03-19T20:04:26Z</time>
      </trkpt>
      <trkpt lat="46.0181" lon="6.34827">
        <ele>1725.22</ele>
        <time>2019-03-19T20:04:28Z</time>
      </trkpt>
      <trkpt lat="46.01824" lon="6.34825">
        <ele>1728.11</ele>
        <time>2019-03-19T20:04:46Z</time>
      </trkpt>
      <trkpt lat="46.01826" lon="6.34821">
        <ele>1730.99</ele>
        <time>2019-03-19T20:05:09Z</time>
      </trkpt>
      <trkpt lat="46.01817" lon="6.34812">
        <ele>1734.36</ele>
        <time>2019-03-19T20:05:29Z</time>
      </trkpt>
      <trkpt lat="46.01816" lon="6.3481">
        <ele>1734.84</ele>
        <time>2019-03-19T20:05:31Z</time>
      </trkpt>
      <trkpt lat="46.01818" lon="6.34804">
        <ele>1737.24</ele>
        <time>2019-03-19T20:05:55Z</time>
      </trkpt>
      <trkpt lat="46.01819" lon="6.34804">
        <ele>1737.24</ele>
        <time>2019-03-19T20:05:57Z</time>
      </trkpt>
      <trkpt lat="46.01827" lon="6.34806">
        <ele>1739.16</ele>
        <time>2019-03-19T20:07:13Z</time>
      </trkpt>
      <trkpt lat="46.01836" lon="6.34801">
        <ele>1742.53</ele>
        <time>2019-03-19T20:07:26Z</time>
      </trkpt>
      <trkpt lat="46.01848" lon="6.34796">
        <ele>1745.41</ele>
        <time>2019-03-19T20:07:41Z</time>
      </trkpt>
      <trkpt lat="46.01857" lon="6.34793">
        <ele>1748.78</ele>
        <time>2019-03-19T20:07:56Z</time>
      </trkpt>
      <trkpt lat="46.01867" lon="6.3479">
        <ele>1751.66</ele>
        <time>2019-03-19T20:08:11Z</time>
      </trkpt>
      <trkpt lat="46.01876" lon="6.34786">
        <ele>1755.02</ele>
        <time>2019-03-19T20:08:25Z</time>
      </trkpt>
      <trkpt lat="46.01877" lon="6.34785">
        <ele>1755.02</ele>
        <time>2019-03-19T20:08:27Z</time>
      </trkpt>
      <trkpt lat="46.01888" lon="6.3478">
        <ele>1758.39</ele>
        <time>2019-03-19T20:08:44Z</time>
      </trkpt>
      <trkpt lat="46.01889" lon="6.3478">
        <ele>1758.87</ele>
        <time>2019-03-19T20:08:46Z</time>
      </trkpt>
      <trkpt lat="46.0189" lon="6.34779">
        <ele>1758.87</ele>
        <time>2019-03-19T20:08:47Z</time>
      </trkpt>
      <trkpt lat="46.01902" lon="6.34775">
        <ele>1762.23</ele>
        <time>2019-03-19T20:09:04Z</time>
      </trkpt>
      <trkpt lat="46.01905" lon="6.34773">
        <ele>1763.2</ele>
        <time>2019-03-19T20:09:09Z</time>
      </trkpt>
      <trkpt lat="46.01906" lon="6.34773">
        <ele>1763.2</ele>
        <time>2019-03-19T20:09:11Z</time>
      </trkpt>
      <trkpt lat="46.01917" lon="6.34768">
        <ele>1766.56</ele>
        <time>2019-03-19T20:09:27Z</time>
      </trkpt>
      <trkpt lat="46.01924" lon="6.34764">
        <ele>1768.48</ele>
        <time>2019-03-19T20:09:37Z</time>
      </trkpt>
      <trkpt lat="46.01925" lon="6.34763">
        <ele>1768.96</ele>
        <time>2019-03-19T20:09:39Z</time>
      </trkpt>
      <trkpt lat="46.01935" lon="6.34758">
        <ele>1771.85</ele>
        <time>2019-03-19T20:09:54Z</time>
      </trkpt>
      <trkpt lat="46.01946" lon="6.34752">
        <ele>1775.21</ele>
        <time>2019-03-19T20:10:11Z</time>
      </trkpt>
      <trkpt lat="46.01956" lon="6.34745">
        <ele>1778.1</ele>
        <time>2019-03-19T20:10:27Z</time>
      </trkpt>
      <trkpt lat="46.01964" lon="6.34743">
        <ele>1780.02</ele>
        <time>2019-03-19T20:12:40Z</time>
      </trkpt>
      <trkpt lat="46.01966" lon="6.34743">
        <ele>1780.5</ele>
        <time>2019-03-19T20:12:42Z</time>
      </trkpt>
      <trkpt lat="46.01974" lon="6.34738">
        <ele>1783.38</ele>
        <time>2019-03-19T20:12:56Z</time>
      </trkpt>
      <trkpt lat="46.01975" lon="6.34737">
        <ele>1783.86</ele>
        <time>2019-03-19T20:12:58Z</time>
      </trkpt>
      <trkpt lat="46.01977" lon="6.34736">
        <ele>1784.34</ele>
        <time>2019-03-19T20:13:00Z</time>
      </trkpt>
      <trkpt lat="46.01986" lon="6.34731">
        <ele>1787.23</ele>
        <time>2019-03-19T20:13:12Z</time>
      </trkpt>
      <trkpt lat="46.01998" lon="6.34725">
        <ele>1790.59</ele>
        <time>2019-03-19T20:13:29Z</time>
      </trkpt>
      <trkpt lat="46.02011" lon="6.34721">
        <ele>1793.48</ele>
        <time>2019-03-19T20:13:49Z</time>
      </trkpt>
      <trkpt lat="46.02016" lon="6.34719">
        <ele>1794.44</ele>
        <time>2019-03-19T20:13:57Z</time>
      </trkpt>
      <trkpt lat="46.02027" lon="6.34709">
        <ele>1797.8</ele>
        <time>2019-03-19T20:14:17Z</time>
      </trkpt>
      <trkpt lat="46.02022" lon="6.347">
        <ele>1800.69</ele>
        <time>2019-03-19T20:14:35Z</time>
      </trkpt>
      <trkpt lat="46.02015" lon="6.34692">
        <ele>1804.05</ele>
        <time>2019-03-19T20:14:52Z</time>
      </trkpt>
      <trkpt lat="46.02006" lon="6.34683">
        <ele>1806.94</ele>
        <time>2019-03-19T20:15:09Z</time>
      </trkpt>
      <trkpt lat="46.02" lon="6.34672">
        <ele>1809.82</ele>
        <time>2019-03-19T20:15:26Z</time>
      </trkpt>
      <trkpt lat="46.0201" lon="6.3466">
        <ele>1813.18</ele>
        <time>2019-03-19T20:16:10Z</time>
      </trkpt>
      <trkpt lat="46.02007" lon="6.34649">
        <ele>1816.07</ele>
        <time>2019-03-19T20:16:46Z</time>
      </trkpt>
      <trkpt lat="46.01988" lon="6.34627">
        <ele>1818.47</ele>
        <time>2019-03-19T20:20:48Z</time>
      </trkpt>
      <trkpt lat="46.01986" lon="6.34622">
        <ele>1818.47</ele>
        <time>2019-03-19T20:20:52Z</time>
      </trkpt>
      <trkpt lat="46.01985" lon="6.34622">
        <ele>1818.47</ele>
        <time>2019-03-19T20:20:53Z</time>
      </trkpt>
      <trkpt lat="46.01984" lon="6.34622">
        <ele>1818.47</ele>
        <time>2019-03-19T20:20:54Z</time>
      </trkpt>
      <trkpt lat="46.01983" lon="6.34622">
        <ele>1817.99</ele>
        <time>2019-03-19T20:20:55Z</time>
      </trkpt>
      <trkpt lat="46.01982" lon="6.34621">
        <ele>1817.99</ele>
        <time>2019-03-19T20:20:56Z</time>
      </trkpt>
      <trkpt lat="46.01981" lon="6.34621">
        <ele>1817.99</ele>
        <time>2019-03-19T20:20:57Z</time>
      </trkpt>
      <trkpt lat="46.01976" lon="6.3462">
        <ele>1817.99</ele>
        <time>2019-03-19T20:21:01Z</time>
      </trkpt>
      <trkpt lat="46.0198" lon="6.34618">
        <ele>1818.47</ele>
        <time>2019-03-19T20:21:21Z</time>
      </trkpt>
      <trkpt lat="46.01982" lon="6.34619">
        <ele>1818.47</ele>
        <time>2019-03-19T20:21:24Z</time>
      </trkpt>
      <trkpt lat="46.01996" lon="6.34636">
        <ele>1818.95</ele>
        <time>2019-03-19T20:22:18Z</time>
      </trkpt>
      <trkpt lat="46.01997" lon="6.34637">
        <ele>1818.95</ele>
        <time>2019-03-19T20:22:19Z</time>
      </trkpt>
      <trkpt lat="46.01998" lon="6.34637">
        <ele>1818.95</ele>
        <time>2019-03-19T20:22:20Z</time>
      </trkpt>
      <trkpt lat="46.02004" lon="6.34633">
        <ele>1818.47</ele>
        <time>2019-03-19T20:25:15Z</time>
      </trkpt>
      <trkpt lat="46.02" lon="6.34633">
        <ele>1818.47</ele>
        <time>2019-03-19T20:28:24Z</time>
      </trkpt>
      <trkpt lat="46.01999" lon="6.34629">
        <ele>1818.47</ele>
        <time>2019-03-19T20:29:01Z</time>
      </trkpt>
      <trkpt lat="46.02002" lon="6.3463">
        <ele>1818.95</ele>
        <time>2019-03-19T20:30:21Z</time>
      </trkpt>
      <trkpt lat="46.02002" lon="6.34631">
        <ele>1818.95</ele>
        <time>2019-03-19T20:30:22Z</time>
      </trkpt>
      <trkpt lat="46.01994" lon="6.34643">
        <ele>1817.99</ele>
        <time>2019-03-19T20:30:51Z</time>
      </trkpt>
      <trkpt lat="46.01993" lon="6.34644">
        <ele>1817.51</ele>
        <time>2019-03-19T20:30:52Z</time>
      </trkpt>
      <trkpt lat="46.01992" lon="6.34645">
        <ele>1817.51</ele>
        <time>2019-03-19T20:30:53Z</time>
      </trkpt>
      <trkpt lat="46.01991" lon="6.34645">
        <ele>1817.51</ele>
        <time>2019-03-19T20:30:54Z</time>
      </trkpt>
      <trkpt lat="46.01991" lon="6.34646">
        <ele>1817.51</ele>
        <time>2019-03-19T20:30:55Z</time>
      </trkpt>
      <trkpt lat="46.01977" lon="6.34643">
        <ele>1814.63</ele>
        <time>2019-03-19T20:31:19Z</time>
      </trkpt>
      <trkpt lat="46.01976" lon="6.34642">
        <ele>1814.63</ele>
        <time>2019-03-19T20:31:20Z</time>
      </trkpt>
      <trkpt lat="46.01975" lon="6.34642">
        <ele>1814.63</ele>
        <time>2019-03-19T20:31:21Z</time>
      </trkpt>
      <trkpt lat="46.01974" lon="6.34642">
        <ele>1814.63</ele>
        <time>2019-03-19T20:31:22Z</time>
      </trkpt>
      <trkpt lat="46.01973" lon="6.34641">
        <ele>1814.63</ele>
        <time>2019-03-19T20:31:23Z</time>
      </trkpt>
      <trkpt lat="46.01965" lon="6.34627">
        <ele>1813.18</ele>
        <time>2019-03-19T20:31:37Z</time>
      </trkpt>
      <trkpt lat="46.01964" lon="6.34621">
        <ele>1813.66</ele>
        <time>2019-03-19T20:31:42Z</time>
      </trkpt>
      <trkpt lat="46.01964" lon="6.34619">
        <ele>1813.18</ele>
        <time>2019-03-19T20:31:43Z</time>
      </trkpt>
      <trkpt lat="46.01964" lon="6.34619">
        <ele>1811.74</ele>
        <time>2019-03-19T20:39:40Z</time>
      </trkpt>
      <trkpt lat="46.01962" lon="6.34613">
        <ele>1810.78</ele>
        <time>2019-03-19T20:44:10Z</time>
      </trkpt>
      <trkpt lat="46.01963" lon="6.34619">
        <ele>1810.78</ele>
        <time>2019-03-19T20:48:18Z</time>
      </trkpt>
      <trkpt lat="46.01962" lon="6.34619">
        <ele>1811.26</ele>
        <time>2019-03-19T20:48:22Z</time>
      </trkpt>
      <trkpt lat="46.01969" lon="6.34625">
        <ele>1814.63</ele>
        <time>2019-03-19T20:48:43Z</time>
      </trkpt>
      <trkpt lat="46.01981" lon="6.34629">
        <ele>1817.51</ele>
        <time>2019-03-19T20:49:02Z</time>
      </trkpt>
      <trkpt lat="46.01981" lon="6.3463">
        <ele>1817.99</ele>
        <time>2019-03-19T20:49:03Z</time>
      </trkpt>
      <trkpt lat="46.01983" lon="6.34629">
        <ele>1817.51</ele>
        <time>2019-03-19T20:49:06Z</time>
      </trkpt>
      <trkpt lat="46.02003" lon="6.34637">
        <ele>1816.55</ele>
        <time>2019-03-19T20:51:23Z</time>
      </trkpt>
      <trkpt lat="46.02002" lon="6.34641">
        <ele>1817.03</ele>
        <time>2019-03-19T20:52:25Z</time>
      </trkpt>
      <trkpt lat="46.02003" lon="6.34635">
        <ele>1816.07</ele>
        <time>2019-03-19T20:54:09Z</time>
      </trkpt>
      <trkpt lat="46.02001" lon="6.34636">
        <ele>1816.55</ele>
        <time>2019-03-19T20:55:56Z</time>
      </trkpt>
      <trkpt lat="46.02002" lon="6.34637">
        <ele>1817.03</ele>
        <time>2019-03-19T20:56:07Z</time>
      </trkpt>
      <trkpt lat="46.02003" lon="6.34638">
        <ele>1817.03</ele>
        <time>2019-03-19T20:56:08Z</time>
      </trkpt>
      <trkpt lat="46.02005" lon="6.34647">
        <ele>1815.11</ele>
        <time>2019-03-19T20:57:23Z</time>
      </trkpt>
      <trkpt lat="46.02006" lon="6.34648">
        <ele>1815.11</ele>
        <time>2019-03-19T20:57:24Z</time>
      </trkpt>
      <trkpt lat="46.02008" lon="6.34651">
        <ele>1815.11</ele>
        <time>2019-03-19T20:57:25Z</time>
      </trkpt>
      <trkpt lat="46.02009" lon="6.34655">
        <ele>1814.63</ele>
        <time>2019-03-19T20:57:26Z</time>
      </trkpt>
      <trkpt lat="46.0201" lon="6.3466">
        <ele>1813.18</ele>
        <time>2019-03-19T20:57:27Z</time>
      </trkpt>
      <trkpt lat="46.02011" lon="6.34666">
        <ele>1812.22</ele>
        <time>2019-03-19T20:57:28Z</time>
      </trkpt>
      <trkpt lat="46.02017" lon="6.34679">
        <ele>1808.86</ele>
        <time>2019-03-19T20:57:30Z</time>
      </trkpt>
      <trkpt lat="46.02019" lon="6.34685">
        <ele>1806.45</ele>
        <time>2019-03-19T20:57:31Z</time>
      </trkpt>
      <trkpt lat="46.02021" lon="6.34692">
        <ele>1805.01</ele>
        <time>2019-03-19T20:57:32Z</time>
      </trkpt>
      <trkpt lat="46.0202" lon="6.34698">
        <ele>1803.57</ele>
        <time>2019-03-19T20:57:33Z</time>
      </trkpt>
      <trkpt lat="46.02016" lon="6.34698">
        <ele>1802.61</ele>
        <time>2019-03-19T20:57:34Z</time>
      </trkpt>
      <trkpt lat="46.02015" lon="6.34698">
        <ele>1801.65</ele>
        <time>2019-03-19T20:57:35Z</time>
      </trkpt>
      <trkpt lat="46.02014" lon="6.34698">
        <ele>1801.17</ele>
        <time>2019-03-19T20:57:36Z</time>
      </trkpt>
      <trkpt lat="46.02013" lon="6.34698">
        <ele>1801.17</ele>
        <time>2019-03-19T20:57:37Z</time>
      </trkpt>
      <trkpt lat="46.02002" lon="6.347">
        <ele>1800.69</ele>
        <time>2019-03-19T20:58:13Z</time>
      </trkpt>
      <trkpt lat="46.01998" lon="6.34702">
        <ele>1800.21</ele>
        <time>2019-03-19T20:58:14Z</time>
      </trkpt>
      <trkpt lat="46.01985" lon="6.34705">
        <ele>1798.76</ele>
        <time>2019-03-19T20:58:17Z</time>
      </trkpt>
      <trkpt lat="46.01974" lon="6.34707">
        <ele>1796.84</ele>
        <time>2019-03-19T20:58:19Z</time>
      </trkpt>
      <trkpt lat="46.01969" lon="6.34711">
        <ele>1795.88</ele>
        <time>2019-03-19T20:58:20Z</time>
      </trkpt>
      <trkpt lat="46.01964" lon="6.34715">
        <ele>1793</ele>
        <time>2019-03-19T20:58:21Z</time>
      </trkpt>
      <trkpt lat="46.01959" lon="6.34722">
        <ele>1790.59</ele>
        <time>2019-03-19T20:58:22Z</time>
      </trkpt>
      <trkpt lat="46.01953" lon="6.3473">
        <ele>1788.67</ele>
        <time>2019-03-19T20:58:23Z</time>
      </trkpt>
      <trkpt lat="46.01948" lon="6.34736">
        <ele>1786.27</ele>
        <time>2019-03-19T20:58:24Z</time>
      </trkpt>
      <trkpt lat="46.01943" lon="6.3474">
        <ele>1783.86</ele>
        <time>2019-03-19T20:58:25Z</time>
      </trkpt>
      <trkpt lat="46.01937" lon="6.34742">
        <ele>1780.5</ele>
        <time>2019-03-19T20:58:29Z</time>
      </trkpt>
      <trkpt lat="46.01937" lon="6.34743">
        <ele>1780.5</ele>
        <time>2019-03-19T20:58:30Z</time>
      </trkpt>
      <trkpt lat="46.01934" lon="6.34743">
        <ele>1780.02</ele>
        <time>2019-03-19T20:58:34Z</time>
      </trkpt>
      <trkpt lat="46.01933" lon="6.34743">
        <ele>1779.54</ele>
        <time>2019-03-19T20:58:35Z</time>
      </trkpt>
      <trkpt lat="46.0193" lon="6.34743">
        <ele>1778.58</ele>
        <time>2019-03-19T20:58:36Z</time>
      </trkpt>
      <trkpt lat="46.01917" lon="6.34745">
        <ele>1775.69</ele>
        <time>2019-03-19T20:58:47Z</time>
      </trkpt>
      <trkpt lat="46.01917" lon="6.34748">
        <ele>1775.21</ele>
        <time>2019-03-19T20:58:48Z</time>
      </trkpt>
      <trkpt lat="46.01918" lon="6.34753">
        <ele>1774.25</ele>
        <time>2019-03-19T20:58:49Z</time>
      </trkpt>
      <trkpt lat="46.01917" lon="6.34759">
        <ele>1773.29</ele>
        <time>2019-03-19T20:58:50Z</time>
      </trkpt>
      <trkpt lat="46.01914" lon="6.34763">
        <ele>1771.85</ele>
        <time>2019-03-19T20:58:51Z</time>
      </trkpt>
      <trkpt lat="46.01911" lon="6.34764">
        <ele>1769.92</ele>
        <time>2019-03-19T20:58:52Z</time>
      </trkpt>
      <trkpt lat="46.01907" lon="6.34765">
        <ele>1768.96</ele>
        <time>2019-03-19T20:58:53Z</time>
      </trkpt>
      <trkpt lat="46.01904" lon="6.34769">
        <ele>1768</ele>
        <time>2019-03-19T20:58:54Z</time>
      </trkpt>
      <trkpt lat="46.01901" lon="6.34773">
        <ele>1767.04</ele>
        <time>2019-03-19T20:58:55Z</time>
      </trkpt>
      <trkpt lat="46.01898" lon="6.34776">
        <ele>1765.6</ele>
        <time>2019-03-19T20:58:56Z</time>
      </trkpt>
      <trkpt lat="46.01896" lon="6.34778">
        <ele>1764.16</ele>
        <time>2019-03-19T20:58:57Z</time>
      </trkpt>
      <trkpt lat="46.01894" lon="6.34781">
        <ele>1763.2</ele>
        <time>2019-03-19T20:58:58Z</time>
      </trkpt>
      <trkpt lat="46.01893" lon="6.34785">
        <ele>1761.75</ele>
        <time>2019-03-19T20:58:59Z</time>
      </trkpt>
      <trkpt lat="46.0189" lon="6.34788">
        <ele>1760.31</ele>
        <time>2019-03-19T20:59:00Z</time>
      </trkpt>
      <trkpt lat="46.01887" lon="6.34789">
        <ele>1758.87</ele>
        <time>2019-03-19T20:59:01Z</time>
      </trkpt>
      <trkpt lat="46.01884" lon="6.34788">
        <ele>1757.91</ele>
        <time>2019-03-19T20:59:02Z</time>
      </trkpt>
      <trkpt lat="46.01882" lon="6.34787">
        <ele>1757.43</ele>
        <time>2019-03-19T20:59:03Z</time>
      </trkpt>
      <trkpt lat="46.01874" lon="6.34792">
        <ele>1755.99</ele>
        <time>2019-03-19T20:59:28Z</time>
      </trkpt>
      <trkpt lat="46.01872" lon="6.34802">
        <ele>1752.62</ele>
        <time>2019-03-19T20:59:31Z</time>
      </trkpt>
      <trkpt lat="46.01872" lon="6.34807">
        <ele>1749.74</ele>
        <time>2019-03-19T20:59:32Z</time>
      </trkpt>
      <trkpt lat="46.01873" lon="6.34812">
        <ele>1747.81</ele>
        <time>2019-03-19T20:59:33Z</time>
      </trkpt>
      <trkpt lat="46.01872" lon="6.34816">
        <ele>1745.41</ele>
        <time>2019-03-19T20:59:34Z</time>
      </trkpt>
      <trkpt lat="46.01868" lon="6.34819">
        <ele>1742.53</ele>
        <time>2019-03-19T20:59:35Z</time>
      </trkpt>
      <trkpt lat="46.01865" lon="6.3482">
        <ele>1740.6</ele>
        <time>2019-03-19T20:59:36Z</time>
      </trkpt>
      <trkpt lat="46.01862" lon="6.3482">
        <ele>1739.64</ele>
        <time>2019-03-19T20:59:37Z</time>
      </trkpt>
      <trkpt lat="46.01861" lon="6.3482">
        <ele>1739.16</ele>
        <time>2019-03-19T20:59:38Z</time>
      </trkpt>
      <trkpt lat="46.01861" lon="6.3482">
        <ele>1739.16</ele>
        <time>2019-03-19T20:59:39Z</time>
      </trkpt>
      <trkpt lat="46.01855" lon="6.34818">
        <ele>1737.72</ele>
        <time>2019-03-19T20:59:55Z</time>
      </trkpt>
      <trkpt lat="46.01848" lon="6.34823">
        <ele>1735.8</ele>
        <time>2019-03-19T21:00:28Z</time>
      </trkpt>
      <trkpt lat="46.01847" lon="6.34826">
        <ele>1735.32</ele>
        <time>2019-03-19T21:00:29Z</time>
      </trkpt>
      <trkpt lat="46.01844" lon="6.34829">
        <ele>1732.91</ele>
        <time>2019-03-19T21:00:30Z</time>
      </trkpt>
      <trkpt lat="46.01839" lon="6.34831">
        <ele>1730.51</ele>
        <time>2019-03-19T21:00:31Z</time>
      </trkpt>
      <trkpt lat="46.01835" lon="6.34834">
        <ele>1728.59</ele>
        <time>2019-03-19T21:00:32Z</time>
      </trkpt>
      <trkpt lat="46.0183" lon="6.34839">
        <ele>1727.63</ele>
        <time>2019-03-19T21:00:33Z</time>
      </trkpt>
      <trkpt lat="46.01826" lon="6.34845">
        <ele>1725.22</ele>
        <time>2019-03-19T21:00:34Z</time>
      </trkpt>
      <trkpt lat="46.01822" lon="6.34851">
        <ele>1721.86</ele>
        <time>2019-03-19T21:00:35Z</time>
      </trkpt>
      <trkpt lat="46.01816" lon="6.34853">
        <ele>1719.46</ele>
        <time>2019-03-19T21:00:36Z</time>
      </trkpt>
      <trkpt lat="46.01811" lon="6.34855">
        <ele>1716.57</ele>
        <time>2019-03-19T21:00:37Z</time>
      </trkpt>
      <trkpt lat="46.01807" lon="6.3486">
        <ele>1714.65</ele>
        <time>2019-03-19T21:00:38Z</time>
      </trkpt>
      <trkpt lat="46.01803" lon="6.34864">
        <ele>1712.73</ele>
        <time>2019-03-19T21:00:39Z</time>
      </trkpt>
      <trkpt lat="46.01798" lon="6.34866">
        <ele>1710.8</ele>
        <time>2019-03-19T21:00:40Z</time>
      </trkpt>
      <trkpt lat="46.01794" lon="6.34866">
        <ele>1708.88</ele>
        <time>2019-03-19T21:00:41Z</time>
      </trkpt>
      <trkpt lat="46.01791" lon="6.3487">
        <ele>1707.44</ele>
        <time>2019-03-19T21:00:42Z</time>
      </trkpt>
      <trkpt lat="46.01788" lon="6.34872">
        <ele>1706</ele>
        <time>2019-03-19T21:00:43Z</time>
      </trkpt>
      <trkpt lat="46.01782" lon="6.34875">
        <ele>1702.63</ele>
        <time>2019-03-19T21:00:45Z</time>
      </trkpt>
      <trkpt lat="46.0178" lon="6.34874">
        <ele>1701.67</ele>
        <time>2019-03-19T21:00:46Z</time>
      </trkpt>
      <trkpt lat="46.01777" lon="6.34872">
        <ele>1700.23</ele>
        <time>2019-03-19T21:00:49Z</time>
      </trkpt>
      <trkpt lat="46.01772" lon="6.34872">
        <ele>1698.79</ele>
        <time>2019-03-19T21:01:04Z</time>
      </trkpt>
      <trkpt lat="46.01769" lon="6.34885">
        <ele>1695.42</ele>
        <time>2019-03-19T21:01:07Z</time>
      </trkpt>
      <trkpt lat="46.01767" lon="6.3489">
        <ele>1693.5</ele>
        <time>2019-03-19T21:01:08Z</time>
      </trkpt>
      <trkpt lat="46.01764" lon="6.34894">
        <ele>1692.06</ele>
        <time>2019-03-19T21:01:09Z</time>
      </trkpt>
      <trkpt lat="46.01763" lon="6.34899">
        <ele>1689.65</ele>
        <time>2019-03-19T21:01:10Z</time>
      </trkpt>
      <trkpt lat="46.01761" lon="6.34903">
        <ele>1686.77</ele>
        <time>2019-03-19T21:01:11Z</time>
      </trkpt>
      <trkpt lat="46.01758" lon="6.34904">
        <ele>1684.37</ele>
        <time>2019-03-19T21:01:12Z</time>
      </trkpt>
      <trkpt lat="46.01755" lon="6.34907">
        <ele>1683.41</ele>
        <time>2019-03-19T21:01:13Z</time>
      </trkpt>
      <trkpt lat="46.01753" lon="6.3491">
        <ele>1681.48</ele>
        <time>2019-03-19T21:01:14Z</time>
      </trkpt>
      <trkpt lat="46.01751" lon="6.34913">
        <ele>1679.56</ele>
        <time>2019-03-19T21:01:15Z</time>
      </trkpt>
      <trkpt lat="46.01749" lon="6.34914">
        <ele>1677.16</ele>
        <time>2019-03-19T21:01:16Z</time>
      </trkpt>
      <trkpt lat="46.01748" lon="6.34915">
        <ele>1675.72</ele>
        <time>2019-03-19T21:01:17Z</time>
      </trkpt>
      <trkpt lat="46.01748" lon="6.34918">
        <ele>1675.23</ele>
        <time>2019-03-19T21:01:19Z</time>
      </trkpt>
      <trkpt lat="46.01748" lon="6.34919">
        <ele>1674.27</ele>
        <time>2019-03-19T21:01:20Z</time>
      </trkpt>
      <trkpt lat="46.01748" lon="6.34921">
        <ele>1673.79</ele>
        <time>2019-03-19T21:01:21Z</time>
      </trkpt>
      <trkpt lat="46.01749" lon="6.34924">
        <ele>1672.83</ele>
        <time>2019-03-19T21:01:22Z</time>
      </trkpt>
      <trkpt lat="46.01748" lon="6.34926">
        <ele>1672.35</ele>
        <time>2019-03-19T21:01:23Z</time>
      </trkpt>
      <trkpt lat="46.01747" lon="6.34928">
        <ele>1670.91</ele>
        <time>2019-03-19T21:01:24Z</time>
      </trkpt>
      <trkpt lat="46.01745" lon="6.3493">
        <ele>1670.43</ele>
        <time>2019-03-19T21:01:25Z</time>
      </trkpt>
      <trkpt lat="46.01745" lon="6.34933">
        <ele>1668.02</ele>
        <time>2019-03-19T21:01:26Z</time>
      </trkpt>
      <trkpt lat="46.01746" lon="6.34935">
        <ele>1666.58</ele>
        <time>2019-03-19T21:01:27Z</time>
      </trkpt>
      <trkpt lat="46.01746" lon="6.34938">
        <ele>1665.62</ele>
        <time>2019-03-19T21:01:28Z</time>
      </trkpt>
      <trkpt lat="46.01746" lon="6.34941">
        <ele>1665.14</ele>
        <time>2019-03-19T21:01:29Z</time>
      </trkpt>
      <trkpt lat="46.01745" lon="6.34941">
        <ele>1663.7</ele>
        <time>2019-03-19T21:01:30Z</time>
      </trkpt>
      <trkpt lat="46.01742" lon="6.34942">
        <ele>1661.3</ele>
        <time>2019-03-19T21:01:33Z</time>
      </trkpt>
      <trkpt lat="46.01741" lon="6.34942">
        <ele>1660.81</ele>
        <time>2019-03-19T21:01:34Z</time>
      </trkpt>
      <trkpt lat="46.01739" lon="6.34949">
        <ele>1658.89</ele>
        <time>2019-03-19T21:01:40Z</time>
      </trkpt>
      <trkpt lat="46.01735" lon="6.34953">
        <ele>1656.49</ele>
        <time>2019-03-19T21:01:43Z</time>
      </trkpt>
      <trkpt lat="46.01732" lon="6.34952">
        <ele>1656.01</ele>
        <time>2019-03-19T21:01:44Z</time>
      </trkpt>
      <trkpt lat="46.0173" lon="6.3495">
        <ele>1656.01</ele>
        <time>2019-03-19T21:01:45Z</time>
      </trkpt>
      <trkpt lat="46.01728" lon="6.34949">
        <ele>1655.05</ele>
        <time>2019-03-19T21:01:46Z</time>
      </trkpt>
      <trkpt lat="46.01726" lon="6.34947">
        <ele>1655.05</ele>
        <time>2019-03-19T21:01:47Z</time>
      </trkpt>
      <trkpt lat="46.01724" lon="6.34945">
        <ele>1655.05</ele>
        <time>2019-03-19T21:01:48Z</time>
      </trkpt>
      <trkpt lat="46.01722" lon="6.34943">
        <ele>1655.05</ele>
        <time>2019-03-19T21:01:51Z</time>
      </trkpt>
      <trkpt lat="46.01715" lon="6.3494">
        <ele>1652.64</ele>
        <time>2019-03-19T21:02:02Z</time>
      </trkpt>
      <trkpt lat="46.01713" lon="6.34938">
        <ele>1652.16</ele>
        <time>2019-03-19T21:02:09Z</time>
      </trkpt>
      <trkpt lat="46.01708" lon="6.34934">
        <ele>1651.68</ele>
        <time>2019-03-19T21:02:12Z</time>
      </trkpt>
      <trkpt lat="46.01706" lon="6.34933">
        <ele>1651.2</ele>
        <time>2019-03-19T21:02:13Z</time>
      </trkpt>
      <trkpt lat="46.01703" lon="6.34931">
        <ele>1651.2</ele>
        <time>2019-03-19T21:02:14Z</time>
      </trkpt>
      <trkpt lat="46.01701" lon="6.3493">
        <ele>1650.72</ele>
        <time>2019-03-19T21:02:15Z</time>
      </trkpt>
      <trkpt lat="46.01695" lon="6.34925">
        <ele>1650.24</ele>
        <time>2019-03-19T21:02:23Z</time>
      </trkpt>
      <trkpt lat="46.01694" lon="6.34924">
        <ele>1650.24</ele>
        <time>2019-03-19T21:02:24Z</time>
      </trkpt>
      <trkpt lat="46.01693" lon="6.34923">
        <ele>1649.28</ele>
        <time>2019-03-19T21:02:25Z</time>
      </trkpt>
      <trkpt lat="46.01692" lon="6.34923">
        <ele>1648.8</ele>
        <time>2019-03-19T21:02:26Z</time>
      </trkpt>
      <trkpt lat="46.01691" lon="6.34922">
        <ele>1648.8</ele>
        <time>2019-03-19T21:02:27Z</time>
      </trkpt>
      <trkpt lat="46.0169" lon="6.34922">
        <ele>1648.8</ele>
        <time>2019-03-19T21:02:28Z</time>
      </trkpt>
      <trkpt lat="46.01689" lon="6.34922">
        <ele>1648.32</ele>
        <time>2019-03-19T21:02:29Z</time>
      </trkpt>
      <trkpt lat="46.01688" lon="6.34923">
        <ele>1647.84</ele>
        <time>2019-03-19T21:02:30Z</time>
      </trkpt>
      <trkpt lat="46.01688" lon="6.34924">
        <ele>1646.4</ele>
        <time>2019-03-19T21:02:33Z</time>
      </trkpt>
      <trkpt lat="46.01689" lon="6.34931">
        <ele>1645.43</ele>
        <time>2019-03-19T21:03:02Z</time>
      </trkpt>
      <trkpt lat="46.0169" lon="6.34934">
        <ele>1645.43</ele>
        <time>2019-03-19T21:03:03Z</time>
      </trkpt>
      <trkpt lat="46.01689" lon="6.34937">
        <ele>1644.47</ele>
        <time>2019-03-19T21:03:04Z</time>
      </trkpt>
      <trkpt lat="46.01686" lon="6.34937">
        <ele>1643.51</ele>
        <time>2019-03-19T21:03:05Z</time>
      </trkpt>
      <trkpt lat="46.01683" lon="6.34937">
        <ele>1642.07</ele>
        <time>2019-03-19T21:03:06Z</time>
      </trkpt>
      <trkpt lat="46.01681" lon="6.34936">
        <ele>1641.11</ele>
        <time>2019-03-19T21:03:07Z</time>
      </trkpt>
      <trkpt lat="46.01679" lon="6.34937">
        <ele>1640.15</ele>
        <time>2019-03-19T21:03:08Z</time>
      </trkpt>
      <trkpt lat="46.01678" lon="6.34938">
        <ele>1639.19</ele>
        <time>2019-03-19T21:03:09Z</time>
      </trkpt>
      <trkpt lat="46.01678" lon="6.3494">
        <ele>1638.22</ele>
        <time>2019-03-19T21:03:10Z</time>
      </trkpt>
      <trkpt lat="46.01678" lon="6.3494">
        <ele>1637.26</ele>
        <time>2019-03-19T21:03:11Z</time>
      </trkpt>
      <trkpt lat="46.01678" lon="6.34951">
        <ele>1634.38</ele>
        <time>2019-03-19T21:03:25Z</time>
      </trkpt>
      <trkpt lat="46.01678" lon="6.34951">
        <ele>1634.38</ele>
        <time>2019-03-19T21:03:26Z</time>
      </trkpt>
      <trkpt lat="46.01677" lon="6.34951">
        <ele>1633.9</ele>
        <time>2019-03-19T21:03:27Z</time>
      </trkpt>
      <trkpt lat="46.01676" lon="6.34952">
        <ele>1633.42</ele>
        <time>2019-03-19T21:03:28Z</time>
      </trkpt>
      <trkpt lat="46.01675" lon="6.34952">
        <ele>1632.94</ele>
        <time>2019-03-19T21:03:29Z</time>
      </trkpt>
      <trkpt lat="46.01667" lon="6.34958">
        <ele>1631.01</ele>
        <time>2019-03-19T21:03:40Z</time>
      </trkpt>
      <trkpt lat="46.01657" lon="6.3496">
        <ele>1628.61</ele>
        <time>2019-03-19T21:03:42Z</time>
      </trkpt>
      <trkpt lat="46.01652" lon="6.34963">
        <ele>1626.69</ele>
        <time>2019-03-19T21:03:43Z</time>
      </trkpt>
      <trkpt lat="46.01648" lon="6.34967">
        <ele>1624.77</ele>
        <time>2019-03-19T21:03:44Z</time>
      </trkpt>
      <trkpt lat="46.01641" lon="6.34972">
        <ele>1621.88</ele>
        <time>2019-03-19T21:03:46Z</time>
      </trkpt>
      <trkpt lat="46.01637" lon="6.34974">
        <ele>1619.96</ele>
        <time>2019-03-19T21:03:48Z</time>
      </trkpt>
      <trkpt lat="46.01636" lon="6.34974">
        <ele>1619.48</ele>
        <time>2019-03-19T21:03:49Z</time>
      </trkpt>
      <trkpt lat="46.01634" lon="6.34981">
        <ele>1618.52</ele>
        <time>2019-03-19T21:04:25Z</time>
      </trkpt>
      <trkpt lat="46.01633" lon="6.34983">
        <ele>1618.04</ele>
        <time>2019-03-19T21:04:26Z</time>
      </trkpt>
      <trkpt lat="46.0163" lon="6.34983">
        <ele>1617.56</ele>
        <time>2019-03-19T21:04:27Z</time>
      </trkpt>
      <trkpt lat="46.01626" lon="6.34983">
        <ele>1616.59</ele>
        <time>2019-03-19T21:04:28Z</time>
      </trkpt>
      <trkpt lat="46.01621" lon="6.34982">
        <ele>1615.63</ele>
        <time>2019-03-19T21:04:29Z</time>
      </trkpt>
      <trkpt lat="46.01617" lon="6.34983">
        <ele>1615.15</ele>
        <time>2019-03-19T21:04:30Z</time>
      </trkpt>
      <trkpt lat="46.01611" lon="6.34984">
        <ele>1614.19</ele>
        <time>2019-03-19T21:04:31Z</time>
      </trkpt>
      <trkpt lat="46.01606" lon="6.34985">
        <ele>1613.71</ele>
        <time>2019-03-19T21:04:32Z</time>
      </trkpt>
      <trkpt lat="46.01601" lon="6.34988">
        <ele>1612.27</ele>
        <time>2019-03-19T21:04:33Z</time>
      </trkpt>
      <trkpt lat="46.01595" lon="6.34993">
        <ele>1611.31</ele>
        <time>2019-03-19T21:04:34Z</time>
      </trkpt>
      <trkpt lat="46.01592" lon="6.35001">
        <ele>1610.83</ele>
        <time>2019-03-19T21:04:35Z</time>
      </trkpt>
      <trkpt lat="46.01591" lon="6.35008">
        <ele>1610.35</ele>
        <time>2019-03-19T21:04:36Z</time>
      </trkpt>
      <trkpt lat="46.0159" lon="6.35016">
        <ele>1609.86</ele>
        <time>2019-03-19T21:04:37Z</time>
      </trkpt>
      <trkpt lat="46.01591" lon="6.35022">
        <ele>1610.83</ele>
        <time>2019-03-19T21:04:38Z</time>
      </trkpt>
      <trkpt lat="46.01591" lon="6.35029">
        <ele>1610.83</ele>
        <time>2019-03-19T21:04:39Z</time>
      </trkpt>
      <trkpt lat="46.01591" lon="6.35035">
        <ele>1610.83</ele>
        <time>2019-03-19T21:04:40Z</time>
      </trkpt>
      <trkpt lat="46.0159" lon="6.35046">
        <ele>1611.31</ele>
        <time>2019-03-19T21:04:42Z</time>
      </trkpt>
      <trkpt lat="46.01585" lon="6.35089">
        <ele>1610.83</ele>
        <time>2019-03-19T21:04:50Z</time>
      </trkpt>
      <trkpt lat="46.01585" lon="6.35091">
        <ele>1610.83</ele>
        <time>2019-03-19T21:04:51Z</time>
      </trkpt>
      <trkpt lat="46.01585" lon="6.35093">
        <ele>1610.83</ele>
        <time>2019-03-19T21:04:52Z</time>
      </trkpt>
      <trkpt lat="46.01584" lon="6.35095">
        <ele>1610.83</ele>
        <time>2019-03-19T21:04:53Z</time>
      </trkpt>
      <trkpt lat="46.01584" lon="6.35096">
        <ele>1610.83</ele>
        <time>2019-03-19T21:04:54Z</time>
      </trkpt>
      <trkpt lat="46.01583" lon="6.35101">
        <ele>1609.38</ele>
        <time>2019-03-19T21:05:57Z</time>
      </trkpt>
      <trkpt lat="46.01582" lon="6.35103">
        <ele>1609.38</ele>
        <time>2019-03-19T21:05:58Z</time>
      </trkpt>
      <trkpt lat="46.0158" lon="6.3512">
        <ele>1606.02</ele>
        <time>2019-03-19T21:06:00Z</time>
      </trkpt>
      <trkpt lat="46.01581" lon="6.3513">
        <ele>1603.62</ele>
        <time>2019-03-19T21:06:01Z</time>
      </trkpt>
      <trkpt lat="46.01582" lon="6.35139">
        <ele>1601.69</ele>
        <time>2019-03-19T21:06:02Z</time>
      </trkpt>
      <trkpt lat="46.01585" lon="6.35147">
        <ele>1599.77</ele>
        <time>2019-03-19T21:06:03Z</time>
      </trkpt>
      <trkpt lat="46.01588" lon="6.35151">
        <ele>1598.33</ele>
        <time>2019-03-19T21:06:04Z</time>
      </trkpt>
      <trkpt lat="46.01589" lon="6.35154">
        <ele>1597.37</ele>
        <time>2019-03-19T21:06:05Z</time>
      </trkpt>
      <trkpt lat="46.0159" lon="6.35157">
        <ele>1596.41</ele>
        <time>2019-03-19T21:06:06Z</time>
      </trkpt>
      <trkpt lat="46.0159" lon="6.3516">
        <ele>1595.93</ele>
        <time>2019-03-19T21:06:07Z</time>
      </trkpt>
      <trkpt lat="46.01592" lon="6.35164">
        <ele>1594.96</ele>
        <time>2019-03-19T21:06:08Z</time>
      </trkpt>
      <trkpt lat="46.01595" lon="6.35168">
        <ele>1594.48</ele>
        <time>2019-03-19T21:06:09Z</time>
      </trkpt>
      <trkpt lat="46.01599" lon="6.35172">
        <ele>1593.52</ele>
        <time>2019-03-19T21:06:10Z</time>
      </trkpt>
      <trkpt lat="46.01603" lon="6.35176">
        <ele>1592.56</ele>
        <time>2019-03-19T21:06:11Z</time>
      </trkpt>
      <trkpt lat="46.01605" lon="6.35182">
        <ele>1591.6</ele>
        <time>2019-03-19T21:06:12Z</time>
      </trkpt>
      <trkpt lat="46.01607" lon="6.35188">
        <ele>1590.64</ele>
        <time>2019-03-19T21:06:13Z</time>
      </trkpt>
      <trkpt lat="46.01611" lon="6.35193">
        <ele>1589.2</ele>
        <time>2019-03-19T21:06:14Z</time>
      </trkpt>
      <trkpt lat="46.01614" lon="6.35197">
        <ele>1587.75</ele>
        <time>2019-03-19T21:06:15Z</time>
      </trkpt>
      <trkpt lat="46.01617" lon="6.35203">
        <ele>1586.79</ele>
        <time>2019-03-19T21:06:16Z</time>
      </trkpt>
      <trkpt lat="46.0162" lon="6.35208">
        <ele>1584.87</ele>
        <time>2019-03-19T21:06:17Z</time>
      </trkpt>
      <trkpt lat="46.01624" lon="6.35213">
        <ele>1583.43</ele>
        <time>2019-03-19T21:06:18Z</time>
      </trkpt>
      <trkpt lat="46.01627" lon="6.35218">
        <ele>1581.99</ele>
        <time>2019-03-19T21:06:19Z</time>
      </trkpt>
      <trkpt lat="46.0163" lon="6.35222">
        <ele>1579.1</ele>
        <time>2019-03-19T21:06:20Z</time>
      </trkpt>
      <trkpt lat="46.01633" lon="6.35226">
        <ele>1577.66</ele>
        <time>2019-03-19T21:06:21Z</time>
      </trkpt>
      <trkpt lat="46.01637" lon="6.35234">
        <ele>1575.26</ele>
        <time>2019-03-19T21:06:23Z</time>
      </trkpt>
      <trkpt lat="46.01638" lon="6.35239">
        <ele>1573.82</ele>
        <time>2019-03-19T21:06:24Z</time>
      </trkpt>
      <trkpt lat="46.0164" lon="6.35245">
        <ele>1572.37</ele>
        <time>2019-03-19T21:06:25Z</time>
      </trkpt>
      <trkpt lat="46.01643" lon="6.35254">
        <ele>1569.97</ele>
        <time>2019-03-19T21:06:26Z</time>
      </trkpt>
      <trkpt lat="46.01645" lon="6.35263">
        <ele>1568.05</ele>
        <time>2019-03-19T21:06:27Z</time>
      </trkpt>
      <trkpt lat="46.01648" lon="6.35271">
        <ele>1565.64</ele>
        <time>2019-03-19T21:06:28Z</time>
      </trkpt>
      <trkpt lat="46.0165" lon="6.35281">
        <ele>1564.2</ele>
        <time>2019-03-19T21:06:29Z</time>
      </trkpt>
      <trkpt lat="46.01652" lon="6.35292">
        <ele>1559.88</ele>
        <time>2019-03-19T21:06:30Z</time>
      </trkpt>
      <trkpt lat="46.01655" lon="6.35302">
        <ele>1557.47</ele>
        <time>2019-03-19T21:06:31Z</time>
      </trkpt>
      <trkpt lat="46.01658" lon="6.35314">
        <ele>1555.07</ele>
        <time>2019-03-19T21:06:32Z</time>
      </trkpt>
      <trkpt lat="46.01663" lon="6.35325">
        <ele>1551.71</ele>
        <time>2019-03-19T21:06:33Z</time>
      </trkpt>
      <trkpt lat="46.01667" lon="6.35336">
        <ele>1548.82</ele>
        <time>2019-03-19T21:06:34Z</time>
      </trkpt>
      <trkpt lat="46.01669" lon="6.35347">
        <ele>1545.46</ele>
        <time>2019-03-19T21:06:35Z</time>
      </trkpt>
      <trkpt lat="46.01671" lon="6.35357">
        <ele>1544.01</ele>
        <time>2019-03-19T21:06:36Z</time>
      </trkpt>
      <trkpt lat="46.01678" lon="6.35379">
        <ele>1538.73</ele>
        <time>2019-03-19T21:06:38Z</time>
      </trkpt>
      <trkpt lat="46.01688" lon="6.35402">
        <ele>1532.96</ele>
        <time>2019-03-19T21:06:40Z</time>
      </trkpt>
      <trkpt lat="46.01694" lon="6.35413">
        <ele>1529.59</ele>
        <time>2019-03-19T21:06:41Z</time>
      </trkpt>
      <trkpt lat="46.01699" lon="6.35426">
        <ele>1526.23</ele>
        <time>2019-03-19T21:06:42Z</time>
      </trkpt>
      <trkpt lat="46.01705" lon="6.35437">
        <ele>1522.87</ele>
        <time>2019-03-19T21:06:43Z</time>
      </trkpt>
      <trkpt lat="46.01716" lon="6.35457">
        <ele>1519.02</ele>
        <time>2019-03-19T21:06:45Z</time>
      </trkpt>
      <trkpt lat="46.01719" lon="6.35466">
        <ele>1517.58</ele>
        <time>2019-03-19T21:06:46Z</time>
      </trkpt>
      <trkpt lat="46.0172" lon="6.35475">
        <ele>1516.14</ele>
        <time>2019-03-19T21:06:47Z</time>
      </trkpt>
      <trkpt lat="46.0172" lon="6.35483">
        <ele>1514.69</ele>
        <time>2019-03-19T21:06:48Z</time>
      </trkpt>
      <trkpt lat="46.01722" lon="6.3549">
        <ele>1513.73</ele>
        <time>2019-03-19T21:06:49Z</time>
      </trkpt>
      <trkpt lat="46.01723" lon="6.35498">
        <ele>1512.77</ele>
        <time>2019-03-19T21:06:50Z</time>
      </trkpt>
      <trkpt lat="46.01725" lon="6.35505">
        <ele>1511.81</ele>
        <time>2019-03-19T21:06:51Z</time>
      </trkpt>
      <trkpt lat="46.01727" lon="6.35513">
        <ele>1510.37</ele>
        <time>2019-03-19T21:06:52Z</time>
      </trkpt>
      <trkpt lat="46.01729" lon="6.35522">
        <ele>1507.97</ele>
        <time>2019-03-19T21:06:53Z</time>
      </trkpt>
      <trkpt lat="46.01732" lon="6.35531">
        <ele>1505.56</ele>
        <time>2019-03-19T21:06:54Z</time>
      </trkpt>
      <trkpt lat="46.01733" lon="6.35541">
        <ele>1503.64</ele>
        <time>2019-03-19T21:06:55Z</time>
      </trkpt>
      <trkpt lat="46.01735" lon="6.35551">
        <ele>1499.79</ele>
        <time>2019-03-19T21:06:56Z</time>
      </trkpt>
      <trkpt lat="46.01737" lon="6.3556">
        <ele>1495.47</ele>
        <time>2019-03-19T21:06:57Z</time>
      </trkpt>
      <trkpt lat="46.01739" lon="6.35569">
        <ele>1492.58</ele>
        <time>2019-03-19T21:06:58Z</time>
      </trkpt>
      <trkpt lat="46.01741" lon="6.35579">
        <ele>1490.18</ele>
        <time>2019-03-19T21:06:59Z</time>
      </trkpt>
      <trkpt lat="46.01742" lon="6.3559">
        <ele>1487.3</ele>
        <time>2019-03-19T21:07:00Z</time>
      </trkpt>
      <trkpt lat="46.01744" lon="6.35601">
        <ele>1484.41</ele>
        <time>2019-03-19T21:07:01Z</time>
      </trkpt>
      <trkpt lat="46.01746" lon="6.35612">
        <ele>1482.49</ele>
        <time>2019-03-19T21:07:02Z</time>
      </trkpt>
      <trkpt lat="46.01748" lon="6.35622">
        <ele>1478.16</ele>
        <time>2019-03-19T21:07:03Z</time>
      </trkpt>
      <trkpt lat="46.01751" lon="6.35632">
        <ele>1475.28</ele>
        <time>2019-03-19T21:07:04Z</time>
      </trkpt>
      <trkpt lat="46.01753" lon="6.35641">
        <ele>1472.4</ele>
        <time>2019-03-19T21:07:05Z</time>
      </trkpt>
      <trkpt lat="46.01754" lon="6.35652">
        <ele>1469.51</ele>
        <time>2019-03-19T21:07:06Z</time>
      </trkpt>
      <trkpt lat="46.01756" lon="6.35664">
        <ele>1466.63</ele>
        <time>2019-03-19T21:07:07Z</time>
      </trkpt>
      <trkpt lat="46.01759" lon="6.35675">
        <ele>1465.19</ele>
        <time>2019-03-19T21:07:08Z</time>
      </trkpt>
      <trkpt lat="46.01762" lon="6.35685">
        <ele>1460.86</ele>
        <time>2019-03-19T21:07:09Z</time>
      </trkpt>
      <trkpt lat="46.01767" lon="6.35704">
        <ele>1457.02</ele>
        <time>2019-03-19T21:07:11Z</time>
      </trkpt>
      <trkpt lat="46.01771" lon="6.35712">
        <ele>1455.09</ele>
        <time>2019-03-19T21:07:12Z</time>
      </trkpt>
      <trkpt lat="46.01774" lon="6.35719">
        <ele>1453.17</ele>
        <time>2019-03-19T21:07:13Z</time>
      </trkpt>
      <trkpt lat="46.01776" lon="6.35727">
        <ele>1450.77</ele>
        <time>2019-03-19T21:07:14Z</time>
      </trkpt>
      <trkpt lat="46.01777" lon="6.35735">
        <ele>1448.84</ele>
        <time>2019-03-19T21:07:15Z</time>
      </trkpt>
      <trkpt lat="46.01778" lon="6.35744">
        <ele>1447.88</ele>
        <time>2019-03-19T21:07:16Z</time>
      </trkpt>
      <trkpt lat="46.0178" lon="6.3575">
        <ele>1445.96</ele>
        <time>2019-03-19T21:07:17Z</time>
      </trkpt>
      <trkpt lat="46.01779" lon="6.35761">
        <ele>1441.15</ele>
        <time>2019-03-19T21:07:19Z</time>
      </trkpt>
      <trkpt lat="46.01779" lon="6.35766">
        <ele>1439.71</ele>
        <time>2019-03-19T21:07:20Z</time>
      </trkpt>
      <trkpt lat="46.01778" lon="6.35769">
        <ele>1438.75</ele>
        <time>2019-03-19T21:07:21Z</time>
      </trkpt>
      <trkpt lat="46.01777" lon="6.35769">
        <ele>1437.79</ele>
        <time>2019-03-19T21:07:22Z</time>
      </trkpt>
      <trkpt lat="46.01778" lon="6.35769">
        <ele>1436.83</ele>
        <time>2019-03-19T21:07:24Z</time>
      </trkpt>
      <trkpt lat="46.0178" lon="6.35768">
        <ele>1435.87</ele>
        <time>2019-03-19T21:09:33Z</time>
      </trkpt>
      <trkpt lat="46.01782" lon="6.35771">
        <ele>1435.39</ele>
        <time>2019-03-19T21:09:34Z</time>
      </trkpt>
      <trkpt lat="46.01783" lon="6.35776">
        <ele>1434.42</ele>
        <time>2019-03-19T21:09:35Z</time>
      </trkpt>
      <trkpt lat="46.01785" lon="6.3578">
        <ele>1433.46</ele>
        <time>2019-03-19T21:09:36Z</time>
      </trkpt>
      <trkpt lat="46.01787" lon="6.35786">
        <ele>1432.98</ele>
        <time>2019-03-19T21:09:37Z</time>
      </trkpt>
      <trkpt lat="46.0179" lon="6.35792">
        <ele>1431.54</ele>
        <time>2019-03-19T21:09:38Z</time>
      </trkpt>
      <trkpt lat="46.01792" lon="6.35796">
        <ele>1430.58</ele>
        <time>2019-03-19T21:09:39Z</time>
      </trkpt>
      <trkpt lat="46.01795" lon="6.358">
        <ele>1429.62</ele>
        <time>2019-03-19T21:09:40Z</time>
      </trkpt>
      <trkpt lat="46.01797" lon="6.35804">
        <ele>1429.14</ele>
        <time>2019-03-19T21:09:41Z</time>
      </trkpt>
      <trkpt lat="46.018" lon="6.3581">
        <ele>1428.66</ele>
        <time>2019-03-19T21:09:42Z</time>
      </trkpt>
      <trkpt lat="46.01799" lon="6.35815">
        <ele>1427.7</ele>
        <time>2019-03-19T21:09:43Z</time>
      </trkpt>
      <trkpt lat="46.01798" lon="6.35819">
        <ele>1426.25</ele>
        <time>2019-03-19T21:09:44Z</time>
      </trkpt>
      <trkpt lat="46.01795" lon="6.35822">
        <ele>1425.29</ele>
        <time>2019-03-19T21:09:45Z</time>
      </trkpt>
      <trkpt lat="46.01794" lon="6.35827">
        <ele>1423.37</ele>
        <time>2019-03-19T21:09:46Z</time>
      </trkpt>
      <trkpt lat="46.01791" lon="6.35831">
        <ele>1421.93</ele>
        <time>2019-03-19T21:09:47Z</time>
      </trkpt>
      <trkpt lat="46.01789" lon="6.35837">
        <ele>1420</ele>
        <time>2019-03-19T21:09:48Z</time>
      </trkpt>
      <trkpt lat="46.01789" lon="6.35845">
        <ele>1417.6</ele>
        <time>2019-03-19T21:09:49Z</time>
      </trkpt>
      <trkpt lat="46.01787" lon="6.35852">
        <ele>1415.2</ele>
        <time>2019-03-19T21:09:50Z</time>
      </trkpt>
      <trkpt lat="46.01782" lon="6.35858">
        <ele>1412.79</ele>
        <time>2019-03-19T21:09:51Z</time>
      </trkpt>
      <trkpt lat="46.01777" lon="6.35865">
        <ele>1409.91</ele>
        <time>2019-03-19T21:09:52Z</time>
      </trkpt>
      <trkpt lat="46.01772" lon="6.35871">
        <ele>1407.03</ele>
        <time>2019-03-19T21:09:53Z</time>
      </trkpt>
      <trkpt lat="46.01765" lon="6.35872">
        <ele>1405.58</ele>
        <time>2019-03-19T21:09:54Z</time>
      </trkpt>
      <trkpt lat="46.01758" lon="6.35871">
        <ele>1402.7</ele>
        <time>2019-03-19T21:09:55Z</time>
      </trkpt>
      <trkpt lat="46.01752" lon="6.35869">
        <ele>1400.78</ele>
        <time>2019-03-19T21:09:56Z</time>
      </trkpt>
      <trkpt lat="46.01746" lon="6.35869">
        <ele>1400.3</ele>
        <time>2019-03-19T21:09:57Z</time>
      </trkpt>
      <trkpt lat="46.01729" lon="6.35872">
        <ele>1396.93</ele>
        <time>2019-03-19T21:10:00Z</time>
      </trkpt>
      <trkpt lat="46.01723" lon="6.35875">
        <ele>1395.97</ele>
        <time>2019-03-19T21:10:01Z</time>
      </trkpt>
      <trkpt lat="46.01719" lon="6.35879">
        <ele>1395.97</ele>
        <time>2019-03-19T21:10:02Z</time>
      </trkpt>
      <trkpt lat="46.01716" lon="6.35882">
        <ele>1396.45</ele>
        <time>2019-03-19T21:10:03Z</time>
      </trkpt>
      <trkpt lat="46.01716" lon="6.35886">
        <ele>1395.01</ele>
        <time>2019-03-19T21:10:06Z</time>
      </trkpt>
      <trkpt lat="46.01718" lon="6.35888">
        <ele>1395.49</ele>
        <time>2019-03-19T21:10:09Z</time>
      </trkpt>
      <trkpt lat="46.01719" lon="6.3589">
        <ele>1395.49</ele>
        <time>2019-03-19T21:10:10Z</time>
      </trkpt>
      <trkpt lat="46.0172" lon="6.35891">
        <ele>1395.49</ele>
        <time>2019-03-19T21:10:11Z</time>
      </trkpt>
      <trkpt lat="46.01738" lon="6.35933">
        <ele>1393.57</ele>
        <time>2019-03-19T21:10:21Z</time>
      </trkpt>
      <trkpt lat="46.0174" lon="6.35942">
        <ele>1392.13</ele>
        <time>2019-03-19T21:10:22Z</time>
      </trkpt>
      <trkpt lat="46.01742" lon="6.35952">
        <ele>1390.68</ele>
        <time>2019-03-19T21:10:23Z</time>
      </trkpt>
      <trkpt lat="46.01745" lon="6.35972">
        <ele>1388.76</ele>
        <time>2019-03-19T21:10:25Z</time>
      </trkpt>
      <trkpt lat="46.01749" lon="6.35981">
        <ele>1388.28</ele>
        <time>2019-03-19T21:10:26Z</time>
      </trkpt>
      <trkpt lat="46.01754" lon="6.3599">
        <ele>1387.8</ele>
        <time>2019-03-19T21:10:27Z</time>
      </trkpt>
      <trkpt lat="46.01765" lon="6.36006">
        <ele>1386.84</ele>
        <time>2019-03-19T21:10:29Z</time>
      </trkpt>
      <trkpt lat="46.01792" lon="6.36044">
        <ele>1383.47</ele>
        <time>2019-03-19T21:10:34Z</time>
      </trkpt>
      <trkpt lat="46.01796" lon="6.36053">
        <ele>1382.99</ele>
        <time>2019-03-19T21:10:35Z</time>
      </trkpt>
      <trkpt lat="46.018" lon="6.36062">
        <ele>1382.51</ele>
        <time>2019-03-19T21:10:36Z</time>
      </trkpt>
      <trkpt lat="46.0181" lon="6.36091">
        <ele>1380.59</ele>
        <time>2019-03-19T21:10:39Z</time>
      </trkpt>
      <trkpt lat="46.01814" lon="6.36099">
        <ele>1380.59</ele>
        <time>2019-03-19T21:10:40Z</time>
      </trkpt>
      <trkpt lat="46.01819" lon="6.36106">
        <ele>1380.59</ele>
        <time>2019-03-19T21:10:41Z</time>
      </trkpt>
      <trkpt lat="46.01824" lon="6.36112">
        <ele>1380.59</ele>
        <time>2019-03-19T21:10:42Z</time>
      </trkpt>
      <trkpt lat="46.01829" lon="6.36117">
        <ele>1380.59</ele>
        <time>2019-03-19T21:10:43Z</time>
      </trkpt>
      <trkpt lat="46.01836" lon="6.36122">
        <ele>1379.63</ele>
        <time>2019-03-19T21:10:44Z</time>
      </trkpt>
      <trkpt lat="46.01841" lon="6.36127">
        <ele>1379.15</ele>
        <time>2019-03-19T21:10:45Z</time>
      </trkpt>
      <trkpt lat="46.01871" lon="6.36149">
        <ele>1379.63</ele>
        <time>2019-03-19T21:10:54Z</time>
      </trkpt>
      <trkpt lat="46.01872" lon="6.36149">
        <ele>1379.63</ele>
        <time>2019-03-19T21:10:55Z</time>
      </trkpt>
      <trkpt lat="46.01875" lon="6.36148">
        <ele>1379.63</ele>
        <time>2019-03-19T21:10:57Z</time>
      </trkpt>
      <trkpt lat="46.01877" lon="6.36148">
        <ele>1379.63</ele>
        <time>2019-03-19T21:10:58Z</time>
      </trkpt>
      <trkpt lat="46.01878" lon="6.36149">
        <ele>1379.63</ele>
        <time>2019-03-19T21:10:59Z</time>
      </trkpt>
      <trkpt lat="46.01883" lon="6.36153">
        <ele>1380.11</ele>
        <time>2019-03-19T21:11:36Z</time>
      </trkpt>
      <trkpt lat="46.01884" lon="6.36155">
        <ele>1380.11</ele>
        <time>2019-03-19T21:11:37Z</time>
      </trkpt>
      <trkpt lat="46.01886" lon="6.36158">
        <ele>1379.63</ele>
        <time>2019-03-19T21:11:38Z</time>
      </trkpt>
      <trkpt lat="46.01887" lon="6.36161">
        <ele>1379.63</ele>
        <time>2019-03-19T21:11:39Z</time>
      </trkpt>
      <trkpt lat="46.01889" lon="6.36166">
        <ele>1379.15</ele>
        <time>2019-03-19T21:11:40Z</time>
      </trkpt>
      <trkpt lat="46.01891" lon="6.36172">
        <ele>1378.19</ele>
        <time>2019-03-19T21:11:41Z</time>
      </trkpt>
      <trkpt lat="46.01902" lon="6.36198">
        <ele>1374.82</ele>
        <time>2019-03-19T21:11:47Z</time>
      </trkpt>
      <trkpt lat="46.01908" lon="6.36206">
        <ele>1372.9</ele>
        <time>2019-03-19T21:11:51Z</time>
      </trkpt>
      <trkpt lat="46.01909" lon="6.36207">
        <ele>1372.42</ele>
        <time>2019-03-19T21:11:52Z</time>
      </trkpt>
      <trkpt lat="46.0191" lon="6.36209">
        <ele>1372.42</ele>
        <time>2019-03-19T21:11:53Z</time>
      </trkpt>
      <trkpt lat="46.0191" lon="6.36212">
        <ele>1371.94</ele>
        <time>2019-03-19T21:11:54Z</time>
      </trkpt>
      <trkpt lat="46.01912" lon="6.36214">
        <ele>1371.46</ele>
        <time>2019-03-19T21:11:55Z</time>
      </trkpt>
      <trkpt lat="46.01914" lon="6.36217">
        <ele>1370.98</ele>
        <time>2019-03-19T21:11:56Z</time>
      </trkpt>
      <trkpt lat="46.01916" lon="6.36219">
        <ele>1370.5</ele>
        <time>2019-03-19T21:11:57Z</time>
      </trkpt>
      <trkpt lat="46.01918" lon="6.36223">
        <ele>1370.02</ele>
        <time>2019-03-19T21:11:58Z</time>
      </trkpt>
      <trkpt lat="46.01921" lon="6.36225">
        <ele>1370.02</ele>
        <time>2019-03-19T21:11:59Z</time>
      </trkpt>
      <trkpt lat="46.01932" lon="6.36236">
        <ele>1366.65</ele>
        <time>2019-03-19T21:13:12Z</time>
      </trkpt>
      <trkpt lat="46.01936" lon="6.36253">
        <ele>1363.77</ele>
        <time>2019-03-19T21:13:37Z</time>
      </trkpt>
      <trkpt lat="46.01946" lon="6.36275">
        <ele>1360.4</ele>
        <time>2019-03-19T21:14:41Z</time>
      </trkpt>
      <trkpt lat="46.01953" lon="6.36288">
        <ele>1358.48</ele>
        <time>2019-03-19T21:15:10Z</time>
      </trkpt>
      <trkpt lat="46.01955" lon="6.36289">
        <ele>1358</ele>
        <time>2019-03-19T21:15:13Z</time>
      </trkpt>
      <trkpt lat="46.01959" lon="6.36305">
        <ele>1355.12</ele>
        <time>2019-03-19T21:15:42Z</time>
      </trkpt>
      <trkpt lat="46.01962" lon="6.36311">
        <ele>1355.12</ele>
        <time>2019-03-19T21:16:07Z</time>
      </trkpt>
      <trkpt lat="46.01964" lon="6.36319">
        <ele>1353.19</ele>
        <time>2019-03-19T21:16:19Z</time>
      </trkpt>
      <trkpt lat="46.01964" lon="6.36332">
        <ele>1350.79</ele>
        <time>2019-03-19T21:16:36Z</time>
      </trkpt>
      <trkpt lat="46.01967" lon="6.36341">
        <ele>1348.87</ele>
        <time>2019-03-19T21:16:51Z</time>
      </trkpt>
      <trkpt lat="46.01969" lon="6.36347">
        <ele>1348.39</ele>
        <time>2019-03-19T21:16:57Z</time>
      </trkpt>
      <trkpt lat="46.0197" lon="6.36347">
        <ele>1347.91</ele>
        <time>2019-03-19T21:16:58Z</time>
      </trkpt>
      <trkpt lat="46.0197" lon="6.36348">
        <ele>1347.43</ele>
        <time>2019-03-19T21:16:59Z</time>
      </trkpt>
      <trkpt lat="46.0197" lon="6.3635">
        <ele>1347.43</ele>
        <time>2019-03-19T21:17:00Z</time>
      </trkpt>
      <trkpt lat="46.01971" lon="6.36351">
        <ele>1347.43</ele>
        <time>2019-03-19T21:17:01Z</time>
      </trkpt>
      <trkpt lat="46.01971" lon="6.36353">
        <ele>1346.94</ele>
        <time>2019-03-19T21:17:02Z</time>
      </trkpt>
      <trkpt lat="46.01972" lon="6.36354">
        <ele>1346.94</ele>
        <time>2019-03-19T21:17:03Z</time>
      </trkpt>
      <trkpt lat="46.01982" lon="6.36367">
        <ele>1345.02</ele>
        <time>2019-03-19T21:17:12Z</time>
      </trkpt>
      <trkpt lat="46.01985" lon="6.36366">
        <ele>1344.54</ele>
        <time>2019-03-19T21:17:16Z</time>
      </trkpt>
      <trkpt lat="46.0199" lon="6.36365">
        <ele>1343.1</ele>
        <time>2019-03-19T21:17:22Z</time>
      </trkpt>
      <trkpt lat="46.01993" lon="6.36363">
        <ele>1342.62</ele>
        <time>2019-03-19T21:17:35Z</time>
      </trkpt>
      <trkpt lat="46.01994" lon="6.36363">
        <ele>1342.62</ele>
        <time>2019-03-19T21:17:36Z</time>
      </trkpt>
      <trkpt lat="46.01997" lon="6.36363">
        <ele>1342.62</ele>
        <time>2019-03-19T21:17:40Z</time>
      </trkpt>
      <trkpt lat="46.01998" lon="6.36363">
        <ele>1342.62</ele>
        <time>2019-03-19T21:17:42Z</time>
      </trkpt>
      <trkpt lat="46.01997" lon="6.36363">
        <ele>1342.14</ele>
        <time>2019-03-19T21:18:14Z</time>
      </trkpt>
      <trkpt lat="46.02" lon="6.36361">
        <ele>1342.62</ele>
        <time>2019-03-19T21:18:24Z</time>
      </trkpt>
      <trkpt lat="46.01998" lon="6.36366">
        <ele>1342.14</ele>
        <time>2019-03-19T21:19:05Z</time>
      </trkpt>
      <trkpt lat="46.01998" lon="6.36368">
        <ele>1342.62</ele>
        <time>2019-03-19T21:19:09Z</time>
      </trkpt>
      <trkpt lat="46.02" lon="6.36365">
        <ele>1342.62</ele>
        <time>2019-03-19T21:19:20Z</time>
      </trkpt>
      <trkpt lat="46.02002" lon="6.36364">
        <ele>1342.14</ele>
        <time>2019-03-19T21:19:22Z</time>
      </trkpt>
      <trkpt lat="46.02003" lon="6.36363">
        <ele>1342.14</ele>
        <time>2019-03-19T21:19:24Z</time>
      </trkpt>
      <trkpt lat="46.02001" lon="6.36358">
        <ele>1341.66</ele>
        <time>2019-03-19T21:20:30Z</time>
      </trkpt>
      <trkpt lat="46.02" lon="6.36359">
        <ele>1341.66</ele>
        <time>2019-03-19T21:20:31Z</time>
      </trkpt>
      <trkpt lat="46.01998" lon="6.3636">
        <ele>1341.66</ele>
        <time>2019-03-19T21:20:33Z</time>
      </trkpt>
      <trkpt lat="46.01993" lon="6.36362">
        <ele>1341.66</ele>
        <time>2019-03-19T21:20:57Z</time>
      </trkpt>
      <trkpt lat="46.01995" lon="6.36363">
        <ele>1341.66</ele>
        <time>2019-03-19T21:21:00Z</time>
      </trkpt>
      <trkpt lat="46.02" lon="6.36362">
        <ele>1341.66</ele>
        <time>2019-03-19T21:21:10Z</time>
      </trkpt>
      <trkpt lat="46.01999" lon="6.36362">
        <ele>1341.66</ele>
        <time>2019-03-19T21:21:35Z</time>
      </trkpt>
      <trkpt lat="46.01998" lon="6.36362">
        <ele>1341.18</ele>
        <time>2019-03-19T21:21:58Z</time>
      </trkpt>
      <trkpt lat="46.02" lon="6.3636">
        <ele>1342.62</ele>
        <time>2019-03-19T21:22:07Z</time>
      </trkpt>
      <trkpt lat="46.02001" lon="6.36356">
        <ele>1342.14</ele>
        <time>2019-03-19T21:22:08Z</time>
      </trkpt>
      <trkpt lat="46.02002" lon="6.36354">
        <ele>1341.66</ele>
        <time>2019-03-19T21:22:09Z</time>
      </trkpt>
      <trkpt lat="46.02003" lon="6.36352">
        <ele>1341.18</ele>
        <time>2019-03-19T21:22:10Z</time>
      </trkpt>
      <trkpt lat="46.02003" lon="6.3635">
        <ele>1340.7</ele>
        <time>2019-03-19T21:22:11Z</time>
      </trkpt>
      <trkpt lat="46.02004" lon="6.36346">
        <ele>1340.22</ele>
        <time>2019-03-19T21:22:12Z</time>
      </trkpt>
      <trkpt lat="46.02004" lon="6.36342">
        <ele>1339.73</ele>
        <time>2019-03-19T21:22:13Z</time>
      </trkpt>
      <trkpt lat="46.02005" lon="6.36338">
        <ele>1338.77</ele>
        <time>2019-03-19T21:22:14Z</time>
      </trkpt>
      <trkpt lat="46.02006" lon="6.36334">
        <ele>1338.77</ele>
        <time>2019-03-19T21:22:15Z</time>
      </trkpt>
      <trkpt lat="46.02009" lon="6.3633">
        <ele>1337.81</ele>
        <time>2019-03-19T21:22:16Z</time>
      </trkpt>
      <trkpt lat="46.02011" lon="6.36326">
        <ele>1336.37</ele>
        <time>2019-03-19T21:22:17Z</time>
      </trkpt>
      <trkpt lat="46.02013" lon="6.36325">
        <ele>1335.41</ele>
        <time>2019-03-19T21:22:18Z</time>
      </trkpt>
      <trkpt lat="46.02015" lon="6.36326">
        <ele>1333.97</ele>
        <time>2019-03-19T21:22:19Z</time>
      </trkpt>
      <trkpt lat="46.02017" lon="6.36328">
        <ele>1333.97</ele>
        <time>2019-03-19T21:22:20Z</time>
      </trkpt>
      <trkpt lat="46.02019" lon="6.36329">
        <ele>1333.49</ele>
        <time>2019-03-19T21:22:21Z</time>
      </trkpt>
      <trkpt lat="46.02025" lon="6.36337">
        <ele>1332.04</ele>
        <time>2019-03-19T21:22:26Z</time>
      </trkpt>
      <trkpt lat="46.02025" lon="6.36339">
        <ele>1331.56</ele>
        <time>2019-03-19T21:22:27Z</time>
      </trkpt>
      <trkpt lat="46.02026" lon="6.3634">
        <ele>1331.56</ele>
        <time>2019-03-19T21:22:28Z</time>
      </trkpt>
      <trkpt lat="46.02027" lon="6.36342">
        <ele>1331.56</ele>
        <time>2019-03-19T21:22:29Z</time>
      </trkpt>
      <trkpt lat="46.02028" lon="6.36344">
        <ele>1331.08</ele>
        <time>2019-03-19T21:22:30Z</time>
      </trkpt>
      <trkpt lat="46.02029" lon="6.36345">
        <ele>1330.6</ele>
        <time>2019-03-19T21:22:31Z</time>
      </trkpt>
      <trkpt lat="46.02034" lon="6.3635">
        <ele>1329.64</ele>
        <time>2019-03-19T21:22:34Z</time>
      </trkpt>
      <trkpt lat="46.02034" lon="6.36351">
        <ele>1329.16</ele>
        <time>2019-03-19T21:22:42Z</time>
      </trkpt>
      <trkpt lat="46.02035" lon="6.36352">
        <ele>1329.16</ele>
        <time>2019-03-19T21:22:43Z</time>
      </trkpt>
      <trkpt lat="46.02035" lon="6.36354">
        <ele>1329.16</ele>
        <time>2019-03-19T21:22:44Z</time>
      </trkpt>
      <trkpt lat="46.02035" lon="6.36355">
        <ele>1329.16</ele>
        <time>2019-03-19T21:22:45Z</time>
      </trkpt>
      <trkpt lat="46.02035" lon="6.36357">
        <ele>1329.16</ele>
        <time>2019-03-19T21:22:46Z</time>
      </trkpt>
      <trkpt lat="46.02036" lon="6.36358">
        <ele>1328.68</ele>
        <time>2019-03-19T21:22:47Z</time>
      </trkpt>
      <trkpt lat="46.02041" lon="6.36369">
        <ele>1327.72</ele>
        <time>2019-03-19T21:23:27Z</time>
      </trkpt>
      <trkpt lat="46.02041" lon="6.36371">
        <ele>1327.72</ele>
        <time>2019-03-19T21:23:28Z</time>
      </trkpt>
      <trkpt lat="46.02041" lon="6.36381">
        <ele>1324.83</ele>
        <time>2019-03-19T21:23:51Z</time>
      </trkpt>
      <trkpt lat="46.0204" lon="6.36385">
        <ele>1325.31</ele>
        <time>2019-03-19T21:24:05Z</time>
      </trkpt>
      <trkpt lat="46.02043" lon="6.36404">
        <ele>1322.43</ele>
        <time>2019-03-19T21:24:27Z</time>
      </trkpt>
      <trkpt lat="46.02044" lon="6.36406">
        <ele>1322.43</ele>
        <time>2019-03-19T21:24:28Z</time>
      </trkpt>
      <trkpt lat="46.02043" lon="6.36408">
        <ele>1322.43</ele>
        <time>2019-03-19T21:24:29Z</time>
      </trkpt>
      <trkpt lat="46.02047" lon="6.36424">
        <ele>1319.07</ele>
        <time>2019-03-19T21:24:44Z</time>
      </trkpt>
      <trkpt lat="46.02047" lon="6.3643">
        <ele>1318.1</ele>
        <time>2019-03-19T21:25:14Z</time>
      </trkpt>
      <trkpt lat="46.02049" lon="6.36431">
        <ele>1318.1</ele>
        <time>2019-03-19T21:25:17Z</time>
      </trkpt>
      <trkpt lat="46.02055" lon="6.36449">
        <ele>1315.22</ele>
        <time>2019-03-19T21:25:37Z</time>
      </trkpt>
      <trkpt lat="46.02056" lon="6.36451">
        <ele>1314.74</ele>
        <time>2019-03-19T21:25:39Z</time>
      </trkpt>
      <trkpt lat="46.0206" lon="6.36476">
        <ele>1311.38</ele>
        <time>2019-03-19T21:26:01Z</time>
      </trkpt>
      <trkpt lat="46.02061" lon="6.36495">
        <ele>1308.49</ele>
        <time>2019-03-19T21:26:16Z</time>
      </trkpt>
      <trkpt lat="46.02062" lon="6.36516">
        <ele>1305.61</ele>
        <time>2019-03-19T21:26:42Z</time>
      </trkpt>
      <trkpt lat="46.02061" lon="6.3652">
        <ele>1305.13</ele>
        <time>2019-03-19T21:26:47Z</time>
      </trkpt>
      <trkpt lat="46.0206" lon="6.36523">
        <ele>1304.65</ele>
        <time>2019-03-19T21:26:52Z</time>
      </trkpt>
      <trkpt lat="46.0206" lon="6.36524">
        <ele>1304.17</ele>
        <time>2019-03-19T21:26:53Z</time>
      </trkpt>
      <trkpt lat="46.02061" lon="6.36526">
        <ele>1303.69</ele>
        <time>2019-03-19T21:26:55Z</time>
      </trkpt>
      <trkpt lat="46.02063" lon="6.36529">
        <ele>1303.2</ele>
        <time>2019-03-19T21:27:00Z</time>
      </trkpt>
      <trkpt lat="46.02062" lon="6.3653">
        <ele>1302.72</ele>
        <time>2019-03-19T21:27:03Z</time>
      </trkpt>
      <trkpt lat="46.02066" lon="6.36548">
        <ele>1299.84</ele>
        <time>2019-03-19T21:27:25Z</time>
      </trkpt>
      <trkpt lat="46.0207" lon="6.3657">
        <ele>1296.48</ele>
        <time>2019-03-19T21:27:50Z</time>
      </trkpt>
      <trkpt lat="46.0207" lon="6.36581">
        <ele>1295.03</ele>
        <time>2019-03-19T21:28:03Z</time>
      </trkpt>
      <trkpt lat="46.02072" lon="6.366">
        <ele>1292.15</ele>
        <time>2019-03-19T21:28:23Z</time>
      </trkpt>
      <trkpt lat="46.02081" lon="6.36628">
        <ele>1288.78</ele>
        <time>2019-03-19T21:28:46Z</time>
      </trkpt>
      <trkpt lat="46.02081" lon="6.36636">
        <ele>1287.82</ele>
        <time>2019-03-19T21:28:51Z</time>
      </trkpt>
      <trkpt lat="46.0209" lon="6.36672">
        <ele>1284.94</ele>
        <time>2019-03-19T21:29:21Z</time>
      </trkpt>
      <trkpt lat="46.02102" lon="6.36723">
        <ele>1281.57</ele>
        <time>2019-03-19T21:29:51Z</time>
      </trkpt>
      <trkpt lat="46.02104" lon="6.36758">
        <ele>1278.69</ele>
        <time>2019-03-19T21:30:18Z</time>
      </trkpt>
      <trkpt lat="46.02105" lon="6.36759">
        <ele>1278.69</ele>
        <time>2019-03-19T21:30:19Z</time>
      </trkpt>
      <trkpt lat="46.02103" lon="6.36754">
        <ele>1278.21</ele>
        <time>2019-03-19T21:30:28Z</time>
      </trkpt>
      <trkpt lat="46.02109" lon="6.36762">
        <ele>1277.73</ele>
        <time>2019-03-19T21:31:37Z</time>
      </trkpt>
      <trkpt lat="46.02115" lon="6.36761">
        <ele>1275.81</ele>
        <time>2019-03-19T21:31:38Z</time>
      </trkpt>
      <trkpt lat="46.02122" lon="6.36763">
        <ele>1274.85</ele>
        <time>2019-03-19T21:31:39Z</time>
      </trkpt>
      <trkpt lat="46.02127" lon="6.3677">
        <ele>1271</ele>
        <time>2019-03-19T21:31:40Z</time>
      </trkpt>
      <trkpt lat="46.02131" lon="6.36777">
        <ele>1269.08</ele>
        <time>2019-03-19T21:31:41Z</time>
      </trkpt>
      <trkpt lat="46.02137" lon="6.36782">
        <ele>1267.16</ele>
        <time>2019-03-19T21:31:42Z</time>
      </trkpt>
      <trkpt lat="46.02143" lon="6.36788">
        <ele>1264.75</ele>
        <time>2019-03-19T21:31:43Z</time>
      </trkpt>
      <trkpt lat="46.02148" lon="6.36797">
        <ele>1261.87</ele>
        <time>2019-03-19T21:31:44Z</time>
      </trkpt>
      <trkpt lat="46.02158" lon="6.36813">
        <ele>1257.54</ele>
        <time>2019-03-19T21:31:46Z</time>
      </trkpt>
      <trkpt lat="46.02163" lon="6.36822">
        <ele>1255.14</ele>
        <time>2019-03-19T21:31:47Z</time>
      </trkpt>
      <trkpt lat="46.02168" lon="6.36832">
        <ele>1251.77</ele>
        <time>2019-03-19T21:31:48Z</time>
      </trkpt>
      <trkpt lat="46.02174" lon="6.3684">
        <ele>1249.37</ele>
        <time>2019-03-19T21:31:49Z</time>
      </trkpt>
      <trkpt lat="46.02178" lon="6.36849">
        <ele>1246.97</ele>
        <time>2019-03-19T21:31:50Z</time>
      </trkpt>
      <trkpt lat="46.02182" lon="6.3686">
        <ele>1244.08</ele>
        <time>2019-03-19T21:31:51Z</time>
      </trkpt>
      <trkpt lat="46.02185" lon="6.36871">
        <ele>1241.2</ele>
        <time>2019-03-19T21:31:52Z</time>
      </trkpt>
      <trkpt lat="46.02188" lon="6.36882">
        <ele>1239.28</ele>
        <time>2019-03-19T21:31:53Z</time>
      </trkpt>
      <trkpt lat="46.02191" lon="6.36893">
        <ele>1237.35</ele>
        <time>2019-03-19T21:31:54Z</time>
      </trkpt>
      <trkpt lat="46.02195" lon="6.36902">
        <ele>1235.43</ele>
        <time>2019-03-19T21:31:55Z</time>
      </trkpt>
      <trkpt lat="46.02198" lon="6.3691">
        <ele>1233.99</ele>
        <time>2019-03-19T21:31:56Z</time>
      </trkpt>
      <trkpt lat="46.022" lon="6.36919">
        <ele>1233.03</ele>
        <time>2019-03-19T21:31:57Z</time>
      </trkpt>
      <trkpt lat="46.02202" lon="6.36927">
        <ele>1232.07</ele>
        <time>2019-03-19T21:31:58Z</time>
      </trkpt>
      <trkpt lat="46.02204" lon="6.36935">
        <ele>1230.62</ele>
        <time>2019-03-19T21:31:59Z</time>
      </trkpt>
      <trkpt lat="46.02206" lon="6.36942">
        <ele>1230.14</ele>
        <time>2019-03-19T21:32:00Z</time>
      </trkpt>
      <trkpt lat="46.02209" lon="6.36948">
        <ele>1228.7</ele>
        <time>2019-03-19T21:32:01Z</time>
      </trkpt>
      <trkpt lat="46.02212" lon="6.36954">
        <ele>1227.74</ele>
        <time>2019-03-19T21:32:02Z</time>
      </trkpt>
      <trkpt lat="46.02213" lon="6.36963">
        <ele>1226.78</ele>
        <time>2019-03-19T21:32:03Z</time>
      </trkpt>
      <trkpt lat="46.02214" lon="6.3697">
        <ele>1225.82</ele>
        <time>2019-03-19T21:32:04Z</time>
      </trkpt>
      <trkpt lat="46.02216" lon="6.36975">
        <ele>1224.86</ele>
        <time>2019-03-19T21:32:05Z</time>
      </trkpt>
      <trkpt lat="46.02217" lon="6.36978">
        <ele>1224.86</ele>
        <time>2019-03-19T21:32:06Z</time>
      </trkpt>
      <trkpt lat="46.02219" lon="6.3698">
        <ele>1224.38</ele>
        <time>2019-03-19T21:32:07Z</time>
      </trkpt>
      <trkpt lat="46.02221" lon="6.36982">
        <ele>1223.9</ele>
        <time>2019-03-19T21:32:08Z</time>
      </trkpt>
      <trkpt lat="46.02222" lon="6.36985">
        <ele>1223.42</ele>
        <time>2019-03-19T21:32:09Z</time>
      </trkpt>
      <trkpt lat="46.02225" lon="6.36995">
        <ele>1222.45</ele>
        <time>2019-03-19T21:32:13Z</time>
      </trkpt>
      <trkpt lat="46.02226" lon="6.36996">
        <ele>1221.97</ele>
        <time>2019-03-19T21:32:14Z</time>
      </trkpt>
      <trkpt lat="46.02226" lon="6.36994">
        <ele>1221.01</ele>
        <time>2019-03-19T21:32:39Z</time>
      </trkpt>
      <trkpt lat="46.02224" lon="6.36992">
        <ele>1220.53</ele>
        <time>2019-03-19T21:32:48Z</time>
      </trkpt>
      <trkpt lat="46.02226" lon="6.36994">
        <ele>1221.01</ele>
        <time>2019-03-19T21:33:56Z</time>
      </trkpt>
      <trkpt lat="46.02222" lon="6.36996">
        <ele>1220.53</ele>
        <time>2019-03-19T21:34:08Z</time>
      </trkpt>
      <trkpt lat="46.02221" lon="6.36996">
        <ele>1220.05</ele>
        <time>2019-03-19T21:34:19Z</time>
      </trkpt>
      <trkpt lat="46.02222" lon="6.36998">
        <ele>1220.05</ele>
        <time>2019-03-19T21:35:03Z</time>
      </trkpt>
      <trkpt lat="46.02223" lon="6.37">
        <ele>1220.53</ele>
        <time>2019-03-19T21:35:24Z</time>
      </trkpt>
      <trkpt lat="46.02222" lon="6.37005">
        <ele>1220.53</ele>
        <time>2019-03-19T21:35:41Z</time>
      </trkpt>
      <trkpt lat="46.02219" lon="6.37003">
        <ele>1220.53</ele>
        <time>2019-03-19T21:36:13Z</time>
      </trkpt>
      <trkpt lat="46.02222" lon="6.36996">
        <ele>1220.05</ele>
        <time>2019-03-19T21:36:47Z</time>
      </trkpt>
      <trkpt lat="46.02223" lon="6.36995">
        <ele>1219.57</ele>
        <time>2019-03-19T21:37:05Z</time>
      </trkpt>
      <trkpt lat="46.02222" lon="6.36995">
        <ele>1220.05</ele>
        <time>2019-03-19T21:37:06Z</time>
      </trkpt>
      <trkpt lat="46.02222" lon="6.36997">
        <ele>1220.53</ele>
        <time>2019-03-19T21:37:38Z</time>
      </trkpt>
      <trkpt lat="46.02225" lon="6.36995">
        <ele>1219.57</ele>
        <time>2019-03-19T21:37:51Z</time>
      </trkpt>
      <trkpt lat="46.02226" lon="6.36995">
        <ele>1218.13</ele>
        <time>2019-03-19T21:37:55Z</time>
      </trkpt>
      <trkpt lat="46.02232" lon="6.36972">
        <ele>1214.76</ele>
        <time>2019-03-19T21:38:20Z</time>
      </trkpt>
      <trkpt lat="46.02239" lon="6.36953">
        <ele>1212.36</ele>
        <time>2019-03-19T21:38:38Z</time>
      </trkpt>
      <trkpt lat="46.02252" lon="6.36934">
        <ele>1209</ele>
        <time>2019-03-19T21:38:54Z</time>
      </trkpt>
      <trkpt lat="46.02257" lon="6.36929">
        <ele>1208.03</ele>
        <time>2019-03-19T21:38:59Z</time>
      </trkpt>
      <trkpt lat="46.02257" lon="6.36927">
        <ele>1208.03</ele>
        <time>2019-03-19T21:39:00Z</time>
      </trkpt>
      <trkpt lat="46.02259" lon="6.36926">
        <ele>1207.55</ele>
        <time>2019-03-19T21:39:01Z</time>
      </trkpt>
      <trkpt lat="46.02267" lon="6.36916">
        <ele>1205.63</ele>
        <time>2019-03-19T21:39:10Z</time>
      </trkpt>
      <trkpt lat="46.02267" lon="6.36913">
        <ele>1205.63</ele>
        <time>2019-03-19T21:39:13Z</time>
      </trkpt>
      <trkpt lat="46.02267" lon="6.36912">
        <ele>1205.15</ele>
        <time>2019-03-19T21:39:14Z</time>
      </trkpt>
      <trkpt lat="46.02267" lon="6.36911">
        <ele>1205.15</ele>
        <time>2019-03-19T21:39:15Z</time>
      </trkpt>
      <trkpt lat="46.02269" lon="6.36911">
        <ele>1205.15</ele>
        <time>2019-03-19T21:39:16Z</time>
      </trkpt>
      <trkpt lat="46.0227" lon="6.36909">
        <ele>1205.15</ele>
        <time>2019-03-19T21:39:17Z</time>
      </trkpt>
      <trkpt lat="46.02271" lon="6.36908">
        <ele>1205.15</ele>
        <time>2019-03-19T21:39:18Z</time>
      </trkpt>
      <trkpt lat="46.02273" lon="6.36899">
        <ele>1203.23</ele>
        <time>2019-03-19T21:39:25Z</time>
      </trkpt>
      <trkpt lat="46.02267" lon="6.36894">
        <ele>1202.75</ele>
        <time>2019-03-19T21:39:31Z</time>
      </trkpt>
      <trkpt lat="46.02268" lon="6.36892">
        <ele>1202.27</ele>
        <time>2019-03-19T21:39:34Z</time>
      </trkpt>
      <trkpt lat="46.02269" lon="6.36891">
        <ele>1201.79</ele>
        <time>2019-03-19T21:39:35Z</time>
      </trkpt>
      <trkpt lat="46.0227" lon="6.3689">
        <ele>1201.79</ele>
        <time>2019-03-19T21:39:36Z</time>
      </trkpt>
      <trkpt lat="46.02271" lon="6.36888">
        <ele>1201.3</ele>
        <time>2019-03-19T21:39:37Z</time>
      </trkpt>
      <trkpt lat="46.02273" lon="6.36888">
        <ele>1200.82</ele>
        <time>2019-03-19T21:39:38Z</time>
      </trkpt>
      <trkpt lat="46.02273" lon="6.36887">
        <ele>1200.82</ele>
        <time>2019-03-19T21:39:39Z</time>
      </trkpt>
      <trkpt lat="46.02277" lon="6.36887">
        <ele>1200.82</ele>
        <time>2019-03-19T21:39:40Z</time>
      </trkpt>
      <trkpt lat="46.02278" lon="6.36886">
        <ele>1200.34</ele>
        <time>2019-03-19T21:39:41Z</time>
      </trkpt>
      <trkpt lat="46.02279" lon="6.36885">
        <ele>1200.34</ele>
        <time>2019-03-19T21:39:42Z</time>
      </trkpt>
      <trkpt lat="46.0228" lon="6.36885">
        <ele>1199.86</ele>
        <time>2019-03-19T21:39:43Z</time>
      </trkpt>
      <trkpt lat="46.02281" lon="6.36884">
        <ele>1199.38</ele>
        <time>2019-03-19T21:39:44Z</time>
      </trkpt>
      <trkpt lat="46.02284" lon="6.36883">
        <ele>1199.38</ele>
        <time>2019-03-19T21:39:45Z</time>
      </trkpt>
      <trkpt lat="46.02285" lon="6.36882">
        <ele>1199.38</ele>
        <time>2019-03-19T21:39:46Z</time>
      </trkpt>
      <trkpt lat="46.02286" lon="6.3688">
        <ele>1199.38</ele>
        <time>2019-03-19T21:39:47Z</time>
      </trkpt>
      <trkpt lat="46.02288" lon="6.36879">
        <ele>1198.9</ele>
        <time>2019-03-19T21:39:48Z</time>
      </trkpt>
      <trkpt lat="46.02289" lon="6.36878">
        <ele>1198.9</ele>
        <time>2019-03-19T21:39:49Z</time>
      </trkpt>
      <trkpt lat="46.02289" lon="6.36876">
        <ele>1198.42</ele>
        <time>2019-03-19T21:39:50Z</time>
      </trkpt>
      <trkpt lat="46.0229" lon="6.36875">
        <ele>1198.42</ele>
        <time>2019-03-19T21:39:51Z</time>
      </trkpt>
      <trkpt lat="46.0229" lon="6.36873">
        <ele>1198.42</ele>
        <time>2019-03-19T21:39:52Z</time>
      </trkpt>
      <trkpt lat="46.0229" lon="6.36872">
        <ele>1197.94</ele>
        <time>2019-03-19T21:39:53Z</time>
      </trkpt>
      <trkpt lat="46.02291" lon="6.3687">
        <ele>1197.94</ele>
        <time>2019-03-19T21:39:54Z</time>
      </trkpt>
      <trkpt lat="46.02292" lon="6.36869">
        <ele>1197.46</ele>
        <time>2019-03-19T21:39:55Z</time>
      </trkpt>
      <trkpt lat="46.02293" lon="6.36868">
        <ele>1197.46</ele>
        <time>2019-03-19T21:39:56Z</time>
      </trkpt>
      <trkpt lat="46.02294" lon="6.36867">
        <ele>1196.98</ele>
        <time>2019-03-19T21:39:57Z</time>
      </trkpt>
      <trkpt lat="46.02295" lon="6.36865">
        <ele>1196.98</ele>
        <time>2019-03-19T21:39:58Z</time>
      </trkpt>
      <trkpt lat="46.02304" lon="6.36836">
        <ele>1193.61</ele>
        <time>2019-03-19T21:40:16Z</time>
      </trkpt>
      <trkpt lat="46.02311" lon="6.36818">
        <ele>1190.73</ele>
        <time>2019-03-19T21:40:28Z</time>
      </trkpt>
      <trkpt lat="46.02307" lon="6.36793">
        <ele>1187.85</ele>
        <time>2019-03-19T21:40:41Z</time>
      </trkpt>
      <trkpt lat="46.02306" lon="6.36789">
        <ele>1187.37</ele>
        <time>2019-03-19T21:40:43Z</time>
      </trkpt>
      <trkpt lat="46.02306" lon="6.36786">
        <ele>1186.88</ele>
        <time>2019-03-19T21:40:44Z</time>
      </trkpt>
      <trkpt lat="46.02305" lon="6.36785">
        <ele>1186.88</ele>
        <time>2019-03-19T21:40:45Z</time>
      </trkpt>
      <trkpt lat="46.02306" lon="6.36782">
        <ele>1186.4</ele>
        <time>2019-03-19T21:40:47Z</time>
      </trkpt>
      <trkpt lat="46.02305" lon="6.3678">
        <ele>1186.4</ele>
        <time>2019-03-19T21:40:48Z</time>
      </trkpt>
      <trkpt lat="46.02304" lon="6.36778">
        <ele>1185.92</ele>
        <time>2019-03-19T21:40:49Z</time>
      </trkpt>
      <trkpt lat="46.0229" lon="6.36761">
        <ele>1183.04</ele>
        <time>2019-03-19T21:41:08Z</time>
      </trkpt>
      <trkpt lat="46.02299" lon="6.36744">
        <ele>1179.67</ele>
        <time>2019-03-19T21:41:25Z</time>
      </trkpt>
      <trkpt lat="46.02301" lon="6.36738">
        <ele>1178.71</ele>
        <time>2019-03-19T21:41:31Z</time>
      </trkpt>
      <trkpt lat="46.02301" lon="6.36737">
        <ele>1178.71</ele>
        <time>2019-03-19T21:41:32Z</time>
      </trkpt>
      <trkpt lat="46.02303" lon="6.36718">
        <ele>1175.35</ele>
        <time>2019-03-19T21:41:48Z</time>
      </trkpt>
      <trkpt lat="46.02305" lon="6.36693">
        <ele>1172.47</ele>
        <time>2019-03-19T21:42:08Z</time>
      </trkpt>
      <trkpt lat="46.02307" lon="6.3669">
        <ele>1171.98</ele>
        <time>2019-03-19T21:42:11Z</time>
      </trkpt>
      <trkpt lat="46.02309" lon="6.36688">
        <ele>1172.47</ele>
        <time>2019-03-19T21:42:15Z</time>
      </trkpt>
      <trkpt lat="46.02316" lon="6.36691">
        <ele>1171.98</ele>
        <time>2019-03-19T21:42:25Z</time>
      </trkpt>
      <trkpt lat="46.02317" lon="6.36692">
        <ele>1171.98</ele>
        <time>2019-03-19T21:42:28Z</time>
      </trkpt>
      <trkpt lat="46.02322" lon="6.36695">
        <ele>1171.98</ele>
        <time>2019-03-19T21:42:32Z</time>
      </trkpt>
      <trkpt lat="46.02324" lon="6.36696">
        <ele>1171.98</ele>
        <time>2019-03-19T21:42:33Z</time>
      </trkpt>
      <trkpt lat="46.02325" lon="6.36697">
        <ele>1171.98</ele>
        <time>2019-03-19T21:42:34Z</time>
      </trkpt>
      <trkpt lat="46.02326" lon="6.36698">
        <ele>1171.98</ele>
        <time>2019-03-19T21:42:35Z</time>
      </trkpt>
      <trkpt lat="46.02327" lon="6.36699">
        <ele>1171.98</ele>
        <time>2019-03-19T21:42:36Z</time>
      </trkpt>
      <trkpt lat="46.0233" lon="6.36701">
        <ele>1171.5</ele>
        <time>2019-03-19T21:42:40Z</time>
      </trkpt>
      <trkpt lat="46.02332" lon="6.36703">
        <ele>1171.5</ele>
        <time>2019-03-19T21:42:42Z</time>
      </trkpt>
      <trkpt lat="46.02333" lon="6.36704">
        <ele>1171.5</ele>
        <time>2019-03-19T21:42:43Z</time>
      </trkpt>
      <trkpt lat="46.02334" lon="6.36705">
        <ele>1171.02</ele>
        <time>2019-03-19T21:42:44Z</time>
      </trkpt>
      <trkpt lat="46.02357" lon="6.36732">
        <ele>1169.58</ele>
        <time>2019-03-19T21:43:05Z</time>
      </trkpt>
      <trkpt lat="46.02358" lon="6.36733">
        <ele>1169.1</ele>
        <time>2019-03-19T21:43:06Z</time>
      </trkpt>
      <trkpt lat="46.02359" lon="6.36734">
        <ele>1169.1</ele>
        <time>2019-03-19T21:43:07Z</time>
      </trkpt>
      <trkpt lat="46.0236" lon="6.36735">
        <ele>1169.1</ele>
        <time>2019-03-19T21:43:08Z</time>
      </trkpt>
      <trkpt lat="46.02361" lon="6.36737">
        <ele>1168.62</ele>
        <time>2019-03-19T21:43:09Z</time>
      </trkpt>
      <trkpt lat="46.02362" lon="6.36738">
        <ele>1168.62</ele>
        <time>2019-03-19T21:43:10Z</time>
      </trkpt>
      <trkpt lat="46.02363" lon="6.36739">
        <ele>1168.62</ele>
        <time>2019-03-19T21:43:11Z</time>
      </trkpt>
      <trkpt lat="46.02365" lon="6.36749">
        <ele>1167.18</ele>
        <time>2019-03-19T21:43:20Z</time>
      </trkpt>
      <trkpt lat="46.02366" lon="6.36749">
        <ele>1167.18</ele>
        <time>2019-03-19T21:43:21Z</time>
      </trkpt>
      <trkpt lat="46.02366" lon="6.36751">
        <ele>1167.18</ele>
        <time>2019-03-19T21:43:22Z</time>
      </trkpt>
      <trkpt lat="46.02366" lon="6.36753">
        <ele>1166.7</ele>
        <time>2019-03-19T21:43:23Z</time>
      </trkpt>
      <trkpt lat="46.02367" lon="6.36754">
        <ele>1166.7</ele>
        <time>2019-03-19T21:43:24Z</time>
      </trkpt>
      <trkpt lat="46.02367" lon="6.36756">
        <ele>1166.7</ele>
        <time>2019-03-19T21:43:25Z</time>
      </trkpt>
      <trkpt lat="46.02368" lon="6.36758">
        <ele>1166.22</ele>
        <time>2019-03-19T21:43:26Z</time>
      </trkpt>
      <trkpt lat="46.02368" lon="6.3676">
        <ele>1166.22</ele>
        <time>2019-03-19T21:43:27Z</time>
      </trkpt>
      <trkpt lat="46.02372" lon="6.36767">
        <ele>1165.74</ele>
        <time>2019-03-19T21:43:32Z</time>
      </trkpt>
      <trkpt lat="46.02372" lon="6.36768">
        <ele>1165.74</ele>
        <time>2019-03-19T21:43:33Z</time>
      </trkpt>
      <trkpt lat="46.02379" lon="6.36783">
        <ele>1162.37</ele>
        <time>2019-03-19T21:43:47Z</time>
      </trkpt>
      <trkpt lat="46.02378" lon="6.36785">
        <ele>1161.89</ele>
        <time>2019-03-19T21:43:48Z</time>
      </trkpt>
      <trkpt lat="46.02378" lon="6.36787">
        <ele>1161.41</ele>
        <time>2019-03-19T21:43:49Z</time>
      </trkpt>
      <trkpt lat="46.02379" lon="6.36789">
        <ele>1161.41</ele>
        <time>2019-03-19T21:43:50Z</time>
      </trkpt>
      <trkpt lat="46.02379" lon="6.36791">
        <ele>1160.93</ele>
        <time>2019-03-19T21:43:51Z</time>
      </trkpt>
      <trkpt lat="46.02379" lon="6.36792">
        <ele>1160.45</ele>
        <time>2019-03-19T21:43:52Z</time>
      </trkpt>
      <trkpt lat="46.02379" lon="6.368">
        <ele>1159.97</ele>
        <time>2019-03-19T21:43:57Z</time>
      </trkpt>
      <trkpt lat="46.0238" lon="6.36803">
        <ele>1159.49</ele>
        <time>2019-03-19T21:43:59Z</time>
      </trkpt>
      <trkpt lat="46.0238" lon="6.36804">
        <ele>1159.01</ele>
        <time>2019-03-19T21:44:00Z</time>
      </trkpt>
      <trkpt lat="46.02382" lon="6.36818">
        <ele>1157.08</ele>
        <time>2019-03-19T21:44:08Z</time>
      </trkpt>
      <trkpt lat="46.02382" lon="6.3682">
        <ele>1156.6</ele>
        <time>2019-03-19T21:44:09Z</time>
      </trkpt>
      <trkpt lat="46.02386" lon="6.36831">
        <ele>1154.68</ele>
        <time>2019-03-19T21:44:18Z</time>
      </trkpt>
      <trkpt lat="46.02386" lon="6.36832">
        <ele>1154.2</ele>
        <time>2019-03-19T21:44:19Z</time>
      </trkpt>
      <trkpt lat="46.02389" lon="6.36846">
        <ele>1150.84</ele>
        <time>2019-03-19T21:44:31Z</time>
      </trkpt>
      <trkpt lat="46.02392" lon="6.36856">
        <ele>1147.95</ele>
        <time>2019-03-19T21:44:42Z</time>
      </trkpt>
      <trkpt lat="46.02392" lon="6.36858">
        <ele>1147.95</ele>
        <time>2019-03-19T21:44:43Z</time>
      </trkpt>
      <trkpt lat="46.02392" lon="6.36862">
        <ele>1146.99</ele>
        <time>2019-03-19T21:44:47Z</time>
      </trkpt>
      <trkpt lat="46.02395" lon="6.3687">
        <ele>1145.55</ele>
        <time>2019-03-19T21:44:53Z</time>
      </trkpt>
      <trkpt lat="46.02396" lon="6.36871">
        <ele>1145.07</ele>
        <time>2019-03-19T21:44:54Z</time>
      </trkpt>
      <trkpt lat="46.02398" lon="6.36875">
        <ele>1144.59</ele>
        <time>2019-03-19T21:44:57Z</time>
      </trkpt>
      <trkpt lat="46.02398" lon="6.36876">
        <ele>1144.11</ele>
        <time>2019-03-19T21:44:58Z</time>
      </trkpt>
      <trkpt lat="46.02403" lon="6.36886">
        <ele>1141.7</ele>
        <time>2019-03-19T21:45:07Z</time>
      </trkpt>
      <trkpt lat="46.02403" lon="6.36887">
        <ele>1141.7</ele>
        <time>2019-03-19T21:45:08Z</time>
      </trkpt>
      <trkpt lat="46.02404" lon="6.36888">
        <ele>1141.22</ele>
        <time>2019-03-19T21:45:09Z</time>
      </trkpt>
      <trkpt lat="46.02406" lon="6.36891">
        <ele>1140.74</ele>
        <time>2019-03-19T21:45:12Z</time>
      </trkpt>
      <trkpt lat="46.02415" lon="6.36906">
        <ele>1137.38</ele>
        <time>2019-03-19T21:45:34Z</time>
      </trkpt>
      <trkpt lat="46.02419" lon="6.36908">
        <ele>1136.42</ele>
        <time>2019-03-19T21:45:37Z</time>
      </trkpt>
      <trkpt lat="46.02419" lon="6.36909">
        <ele>1136.42</ele>
        <time>2019-03-19T21:45:38Z</time>
      </trkpt>
      <trkpt lat="46.0242" lon="6.3691">
        <ele>1136.42</ele>
        <time>2019-03-19T21:45:39Z</time>
      </trkpt>
      <trkpt lat="46.02421" lon="6.36911">
        <ele>1135.94</ele>
        <time>2019-03-19T21:45:40Z</time>
      </trkpt>
      <trkpt lat="46.02422" lon="6.36912">
        <ele>1135.45</ele>
        <time>2019-03-19T21:45:41Z</time>
      </trkpt>
      <trkpt lat="46.02423" lon="6.36913">
        <ele>1135.45</ele>
        <time>2019-03-19T21:45:42Z</time>
      </trkpt>
      <trkpt lat="46.02424" lon="6.36914">
        <ele>1134.97</ele>
        <time>2019-03-19T21:45:43Z</time>
      </trkpt>
      <trkpt lat="46.02425" lon="6.36916">
        <ele>1134.97</ele>
        <time>2019-03-19T21:45:44Z</time>
      </trkpt>
      <trkpt lat="46.02426" lon="6.36917">
        <ele>1134.97</ele>
        <time>2019-03-19T21:45:45Z</time>
      </trkpt>
      <trkpt lat="46.02427" lon="6.36918">
        <ele>1134.49</ele>
        <time>2019-03-19T21:45:46Z</time>
      </trkpt>
      <trkpt lat="46.02427" lon="6.36919">
        <ele>1134.01</ele>
        <time>2019-03-19T21:45:47Z</time>
      </trkpt>
      <trkpt lat="46.02435" lon="6.36934">
        <ele>1131.13</ele>
        <time>2019-03-19T21:45:58Z</time>
      </trkpt>
      <trkpt lat="46.0244" lon="6.36948">
        <ele>1128.24</ele>
        <time>2019-03-19T21:46:10Z</time>
      </trkpt>
      <trkpt lat="46.02444" lon="6.36962">
        <ele>1124.88</ele>
        <time>2019-03-19T21:46:23Z</time>
      </trkpt>
      <trkpt lat="46.02444" lon="6.3697">
        <ele>1123.44</ele>
        <time>2019-03-19T21:46:28Z</time>
      </trkpt>
      <trkpt lat="46.02446" lon="6.36981">
        <ele>1120.55</ele>
        <time>2019-03-19T21:46:39Z</time>
      </trkpt>
      <trkpt lat="46.02451" lon="6.36994">
        <ele>1117.19</ele>
        <time>2019-03-19T21:46:53Z</time>
      </trkpt>
      <trkpt lat="46.0246" lon="6.37005">
        <ele>1114.31</ele>
        <time>2019-03-19T21:47:04Z</time>
      </trkpt>
      <trkpt lat="46.02462" lon="6.37026">
        <ele>1111.42</ele>
        <time>2019-03-19T21:47:14Z</time>
      </trkpt>
      <trkpt lat="46.02469" lon="6.37046">
        <ele>1108.06</ele>
        <time>2019-03-19T21:47:26Z</time>
      </trkpt>
      <trkpt lat="46.02476" lon="6.37057">
        <ele>1105.17</ele>
        <time>2019-03-19T21:47:35Z</time>
      </trkpt>
      <trkpt lat="46.02482" lon="6.37073">
        <ele>1101.81</ele>
        <time>2019-03-19T21:47:46Z</time>
      </trkpt>
      <trkpt lat="46.02489" lon="6.3709">
        <ele>1098.44</ele>
        <time>2019-03-19T21:48:00Z</time>
      </trkpt>
      <trkpt lat="46.02501" lon="6.37105">
        <ele>1095.56</ele>
        <time>2019-03-19T21:48:14Z</time>
      </trkpt>
      <trkpt lat="46.02507" lon="6.37116">
        <ele>1093.16</ele>
        <time>2019-03-19T21:48:23Z</time>
      </trkpt>
      <trkpt lat="46.02517" lon="6.37127">
        <ele>1089.79</ele>
        <time>2019-03-19T21:48:38Z</time>
      </trkpt>
      <trkpt lat="46.0253" lon="6.37135">
        <ele>1086.91</ele>
        <time>2019-03-19T21:48:52Z</time>
      </trkpt>
      <trkpt lat="46.0254" lon="6.37149">
        <ele>1084.02</ele>
        <time>2019-03-19T21:49:04Z</time>
      </trkpt>
      <trkpt lat="46.02548" lon="6.37167">
        <ele>1080.66</ele>
        <time>2019-03-19T21:49:18Z</time>
      </trkpt>
      <trkpt lat="46.0255" lon="6.37188">
        <ele>1077.78</ele>
        <time>2019-03-19T21:49:32Z</time>
      </trkpt>
      <trkpt lat="46.02556" lon="6.3721">
        <ele>1074.41</ele>
        <time>2019-03-19T21:49:47Z</time>
      </trkpt>
      <trkpt lat="46.02572" lon="6.37224">
        <ele>1071.05</ele>
        <time>2019-03-19T21:50:07Z</time>
      </trkpt>
      <trkpt lat="46.02585" lon="6.37234">
        <ele>1068.16</ele>
        <time>2019-03-19T21:50:21Z</time>
      </trkpt>
      <trkpt lat="46.02598" lon="6.37248">
        <ele>1064.8</ele>
        <time>2019-03-19T21:50:38Z</time>
      </trkpt>
      <trkpt lat="46.02602" lon="6.37252">
        <ele>1064.32</ele>
        <time>2019-03-19T21:50:42Z</time>
      </trkpt>
      <trkpt lat="46.02614" lon="6.3727">
        <ele>1060.95</ele>
        <time>2019-03-19T21:50:59Z</time>
      </trkpt>
      <trkpt lat="46.02617" lon="6.37277">
        <ele>1059.99</ele>
        <time>2019-03-19T21:51:24Z</time>
      </trkpt>
      <trkpt lat="46.02618" lon="6.37278">
        <ele>1059.99</ele>
        <time>2019-03-19T21:51:25Z</time>
      </trkpt>
      <trkpt lat="46.02619" lon="6.37279">
        <ele>1059.51</ele>
        <time>2019-03-19T21:51:26Z</time>
      </trkpt>
      <trkpt lat="46.0262" lon="6.3728">
        <ele>1059.51</ele>
        <time>2019-03-19T21:51:27Z</time>
      </trkpt>
      <trkpt lat="46.0262" lon="6.37281">
        <ele>1059.03</ele>
        <time>2019-03-19T21:51:28Z</time>
      </trkpt>
      <trkpt lat="46.02621" lon="6.37282">
        <ele>1059.03</ele>
        <time>2019-03-19T21:51:29Z</time>
      </trkpt>
      <trkpt lat="46.02622" lon="6.37282">
        <ele>1059.03</ele>
        <time>2019-03-19T21:51:30Z</time>
      </trkpt>
      <trkpt lat="46.02623" lon="6.37283">
        <ele>1058.55</ele>
        <time>2019-03-19T21:51:31Z</time>
      </trkpt>
      <trkpt lat="46.02632" lon="6.37307">
        <ele>1055.67</ele>
        <time>2019-03-19T21:51:48Z</time>
      </trkpt>
      <trkpt lat="46.02628" lon="6.3734">
        <ele>1052.3</ele>
        <time>2019-03-19T21:52:09Z</time>
      </trkpt>
      <trkpt lat="46.02627" lon="6.37367">
        <ele>1049.42</ele>
        <time>2019-03-19T21:52:26Z</time>
      </trkpt>
      <trkpt lat="46.02628" lon="6.37372">
        <ele>1048.94</ele>
        <time>2019-03-19T21:52:29Z</time>
      </trkpt>
      <trkpt lat="46.02628" lon="6.37373">
        <ele>1048.45</ele>
        <time>2019-03-19T21:52:30Z</time>
      </trkpt>
      <trkpt lat="46.02638" lon="6.37396">
        <ele>1045.57</ele>
        <time>2019-03-19T21:52:47Z</time>
      </trkpt>
      <trkpt lat="46.0264" lon="6.37396">
        <ele>1045.09</ele>
        <time>2019-03-19T21:52:50Z</time>
      </trkpt>
      <trkpt lat="46.02642" lon="6.37393">
        <ele>1045.09</ele>
        <time>2019-03-19T21:53:55Z</time>
      </trkpt>
    </trkseg>
  </trk>
</gpx>